PWSweather.com
Personal Weather Stations
Station Observations
KNEOMA130
Stonybrook South, Omaha, NE 68138

Stonybrook SouthOmaha, NE 68138

Lat: 41.190485, Lon: -96.13102900000001

Elevation: 1142

Station Type: Davis VP2

http://chappelleweather.com

High Low Average
Temperature 12.9°F-10.6°C 0.2°F-17.7°C 7.3°F-13.7°C
Dew Point 3.3°F-15.9°C -6.8°F-21.6°C -1.6°F-18.7°C
Winds 18.0 mph 29.0 kmh Calm Calm 4.0 mph WSW6.4 kmh WSW
Wind Gusts 20.0 mph32.2 kmh 5.0 mph8.0 kmh 11.0 mph17.7 kmh
Humidity 73% 55% 66%
Pressure 30.73 in1040.6 mb 30.37 in1028.4 mb -
Precipitation 0.00 in0.0 mm - -
Hour Temp Dew Point Humidity Winds Wind Gusts Pressure Precip Precip Rate Daily Precip Total
12:00 AM 6.5°F-14.2°C -1.2°F-18.4°C 70% 12.0 mph NW19.3 kmh NW 17.0 mph27.4 kmh 30.37 in1028.4 mb 0.00 in0.0 mm 0.00 in0.0 mm 0.00 in0.0 mm
12:01 AM 6.5°F-14.2°C -1.2°F-18.4°C 70% 7.0 mph WNW11.3 kmh WNW 17.0 mph27.4 kmh 30.37 in1028.4 mb 0.00 in0.0 mm 0.00 in0.0 mm 0.00 in0.0 mm
12:02 AM 6.5°F-14.2°C -1.2°F-18.4°C 70% 13.0 mph NW20.9 kmh NW 14.0 mph22.5 kmh 30.37 in1028.4 mb 0.00 in0.0 mm 0.00 in0.0 mm 0.00 in0.0 mm
12:03 AM 6.4°F-14.2°C -1.3°F-18.5°C 70% 5.0 mph NNW8.0 kmh NNW 16.0 mph25.7 kmh 30.38 in1028.8 mb 0.00 in0.0 mm 0.00 in0.0 mm 0.00 in0.0 mm
12:04 AM 6.4°F-14.2°C -1.3°F-18.5°C 70% 7.0 mph NW11.3 kmh NW 16.0 mph25.7 kmh 30.37 in1028.4 mb 0.00 in0.0 mm 0.00 in0.0 mm 0.00 in0.0 mm
12:05 AM 6.4°F-14.2°C -1.3°F-18.5°C 70% 6.0 mph N9.7 kmh N 16.0 mph25.7 kmh 30.37 in1028.4 mb 0.00 in0.0 mm 0.00 in0.0 mm 0.00 in0.0 mm
12:06 AM 6.3°F-14.3°C -1.4°F-18.6°C 70% 4.0 mph NW6.4 kmh NW 19.0 mph30.6 kmh 30.37 in1028.4 mb 0.00 in0.0 mm 0.00 in0.0 mm 0.00 in0.0 mm
12:07 AM 6.4°F-14.2°C -1.6°F-18.7°C 69% 9.0 mph WNW14.5 kmh WNW 19.0 mph30.6 kmh 30.37 in1028.4 mb 0.00 in0.0 mm 0.00 in0.0 mm 0.00 in0.0 mm
12:08 AM 6.4°F-14.2°C -1.3°F-18.5°C 70% 5.0 mph NNW8.0 kmh NNW 19.0 mph30.6 kmh 30.37 in1028.4 mb 0.00 in0.0 mm 0.00 in0.0 mm 0.00 in0.0 mm
12:09 AM 6.3°F-14.3°C -1.4°F-18.6°C 70% 6.0 mph NNW9.7 kmh NNW 19.0 mph30.6 kmh 30.38 in1028.8 mb 0.00 in0.0 mm 0.00 in0.0 mm 0.00 in0.0 mm
12:10 AM 6.3°F-14.3°C -1.4°F-18.6°C 70% 4.0 mph NNW6.4 kmh NNW 19.0 mph30.6 kmh 30.37 in1028.4 mb 0.00 in0.0 mm 0.00 in0.0 mm 0.00 in0.0 mm
12:11 AM 6.3°F-14.3°C -1.7°F-18.7°C 69% 6.0 mph NNW9.7 kmh NNW 19.0 mph30.6 kmh 30.38 in1028.8 mb 0.00 in0.0 mm 0.00 in0.0 mm 0.00 in0.0 mm
12:12 AM 6.3°F-14.3°C -1.7°F-18.7°C 69% 4.0 mph N6.4 kmh N 19.0 mph30.6 kmh 30.38 in1028.8 mb 0.00 in0.0 mm 0.00 in0.0 mm 0.00 in0.0 mm
12:13 AM 6.3°F-14.3°C -1.4°F-18.6°C 70% 5.0 mph NE8.0 kmh NE 19.0 mph30.6 kmh 30.38 in1028.8 mb 0.00 in0.0 mm 0.00 in0.0 mm 0.00 in0.0 mm
12:14 AM 6.2°F-14.3°C -1.5°F-18.6°C 70% 5.0 mph NW8.0 kmh NW 19.0 mph30.6 kmh 30.38 in1028.8 mb 0.00 in0.0 mm 0.00 in0.0 mm 0.00 in0.0 mm
12:15 AM 6.2°F-14.3°C -1.5°F-18.6°C 70% 8.0 mph NW12.9 kmh NW 19.0 mph30.6 kmh 30.38 in1028.8 mb 0.00 in0.0 mm 0.00 in0.0 mm 0.00 in0.0 mm
12:16 AM 6.2°F-14.3°C -1.5°F-18.6°C 70% 8.0 mph N12.9 kmh N 11.0 mph17.7 kmh 30.38 in1028.8 mb 0.00 in0.0 mm 0.00 in0.0 mm 0.00 in0.0 mm
12:17 AM 6.2°F-14.3°C -1.5°F-18.6°C 70% 9.0 mph NNW14.5 kmh NNW 20.0 mph32.2 kmh 30.38 in1028.8 mb 0.00 in0.0 mm 0.00 in0.0 mm 0.00 in0.0 mm
12:18 AM 6.2°F-14.3°C -1.5°F-18.6°C 70% 5.0 mph NW8.0 kmh NW 20.0 mph32.2 kmh 30.38 in1028.8 mb 0.00 in0.0 mm 0.00 in0.0 mm 0.00 in0.0 mm
12:19 AM 6.2°F-14.3°C -1.5°F-18.6°C 70% 6.0 mph NW9.7 kmh NW 20.0 mph32.2 kmh 30.38 in1028.8 mb 0.00 in0.0 mm 0.00 in0.0 mm 0.00 in0.0 mm
12:20 AM 6.1°F-14.4°C -1.6°F-18.7°C 70% 10.0 mph NW16.1 kmh NW 20.0 mph32.2 kmh 30.38 in1028.8 mb 0.00 in0.0 mm 0.00 in0.0 mm 0.00 in0.0 mm
12:21 AM 6.1°F-14.4°C -1.6°F-18.7°C 70% 9.0 mph NW14.5 kmh NW 20.0 mph32.2 kmh 30.38 in1028.8 mb 0.00 in0.0 mm 0.00 in0.0 mm 0.00 in0.0 mm
12:22 AM 6.1°F-14.4°C -1.9°F-18.8°C 69% 9.0 mph NW14.5 kmh NW 20.0 mph32.2 kmh 30.38 in1028.8 mb 0.00 in0.0 mm 0.00 in0.0 mm 0.00 in0.0 mm
12:23 AM 6.0°F-14.4°C -2.0°F-18.9°C 69% 8.0 mph NW12.9 kmh NW 20.0 mph32.2 kmh 30.38 in1028.8 mb 0.00 in0.0 mm 0.00 in0.0 mm 0.00 in0.0 mm
12:24 AM 6.0°F-14.4°C -2.0°F-18.9°C 69% 4.0 mph NW6.4 kmh NW 20.0 mph32.2 kmh 30.38 in1028.8 mb 0.00 in0.0 mm 0.00 in0.0 mm 0.00 in0.0 mm
12:25 AM 6.0°F-14.4°C -2.0°F-18.9°C 69% 8.0 mph NW12.9 kmh NW 20.0 mph32.2 kmh 30.38 in1028.8 mb 0.00 in0.0 mm 0.00 in0.0 mm 0.00 in0.0 mm
12:26 AM 6.0°F-14.4°C -2.0°F-18.9°C 69% 3.0 mph NW4.8 kmh NW 20.0 mph32.2 kmh 30.38 in1028.8 mb 0.00 in0.0 mm 0.00 in0.0 mm 0.00 in0.0 mm
12:27 AM 6.0°F-14.4°C -2.0°F-18.9°C 69% 5.0 mph N8.0 kmh N 14.0 mph22.5 kmh 30.38 in1028.8 mb 0.00 in0.0 mm 0.00 in0.0 mm 0.00 in0.0 mm
12:28 AM 6.0°F-14.4°C -2.0°F-18.9°C 69% 4.0 mph WNW6.4 kmh WNW 14.0 mph22.5 kmh 30.38 in1028.8 mb 0.00 in0.0 mm 0.00 in0.0 mm 0.00 in0.0 mm
12:29 AM 6.0°F-14.4°C -1.7°F-18.7°C 70% 8.0 mph NNW12.9 kmh NNW 14.0 mph22.5 kmh 30.39 in1029.1 mb 0.00 in0.0 mm 0.00 in0.0 mm 0.00 in0.0 mm
12:30 AM 6.0°F-14.4°C -1.7°F-18.7°C 70% 8.0 mph NW12.9 kmh NW 14.0 mph22.5 kmh 30.38 in1028.8 mb 0.00 in0.0 mm 0.00 in0.0 mm 0.00 in0.0 mm
12:31 AM 5.9°F-14.5°C -1.8°F-18.8°C 70% 8.0 mph NW12.9 kmh NW 14.0 mph22.5 kmh 30.38 in1028.8 mb 0.00 in0.0 mm 0.00 in0.0 mm 0.00 in0.0 mm
12:32 AM 5.9°F-14.5°C -1.8°F-18.8°C 70% 2.0 mph WNW3.2 kmh WNW 14.0 mph22.5 kmh 30.38 in1028.8 mb 0.00 in0.0 mm 0.00 in0.0 mm 0.00 in0.0 mm
12:33 AM 5.9°F-14.5°C -1.8°F-18.8°C 70% 8.0 mph NW12.9 kmh NW 15.0 mph24.1 kmh 30.38 in1028.8 mb 0.00 in0.0 mm 0.00 in0.0 mm 0.00 in0.0 mm
12:34 AM 5.9°F-14.5°C -1.8°F-18.8°C 70% 4.0 mph NW6.4 kmh NW 15.0 mph24.1 kmh 30.38 in1028.8 mb 0.00 in0.0 mm 0.00 in0.0 mm 0.00 in0.0 mm
12:35 AM 5.8°F-14.6°C -1.9°F-18.8°C 70% 3.0 mph WSW4.8 kmh WSW 15.0 mph24.1 kmh 30.38 in1028.8 mb 0.00 in0.0 mm 0.00 in0.0 mm 0.00 in0.0 mm
12:36 AM 5.8°F-14.6°C -1.9°F-18.8°C 70% 6.0 mph N9.7 kmh N 15.0 mph24.1 kmh 30.38 in1028.8 mb 0.00 in0.0 mm 0.00 in0.0 mm 0.00 in0.0 mm
12:37 AM 5.8°F-14.6°C -1.9°F-18.8°C 70% 5.0 mph NW8.0 kmh NW 15.0 mph24.1 kmh 30.38 in1028.8 mb 0.00 in0.0 mm 0.00 in0.0 mm 0.00 in0.0 mm
12:38 AM 5.8°F-14.6°C -1.9°F-18.8°C 70% 5.0 mph NW8.0 kmh NW 15.0 mph24.1 kmh 30.38 in1028.8 mb 0.00 in0.0 mm 0.00 in0.0 mm 0.00 in0.0 mm
12:39 AM 5.7°F-14.6°C -2.0°F-18.9°C 70% 4.0 mph NNW6.4 kmh NNW 15.0 mph24.1 kmh 30.38 in1028.8 mb 0.00 in0.0 mm 0.00 in0.0 mm 0.00 in0.0 mm
12:40 AM 5.7°F-14.6°C -2.0°F-18.9°C 70% 5.0 mph NNW8.0 kmh NNW 15.0 mph24.1 kmh 30.38 in1028.8 mb 0.00 in0.0 mm 0.00 in0.0 mm 0.00 in0.0 mm
12:41 AM 5.7°F-14.6°C -2.0°F-18.9°C 70% 4.0 mph NW6.4 kmh NW 15.0 mph24.1 kmh 30.38 in1028.8 mb 0.00 in0.0 mm 0.00 in0.0 mm 0.00 in0.0 mm
12:42 AM 5.6°F-14.7°C -2.1°F-18.9°C 70% 6.0 mph NNW9.7 kmh NNW 15.0 mph24.1 kmh 30.38 in1028.8 mb 0.00 in0.0 mm 0.00 in0.0 mm 0.00 in0.0 mm
12:43 AM 5.6°F-14.7°C -2.1°F-18.9°C 70% 3.0 mph NW4.8 kmh NW 14.0 mph22.5 kmh 30.38 in1028.8 mb 0.00 in0.0 mm 0.00 in0.0 mm 0.00 in0.0 mm
12:44 AM 5.6°F-14.7°C -2.1°F-18.9°C 70% 3.0 mph NW4.8 kmh NW 14.0 mph22.5 kmh 30.38 in1028.8 mb 0.00 in0.0 mm 0.00 in0.0 mm 0.00 in0.0 mm
12:45 AM 5.6°F-14.7°C -2.1°F-18.9°C 70% 4.0 mph NW6.4 kmh NW 14.0 mph22.5 kmh 30.37 in1028.4 mb 0.00 in0.0 mm 0.00 in0.0 mm 0.00 in0.0 mm
12:46 AM 5.6°F-14.7°C -2.1°F-18.9°C 70% 6.0 mph NNW9.7 kmh NNW 14.0 mph22.5 kmh 30.37 in1028.4 mb 0.00 in0.0 mm 0.00 in0.0 mm 0.00 in0.0 mm
12:47 AM 5.5°F-14.7°C -2.2°F-19.0°C 70% 6.0 mph N9.7 kmh N 15.0 mph24.1 kmh 30.37 in1028.4 mb 0.00 in0.0 mm 0.00 in0.0 mm 0.00 in0.0 mm
12:48 AM 5.5°F-14.7°C -2.2°F-19.0°C 70% 4.0 mph NW6.4 kmh NW 15.0 mph24.1 kmh 30.37 in1028.4 mb 0.00 in0.0 mm 0.00 in0.0 mm 0.00 in0.0 mm
12:49 AM 5.5°F-14.7°C -2.2°F-19.0°C 70% 5.0 mph NNW8.0 kmh NNW 15.0 mph24.1 kmh 30.37 in1028.4 mb 0.00 in0.0 mm 0.00 in0.0 mm 0.00 in0.0 mm
12:50 AM 5.4°F-14.8°C -2.3°F-19.1°C 70% 5.0 mph WNW8.0 kmh WNW 15.0 mph24.1 kmh 30.37 in1028.4 mb 0.00 in0.0 mm 0.00 in0.0 mm 0.00 in0.0 mm
12:51 AM 5.4°F-14.8°C -2.3°F-19.1°C 70% 4.0 mph W6.4 kmh W 15.0 mph24.1 kmh 30.37 in1028.4 mb 0.00 in0.0 mm 0.00 in0.0 mm 0.00 in0.0 mm
12:52 AM 5.4°F-14.8°C -2.3°F-19.1°C 70% 2.0 mph NNW3.2 kmh NNW 15.0 mph24.1 kmh 30.37 in1028.4 mb 0.00 in0.0 mm 0.00 in0.0 mm 0.00 in0.0 mm
12:53 AM 5.4°F-14.8°C -2.3°F-19.1°C 70% 8.0 mph NW12.9 kmh NW 15.0 mph24.1 kmh 30.37 in1028.4 mb 0.00 in0.0 mm 0.00 in0.0 mm 0.00 in0.0 mm
12:54 AM 5.4°F-14.8°C -2.0°F-18.9°C 71% 10.0 mph NNW16.1 kmh NNW 15.0 mph24.1 kmh 30.37 in1028.4 mb 0.00 in0.0 mm 0.00 in0.0 mm 0.00 in0.0 mm
12:55 AM 5.3°F-14.8°C -2.1°F-18.9°C 71% 5.0 mph NNW8.0 kmh NNW 15.0 mph24.1 kmh 30.37 in1028.4 mb 0.00 in0.0 mm 0.00 in0.0 mm 0.00 in0.0 mm
12:56 AM 5.3°F-14.8°C -2.1°F-18.9°C 71% 9.0 mph NNW14.5 kmh NNW 15.0 mph24.1 kmh 30.37 in1028.4 mb 0.00 in0.0 mm 0.00 in0.0 mm 0.00 in0.0 mm
12:57 AM 5.3°F-14.8°C -2.1°F-18.9°C 71% 7.0 mph NE11.3 kmh NE 12.0 mph19.3 kmh 30.37 in1028.4 mb 0.00 in0.0 mm 0.00 in0.0 mm 0.00 in0.0 mm
12:58 AM 5.3°F-14.8°C -2.1°F-18.9°C 71% 9.0 mph WNW14.5 kmh WNW 12.0 mph19.3 kmh 30.37 in1028.4 mb 0.00 in0.0 mm 0.00 in0.0 mm 0.00 in0.0 mm
12:59 AM 5.3°F-14.8°C -2.1°F-18.9°C 71% 5.0 mph N8.0 kmh N 12.0 mph19.3 kmh 30.37 in1028.4 mb 0.00 in0.0 mm 0.00 in0.0 mm 0.00 in0.0 mm
01:00 AM 5.3°F-14.8°C -2.1°F-18.9°C 71% 4.0 mph NW6.4 kmh NW 13.0 mph20.9 kmh 30.38 in1028.8 mb 0.00 in0.0 mm 0.00 in0.0 mm 0.00 in0.0 mm
01:01 AM 5.2°F-14.9°C -2.2°F-19.0°C 71% 6.0 mph NW9.7 kmh NW 13.0 mph20.9 kmh 30.38 in1028.8 mb 0.00 in0.0 mm 0.00 in0.0 mm 0.00 in0.0 mm
01:02 AM 5.2°F-14.9°C -2.2°F-19.0°C 71% 2.0 mph NW3.2 kmh NW 13.0 mph20.9 kmh 30.38 in1028.8 mb 0.00 in0.0 mm 0.00 in0.0 mm 0.00 in0.0 mm
01:03 AM 5.2°F-14.9°C -2.2°F-19.0°C 71% 2.0 mph NW3.2 kmh NW 13.0 mph20.9 kmh 30.38 in1028.8 mb 0.00 in0.0 mm 0.00 in0.0 mm 0.00 in0.0 mm
01:04 AM 5.1°F-14.9°C -2.3°F-19.1°C 71% 9.0 mph NW14.5 kmh NW 16.0 mph25.7 kmh 30.38 in1028.8 mb 0.00 in0.0 mm 0.00 in0.0 mm 0.00 in0.0 mm
01:05 AM 5.1°F-14.9°C -2.3°F-19.1°C 71% 9.0 mph NW14.5 kmh NW 16.0 mph25.7 kmh 30.38 in1028.8 mb 0.00 in0.0 mm 0.00 in0.0 mm 0.00 in0.0 mm
01:06 AM 5.1°F-14.9°C -2.3°F-19.1°C 71% 6.0 mph NW9.7 kmh NW 16.0 mph25.7 kmh 30.38 in1028.8 mb 0.00 in0.0 mm 0.00 in0.0 mm 0.00 in0.0 mm
01:07 AM 5.1°F-14.9°C -2.3°F-19.1°C 71% 2.0 mph WNW3.2 kmh WNW 16.0 mph25.7 kmh 30.38 in1028.8 mb 0.00 in0.0 mm 0.00 in0.0 mm 0.00 in0.0 mm
01:08 AM 5.1°F-14.9°C -2.3°F-19.1°C 71% 3.0 mph NW4.8 kmh NW 16.0 mph25.7 kmh 30.38 in1028.8 mb 0.00 in0.0 mm 0.00 in0.0 mm 0.00 in0.0 mm
01:09 AM 5.1°F-14.9°C -2.3°F-19.1°C 71% 7.0 mph WNW11.3 kmh WNW 16.0 mph25.7 kmh 30.38 in1028.8 mb 0.00 in0.0 mm 0.00 in0.0 mm 0.00 in0.0 mm
01:10 AM 5.1°F-14.9°C -2.3°F-19.1°C 71% 1.0 mph WNW1.6 kmh WNW 16.0 mph25.7 kmh 30.38 in1028.8 mb 0.00 in0.0 mm 0.00 in0.0 mm 0.00 in0.0 mm
01:11 AM 5.1°F-14.9°C -2.3°F-19.1°C 71% 8.0 mph NNW12.9 kmh NNW 16.0 mph25.7 kmh 30.38 in1028.8 mb 0.00 in0.0 mm 0.00 in0.0 mm 0.00 in0.0 mm
01:12 AM 5.1°F-14.9°C -2.3°F-19.1°C 71% 2.0 mph WNW3.2 kmh WNW 16.0 mph25.7 kmh 30.38 in1028.8 mb 0.00 in0.0 mm 0.00 in0.0 mm 0.00 in0.0 mm
01:13 AM 5.1°F-14.9°C -2.3°F-19.1°C 71% 7.0 mph WNW11.3 kmh WNW 16.0 mph25.7 kmh 30.38 in1028.8 mb 0.00 in0.0 mm 0.00 in0.0 mm 0.00 in0.0 mm
01:14 AM 5.0°F-15.0°C -2.4°F-19.1°C 71% 4.0 mph NW6.4 kmh NW 16.0 mph25.7 kmh 30.38 in1028.8 mb 0.00 in0.0 mm 0.00 in0.0 mm 0.00 in0.0 mm
01:15 AM 5.0°F-15.0°C -2.4°F-19.1°C 71% 4.0 mph N6.4 kmh N 12.0 mph19.3 kmh 30.38 in1028.8 mb 0.00 in0.0 mm 0.00 in0.0 mm 0.00 in0.0 mm
01:16 AM 5.0°F-15.0°C -2.4°F-19.1°C 71% 5.0 mph NW8.0 kmh NW 12.0 mph19.3 kmh 30.38 in1028.8 mb 0.00 in0.0 mm 0.00 in0.0 mm 0.00 in0.0 mm
01:17 AM 5.0°F-15.0°C -2.4°F-19.1°C 71% 4.0 mph NW6.4 kmh NW 12.0 mph19.3 kmh 30.38 in1028.8 mb 0.00 in0.0 mm 0.00 in0.0 mm 0.00 in0.0 mm
01:18 AM 5.0°F-15.0°C -2.4°F-19.1°C 71% 4.0 mph NNW6.4 kmh NNW 12.0 mph19.3 kmh 30.38 in1028.8 mb 0.00 in0.0 mm 0.00 in0.0 mm 0.00 in0.0 mm
01:19 AM 4.9°F-15.1°C -2.5°F-19.2°C 71% 4.0 mph NW6.4 kmh NW 12.0 mph19.3 kmh 30.38 in1028.8 mb 0.00 in0.0 mm 0.00 in0.0 mm 0.00 in0.0 mm
01:20 AM 4.9°F-15.1°C -2.5°F-19.2°C 71% 9.0 mph NW14.5 kmh NW 12.0 mph19.3 kmh 30.38 in1028.8 mb 0.00 in0.0 mm 0.00 in0.0 mm 0.00 in0.0 mm
01:21 AM 4.9°F-15.1°C -2.5°F-19.2°C 71% 2.0 mph NW3.2 kmh NW 12.0 mph19.3 kmh 30.38 in1028.8 mb 0.00 in0.0 mm 0.00 in0.0 mm 0.00 in0.0 mm
01:22 AM 4.9°F-15.1°C -2.5°F-19.2°C 71% 5.0 mph NE8.0 kmh NE 12.0 mph19.3 kmh 30.38 in1028.8 mb 0.00 in0.0 mm 0.00 in0.0 mm 0.00 in0.0 mm
01:23 AM 4.9°F-15.1°C -2.5°F-19.2°C 71% 10.0 mph NW16.1 kmh NW 12.0 mph19.3 kmh 30.38 in1028.8 mb 0.00 in0.0 mm 0.00 in0.0 mm 0.00 in0.0 mm
01:24 AM 4.9°F-15.1°C -2.5°F-19.2°C 71% 4.0 mph NW6.4 kmh NW 10.0 mph16.1 kmh 30.39 in1029.1 mb 0.00 in0.0 mm 0.00 in0.0 mm 0.00 in0.0 mm
01:25 AM 4.8°F-15.1°C -2.5°F-19.2°C 71% 4.0 mph N6.4 kmh N 10.0 mph16.1 kmh 30.39 in1029.1 mb 0.00 in0.0 mm 0.00 in0.0 mm 0.00 in0.0 mm
01:26 AM 4.9°F-15.1°C -2.5°F-19.2°C 71% 1.0 mph WNW1.6 kmh WNW 10.0 mph16.1 kmh 30.39 in1029.1 mb 0.00 in0.0 mm 0.00 in0.0 mm 0.00 in0.0 mm
01:27 AM 4.8°F-15.1°C -2.5°F-19.2°C 71% 8.0 mph N12.9 kmh N 16.0 mph25.7 kmh 30.39 in1029.1 mb 0.00 in0.0 mm 0.00 in0.0 mm 0.00 in0.0 mm
01:28 AM 4.8°F-15.1°C -2.5°F-19.2°C 71% 4.0 mph NNW6.4 kmh NNW 16.0 mph25.7 kmh 30.38 in1028.8 mb 0.00 in0.0 mm 0.00 in0.0 mm 0.00 in0.0 mm
01:29 AM 4.7°F-15.2°C -2.6°F-19.2°C 71% 2.0 mph NNW3.2 kmh NNW 16.0 mph25.7 kmh 30.38 in1028.8 mb 0.00 in0.0 mm 0.00 in0.0 mm 0.00 in0.0 mm
01:30 AM 4.7°F-15.2°C -2.6°F-19.2°C 71% 10.0 mph N16.1 kmh N 16.0 mph25.7 kmh 30.39 in1029.1 mb 0.00 in0.0 mm 0.00 in0.0 mm 0.00 in0.0 mm
01:31 AM 4.7°F-15.2°C -2.6°F-19.2°C 71% 4.0 mph N6.4 kmh N 16.0 mph25.7 kmh 30.39 in1029.1 mb 0.00 in0.0 mm 0.00 in0.0 mm 0.00 in0.0 mm
01:32 AM 4.7°F-15.2°C -2.6°F-19.2°C 71% 11.0 mph NW17.7 kmh NW 16.0 mph25.7 kmh 30.38 in1028.8 mb 0.00 in0.0 mm 0.00 in0.0 mm 0.00 in0.0 mm
01:33 AM 4.7°F-15.2°C -2.6°F-19.2°C 71% 6.0 mph W9.7 kmh W 16.0 mph25.7 kmh 30.38 in1028.8 mb 0.00 in0.0 mm 0.00 in0.0 mm 0.00 in0.0 mm
01:34 AM 4.7°F-15.2°C -2.6°F-19.2°C 71% 10.0 mph N16.1 kmh N 16.0 mph25.7 kmh 30.39 in1029.1 mb 0.00 in0.0 mm 0.00 in0.0 mm 0.00 in0.0 mm
01:35 AM 4.7°F-15.2°C -2.6°F-19.2°C 71% 4.0 mph WNW6.4 kmh WNW 16.0 mph25.7 kmh 30.39 in1029.1 mb 0.00 in0.0 mm 0.00 in0.0 mm 0.00 in0.0 mm
01:36 AM 4.7°F-15.2°C -2.6°F-19.2°C 71% 2.0 mph W3.2 kmh W 16.0 mph25.7 kmh 30.38 in1028.8 mb 0.00 in0.0 mm 0.00 in0.0 mm 0.00 in0.0 mm
01:37 AM 4.7°F-15.2°C -2.6°F-19.2°C 71% 3.0 mph WNW4.8 kmh WNW 12.0 mph19.3 kmh 30.39 in1029.1 mb 0.00 in0.0 mm 0.00 in0.0 mm 0.00 in0.0 mm
01:38 AM 4.6°F-15.2°C -2.7°F-19.3°C 71% 5.0 mph NW8.0 kmh NW 12.0 mph19.3 kmh 30.39 in1029.1 mb 0.00 in0.0 mm 0.00 in0.0 mm 0.00 in0.0 mm
01:39 AM 4.6°F-15.2°C -2.7°F-19.3°C 71% 2.0 mph NNW3.2 kmh NNW 12.0 mph19.3 kmh 30.39 in1029.1 mb 0.00 in0.0 mm 0.00 in0.0 mm 0.00 in0.0 mm
01:40 AM 4.6°F-15.2°C -2.7°F-19.3°C 71% 4.0 mph NW6.4 kmh NW 12.0 mph19.3 kmh 30.39 in1029.1 mb 0.00 in0.0 mm 0.00 in0.0 mm 0.00 in0.0 mm
01:41 AM 4.6°F-15.2°C -2.7°F-19.3°C 71% 5.0 mph NW8.0 kmh NW 13.0 mph20.9 kmh 30.39 in1029.1 mb 0.00 in0.0 mm 0.00 in0.0 mm 0.00 in0.0 mm
01:42 AM 4.6°F-15.2°C -2.7°F-19.3°C 71% 8.0 mph NW12.9 kmh NW 13.0 mph20.9 kmh 30.39 in1029.1 mb 0.00 in0.0 mm 0.00 in0.0 mm 0.00 in0.0 mm
01:43 AM 4.5°F-15.3°C -2.8°F-19.3°C 71% 4.0 mph NNW6.4 kmh NNW 13.0 mph20.9 kmh 30.40 in1029.5 mb 0.00 in0.0 mm 0.00 in0.0 mm 0.00 in0.0 mm
01:44 AM 4.5°F-15.3°C -2.5°F-19.2°C 72% 14.0 mph WSW22.5 kmh WSW 14.0 mph22.5 kmh 30.40 in1029.5 mb 0.00 in0.0 mm 0.00 in0.0 mm 0.00 in0.0 mm
01:45 AM 4.5°F-15.3°C -2.8°F-19.3°C 71% 5.0 mph N8.0 kmh N 17.0 mph27.4 kmh 30.39 in1029.1 mb 0.00 in0.0 mm 0.00 in0.0 mm 0.00 in0.0 mm
01:46 AM 4.5°F-15.3°C -2.8°F-19.3°C 71% 8.0 mph NW12.9 kmh NW 17.0 mph27.4 kmh 30.40 in1029.5 mb 0.00 in0.0 mm 0.00 in0.0 mm 0.00 in0.0 mm
01:47 AM 4.5°F-15.3°C -2.8°F-19.3°C 71% 2.0 mph NW3.2 kmh NW 17.0 mph27.4 kmh 30.40 in1029.5 mb 0.00 in0.0 mm 0.00 in0.0 mm 0.00 in0.0 mm
01:48 AM 4.5°F-15.3°C -2.8°F-19.3°C 71% 5.0 mph NW8.0 kmh NW 17.0 mph27.4 kmh 30.40 in1029.5 mb 0.00 in0.0 mm 0.00 in0.0 mm 0.00 in0.0 mm
01:49 AM 4.5°F-15.3°C -2.8°F-19.3°C 71% 4.0 mph WNW6.4 kmh WNW 17.0 mph27.4 kmh 30.40 in1029.5 mb 0.00 in0.0 mm 0.00 in0.0 mm 0.00 in0.0 mm
01:50 AM 4.5°F-15.3°C -2.8°F-19.3°C 71% 4.0 mph NNW6.4 kmh NNW 17.0 mph27.4 kmh 30.40 in1029.5 mb 0.00 in0.0 mm 0.00 in0.0 mm 0.00 in0.0 mm
01:51 AM 4.4°F-15.3°C -2.9°F-19.4°C 71% 3.0 mph WNW4.8 kmh WNW 17.0 mph27.4 kmh 30.40 in1029.5 mb 0.00 in0.0 mm 0.00 in0.0 mm 0.00 in0.0 mm
01:52 AM 4.4°F-15.3°C -2.9°F-19.4°C 71% 5.0 mph N8.0 kmh N 17.0 mph27.4 kmh 30.39 in1029.1 mb 0.00 in0.0 mm 0.00 in0.0 mm 0.00 in0.0 mm
01:53 AM 4.4°F-15.3°C -2.9°F-19.4°C 71% 3.0 mph NW4.8 kmh NW 17.0 mph27.4 kmh 30.40 in1029.5 mb 0.00 in0.0 mm 0.00 in0.0 mm 0.00 in0.0 mm
01:54 AM 4.4°F-15.3°C -2.9°F-19.4°C 71% 2.0 mph NNW3.2 kmh NNW 17.0 mph27.4 kmh 30.40 in1029.5 mb 0.00 in0.0 mm 0.00 in0.0 mm 0.00 in0.0 mm
01:55 AM 4.4°F-15.3°C -2.9°F-19.4°C 71% 3.0 mph NW4.8 kmh NW 11.0 mph17.7 kmh 30.40 in1029.5 mb 0.00 in0.0 mm 0.00 in0.0 mm 0.00 in0.0 mm
01:56 AM 4.4°F-15.3°C -2.9°F-19.4°C 71% 4.0 mph NNW6.4 kmh NNW 11.0 mph17.7 kmh 30.40 in1029.5 mb 0.00 in0.0 mm 0.00 in0.0 mm 0.00 in0.0 mm
01:57 AM 4.4°F-15.3°C -2.9°F-19.4°C 71% 3.0 mph N4.8 kmh N 11.0 mph17.7 kmh 30.40 in1029.5 mb 0.00 in0.0 mm 0.00 in0.0 mm 0.00 in0.0 mm
01:58 AM 4.4°F-15.3°C -2.9°F-19.4°C 71% 7.0 mph NW11.3 kmh NW 11.0 mph17.7 kmh 30.40 in1029.5 mb 0.00 in0.0 mm 0.00 in0.0 mm 0.00 in0.0 mm
01:59 AM 4.4°F-15.3°C -2.9°F-19.4°C 71% 10.0 mph NNW16.1 kmh NNW 11.0 mph17.7 kmh 30.39 in1029.1 mb 0.00 in0.0 mm 0.00 in0.0 mm 0.00 in0.0 mm
02:00 AM 4.4°F-15.3°C -2.9°F-19.4°C 71% 3.0 mph NW4.8 kmh NW 11.0 mph17.7 kmh 30.39 in1029.1 mb 0.00 in0.0 mm 0.00 in0.0 mm 0.00 in0.0 mm
02:01 AM 4.3°F-15.4°C -3.0°F-19.4°C 71% 2.0 mph NW3.2 kmh NW 14.0 mph22.5 kmh 30.39 in1029.1 mb 0.00 in0.0 mm 0.00 in0.0 mm 0.00 in0.0 mm
02:02 AM 4.3°F-15.4°C -3.0°F-19.4°C 71% 5.0 mph NW8.0 kmh NW 14.0 mph22.5 kmh 30.39 in1029.1 mb 0.00 in0.0 mm 0.00 in0.0 mm 0.00 in0.0 mm
02:03 AM 4.3°F-15.4°C -3.0°F-19.4°C 71% 3.0 mph NW4.8 kmh NW 14.0 mph22.5 kmh 30.39 in1029.1 mb 0.00 in0.0 mm 0.00 in0.0 mm 0.00 in0.0 mm
02:04 AM 4.3°F-15.4°C -3.0°F-19.4°C 71% 4.0 mph NW6.4 kmh NW 14.0 mph22.5 kmh 30.39 in1029.1 mb 0.00 in0.0 mm 0.00 in0.0 mm 0.00 in0.0 mm
02:05 AM 4.2°F-15.4°C -3.1°F-19.5°C 71% 4.0 mph NW6.4 kmh NW 14.0 mph22.5 kmh 30.39 in1029.1 mb 0.00 in0.0 mm 0.00 in0.0 mm 0.00 in0.0 mm
02:06 AM 4.2°F-15.4°C -3.1°F-19.5°C 71% 6.0 mph NW9.7 kmh NW 14.0 mph22.5 kmh 30.39 in1029.1 mb 0.00 in0.0 mm 0.00 in0.0 mm 0.00 in0.0 mm
02:07 AM 4.2°F-15.4°C -3.1°F-19.5°C 71% 3.0 mph N4.8 kmh N 14.0 mph22.5 kmh 30.39 in1029.1 mb 0.00 in0.0 mm 0.00 in0.0 mm 0.00 in0.0 mm
02:08 AM 4.2°F-15.4°C -3.1°F-19.5°C 71% 4.0 mph NNW6.4 kmh NNW 14.0 mph22.5 kmh 30.39 in1029.1 mb 0.00 in0.0 mm 0.00 in0.0 mm 0.00 in0.0 mm
02:09 AM 4.1°F-15.5°C -3.2°F-19.6°C 71% 2.0 mph NW3.2 kmh NW 14.0 mph22.5 kmh 30.39 in1029.1 mb 0.00 in0.0 mm 0.00 in0.0 mm 0.00 in0.0 mm
02:10 AM 4.1°F-15.5°C -3.2°F-19.6°C 71% 8.0 mph NW12.9 kmh NW 14.0 mph22.5 kmh 30.39 in1029.1 mb 0.00 in0.0 mm 0.00 in0.0 mm 0.00 in0.0 mm
02:11 AM 4.1°F-15.5°C -3.2°F-19.6°C 71% 4.0 mph N6.4 kmh N 13.0 mph20.9 kmh 30.39 in1029.1 mb 0.00 in0.0 mm 0.00 in0.0 mm 0.00 in0.0 mm
02:12 AM 4.1°F-15.5°C -3.2°F-19.6°C 71% 3.0 mph N4.8 kmh N 13.0 mph20.9 kmh 30.39 in1029.1 mb 0.00 in0.0 mm 0.00 in0.0 mm 0.00 in0.0 mm
02:13 AM 4.1°F-15.5°C -3.2°F-19.6°C 71% 3.0 mph NNW4.8 kmh NNW 12.0 mph19.3 kmh 30.39 in1029.1 mb 0.00 in0.0 mm 0.00 in0.0 mm 0.00 in0.0 mm
02:14 AM 4.1°F-15.5°C -3.2°F-19.6°C 71% 5.0 mph NW8.0 kmh NW 12.0 mph19.3 kmh 30.39 in1029.1 mb 0.00 in0.0 mm 0.00 in0.0 mm 0.00 in0.0 mm
02:15 AM 4.1°F-15.5°C -3.2°F-19.6°C 71% 3.0 mph NW4.8 kmh NW 12.0 mph19.3 kmh 30.39 in1029.1 mb 0.00 in0.0 mm 0.00 in0.0 mm 0.00 in0.0 mm
02:16 AM 4.1°F-15.5°C -3.2°F-19.6°C 71% 3.0 mph N4.8 kmh N 12.0 mph19.3 kmh 30.39 in1029.1 mb 0.00 in0.0 mm 0.00 in0.0 mm 0.00 in0.0 mm
02:17 AM 4.0°F-15.6°C -3.3°F-19.6°C 71% 3.0 mph N4.8 kmh N 12.0 mph19.3 kmh 30.39 in1029.1 mb 0.00 in0.0 mm 0.00 in0.0 mm 0.00 in0.0 mm
02:18 AM 4.0°F-15.6°C -3.3°F-19.6°C 71% 4.0 mph NW6.4 kmh NW 17.0 mph27.4 kmh 30.39 in1029.1 mb 0.00 in0.0 mm 0.00 in0.0 mm 0.00 in0.0 mm
02:19 AM 4.0°F-15.6°C -3.3°F-19.6°C 71% 8.0 mph NNW12.9 kmh NNW 17.0 mph27.4 kmh 30.39 in1029.1 mb 0.00 in0.0 mm 0.00 in0.0 mm 0.00 in0.0 mm
02:20 AM 4.0°F-15.6°C -3.3°F-19.6°C 71% 9.0 mph NW14.5 kmh NW 17.0 mph27.4 kmh 30.38 in1028.8 mb 0.00 in0.0 mm 0.00 in0.0 mm 0.00 in0.0 mm
02:21 AM 4.0°F-15.6°C -3.6°F-19.8°C 70% 8.0 mph NW12.9 kmh NW 17.0 mph27.4 kmh 30.38 in1028.8 mb 0.00 in0.0 mm 0.00 in0.0 mm 0.00 in0.0 mm
02:22 AM 4.0°F-15.6°C -3.6°F-19.8°C 70% 4.0 mph NNW6.4 kmh NNW 17.0 mph27.4 kmh 30.38 in1028.8 mb 0.00 in0.0 mm 0.00 in0.0 mm 0.00 in0.0 mm
02:23 AM 4.0°F-15.6°C -3.3°F-19.6°C 71% 3.0 mph N4.8 kmh N 17.0 mph27.4 kmh 30.38 in1028.8 mb 0.00 in0.0 mm 0.00 in0.0 mm 0.00 in0.0 mm
02:24 AM 4.0°F-15.6°C -3.3°F-19.6°C 71% 9.0 mph WNW14.5 kmh WNW 17.0 mph27.4 kmh 30.38 in1028.8 mb 0.00 in0.0 mm 0.00 in0.0 mm 0.00 in0.0 mm
02:25 AM 3.9°F-15.6°C -3.7°F-19.8°C 70% 4.0 mph NNW6.4 kmh NNW 17.0 mph27.4 kmh 30.38 in1028.8 mb 0.00 in0.0 mm 0.00 in0.0 mm 0.00 in0.0 mm
02:26 AM 3.9°F-15.6°C -3.7°F-19.8°C 70% 3.0 mph NW4.8 kmh NW 17.0 mph27.4 kmh 30.38 in1028.8 mb 0.00 in0.0 mm 0.00 in0.0 mm 0.00 in0.0 mm
02:27 AM 3.9°F-15.6°C -3.4°F-19.7°C 71% 5.0 mph NW8.0 kmh NW 17.0 mph27.4 kmh 30.38 in1028.8 mb 0.00 in0.0 mm 0.00 in0.0 mm 0.00 in0.0 mm
02:28 AM 3.8°F-15.7°C -3.5°F-19.7°C 71% 3.0 mph NNW4.8 kmh NNW 16.0 mph25.7 kmh 30.38 in1028.8 mb 0.00 in0.0 mm 0.00 in0.0 mm 0.00 in0.0 mm
02:29 AM 3.8°F-15.7°C -3.5°F-19.7°C 71% 4.0 mph NW6.4 kmh NW 16.0 mph25.7 kmh 30.38 in1028.8 mb 0.00 in0.0 mm 0.00 in0.0 mm 0.00 in0.0 mm
02:30 AM 3.8°F-15.7°C -3.5°F-19.7°C 71% 6.0 mph NE9.7 kmh NE 12.0 mph19.3 kmh 30.38 in1028.8 mb 0.00 in0.0 mm 0.00 in0.0 mm 0.00 in0.0 mm
02:31 AM 3.8°F-15.7°C -3.5°F-19.7°C 71% 6.0 mph NNW9.7 kmh NNW 12.0 mph19.3 kmh 30.38 in1028.8 mb 0.00 in0.0 mm 0.00 in0.0 mm 0.00 in0.0 mm
02:32 AM 3.8°F-15.7°C -3.5°F-19.7°C 71% 4.0 mph NNE6.4 kmh NNE 12.0 mph19.3 kmh 30.38 in1028.8 mb 0.00 in0.0 mm 0.00 in0.0 mm 0.00 in0.0 mm
02:33 AM 3.8°F-15.7°C -3.5°F-19.7°C 71% 5.0 mph NW8.0 kmh NW 12.0 mph19.3 kmh 30.38 in1028.8 mb 0.00 in0.0 mm 0.00 in0.0 mm 0.00 in0.0 mm
02:34 AM 3.7°F-15.7°C -3.6°F-19.8°C 71% 5.0 mph NW8.0 kmh NW 12.0 mph19.3 kmh 30.38 in1028.8 mb 0.00 in0.0 mm 0.00 in0.0 mm 0.00 in0.0 mm
02:35 AM 3.7°F-15.7°C -3.6°F-19.8°C 71% 4.0 mph NE6.4 kmh NE 12.0 mph19.3 kmh 30.38 in1028.8 mb 0.00 in0.0 mm 0.00 in0.0 mm 0.00 in0.0 mm
02:36 AM 3.7°F-15.7°C -3.6°F-19.8°C 71% 6.0 mph N9.7 kmh N 12.0 mph19.3 kmh 30.38 in1028.8 mb 0.00 in0.0 mm 0.00 in0.0 mm 0.00 in0.0 mm
02:37 AM 3.7°F-15.7°C -3.6°F-19.8°C 71% 5.0 mph NNW8.0 kmh NNW 12.0 mph19.3 kmh 30.38 in1028.8 mb 0.00 in0.0 mm 0.00 in0.0 mm 0.00 in0.0 mm
02:38 AM 3.6°F-15.8°C -3.7°F-19.8°C 71% 4.0 mph N6.4 kmh N 12.0 mph19.3 kmh 30.38 in1028.8 mb 0.00 in0.0 mm 0.00 in0.0 mm 0.00 in0.0 mm
02:39 AM 3.6°F-15.8°C -3.7°F-19.8°C 71% 5.0 mph NW8.0 kmh NW 11.0 mph17.7 kmh 30.38 in1028.8 mb 0.00 in0.0 mm 0.00 in0.0 mm 0.00 in0.0 mm
02:40 AM 3.6°F-15.8°C -3.7°F-19.8°C 71% 5.0 mph N8.0 kmh N 11.0 mph17.7 kmh 30.38 in1028.8 mb 0.00 in0.0 mm 0.00 in0.0 mm 0.00 in0.0 mm
02:41 AM 3.6°F-15.8°C -3.7°F-19.8°C 71% 3.0 mph N4.8 kmh N 11.0 mph17.7 kmh 30.38 in1028.8 mb 0.00 in0.0 mm 0.00 in0.0 mm 0.00 in0.0 mm
02:42 AM 3.6°F-15.8°C -3.7°F-19.8°C 71% 5.0 mph N8.0 kmh N 11.0 mph17.7 kmh 30.38 in1028.8 mb 0.00 in0.0 mm 0.00 in0.0 mm 0.00 in0.0 mm
02:43 AM 3.6°F-15.8°C -3.7°F-19.8°C 71% 3.0 mph N4.8 kmh N 11.0 mph17.7 kmh 30.38 in1028.8 mb 0.00 in0.0 mm 0.00 in0.0 mm 0.00 in0.0 mm
02:44 AM 3.6°F-15.8°C -3.7°F-19.8°C 71% 12.0 mph N19.3 kmh N 12.0 mph19.3 kmh 30.38 in1028.8 mb 0.00 in0.0 mm 0.00 in0.0 mm 0.00 in0.0 mm
02:45 AM 3.5°F-15.8°C -3.8°F-19.9°C 71% 4.0 mph N6.4 kmh N 12.0 mph19.3 kmh 30.38 in1028.8 mb 0.00 in0.0 mm 0.00 in0.0 mm 0.00 in0.0 mm
02:46 AM 3.5°F-15.8°C -3.8°F-19.9°C 71% 2.0 mph NW3.2 kmh NW 12.0 mph19.3 kmh 30.38 in1028.8 mb 0.00 in0.0 mm 0.00 in0.0 mm 0.00 in0.0 mm
02:47 AM 3.5°F-15.8°C -3.8°F-19.9°C 71% 3.0 mph NW4.8 kmh NW 12.0 mph19.3 kmh 30.38 in1028.8 mb 0.00 in0.0 mm 0.00 in0.0 mm 0.00 in0.0 mm
02:48 AM 3.5°F-15.8°C -3.8°F-19.9°C 71% 4.0 mph NNW6.4 kmh NNW 12.0 mph19.3 kmh 30.38 in1028.8 mb 0.00 in0.0 mm 0.00 in0.0 mm 0.00 in0.0 mm
02:49 AM 3.4°F-15.9°C -3.6°F-19.8°C 72% 6.0 mph NNW9.7 kmh NNW 12.0 mph19.3 kmh 30.38 in1028.8 mb 0.00 in0.0 mm 0.00 in0.0 mm 0.00 in0.0 mm
02:50 AM 3.4°F-15.9°C -3.6°F-19.8°C 72% 3.0 mph N4.8 kmh N 12.0 mph19.3 kmh 30.38 in1028.8 mb 0.00 in0.0 mm 0.00 in0.0 mm 0.00 in0.0 mm
02:51 AM 3.4°F-15.9°C -3.6°F-19.8°C 72% 4.0 mph NW6.4 kmh NW 13.0 mph20.9 kmh 30.38 in1028.8 mb 0.00 in0.0 mm 0.00 in0.0 mm 0.00 in0.0 mm
02:52 AM 3.4°F-15.9°C -3.6°F-19.8°C 72% 5.0 mph NW8.0 kmh NW 13.0 mph20.9 kmh 30.38 in1028.8 mb 0.00 in0.0 mm 0.00 in0.0 mm 0.00 in0.0 mm
02:53 AM 3.4°F-15.9°C -3.6°F-19.8°C 72% 1.0 mph NNW1.6 kmh NNW 13.0 mph20.9 kmh 30.38 in1028.8 mb 0.00 in0.0 mm 0.00 in0.0 mm 0.00 in0.0 mm
02:54 AM 3.4°F-15.9°C -3.6°F-19.8°C 72% 8.0 mph NW12.9 kmh NW 13.0 mph20.9 kmh 30.38 in1028.8 mb 0.00 in0.0 mm 0.00 in0.0 mm 0.00 in0.0 mm
02:55 AM 3.4°F-15.9°C -3.6°F-19.8°C 72% 5.0 mph NNW8.0 kmh NNW 13.0 mph20.9 kmh 30.38 in1028.8 mb 0.00 in0.0 mm 0.00 in0.0 mm 0.00 in0.0 mm
02:56 AM 3.4°F-15.9°C -3.6°F-19.8°C 72% 2.0 mph NW3.2 kmh NW 13.0 mph20.9 kmh 30.38 in1028.8 mb 0.00 in0.0 mm 0.00 in0.0 mm 0.00 in0.0 mm
02:57 AM 3.4°F-15.9°C -3.6°F-19.8°C 72% 3.0 mph NW4.8 kmh NW 13.0 mph20.9 kmh 30.38 in1028.8 mb 0.00 in0.0 mm 0.00 in0.0 mm 0.00 in0.0 mm
02:58 AM 3.4°F-15.9°C -3.6°F-19.8°C 72% 2.0 mph NNW3.2 kmh NNW 13.0 mph20.9 kmh 30.39 in1029.1 mb 0.00 in0.0 mm 0.00 in0.0 mm 0.00 in0.0 mm
02:59 AM 3.4°F-15.9°C -3.6°F-19.8°C 72% 5.0 mph NNW8.0 kmh NNW 13.0 mph20.9 kmh 30.39 in1029.1 mb 0.00 in0.0 mm 0.00 in0.0 mm 0.00 in0.0 mm
03:00 AM 3.3°F-15.9°C -4.0°F-20.0°C 71% 2.0 mph NW3.2 kmh NW 13.0 mph20.9 kmh 30.39 in1029.1 mb 0.00 in0.0 mm 0.00 in0.0 mm 0.00 in0.0 mm
03:01 AM 3.3°F-15.9°C -4.0°F-20.0°C 71% 9.0 mph W14.5 kmh W 12.0 mph19.3 kmh 30.39 in1029.1 mb 0.00 in0.0 mm 0.00 in0.0 mm 0.00 in0.0 mm
03:02 AM 3.3°F-15.9°C -4.0°F-20.0°C 71% 4.0 mph NW6.4 kmh NW 12.0 mph19.3 kmh 30.39 in1029.1 mb 0.00 in0.0 mm 0.00 in0.0 mm 0.00 in0.0 mm
03:03 AM 3.3°F-15.9°C -4.0°F-20.0°C 71% 5.0 mph N8.0 kmh N 12.0 mph19.3 kmh 30.39 in1029.1 mb 0.00 in0.0 mm 0.00 in0.0 mm 0.00 in0.0 mm
03:04 AM 3.3°F-15.9°C -4.0°F-20.0°C 71% 3.0 mph NW4.8 kmh NW 12.0 mph19.3 kmh 30.39 in1029.1 mb 0.00 in0.0 mm 0.00 in0.0 mm 0.00 in0.0 mm
03:05 AM 3.4°F-15.9°C -3.9°F-19.9°C 71% 4.0 mph NW6.4 kmh NW 12.0 mph19.3 kmh 30.39 in1029.1 mb 0.00 in0.0 mm 0.00 in0.0 mm 0.00 in0.0 mm
03:06 AM 3.4°F-15.9°C -3.9°F-19.9°C 71% 4.0 mph NW6.4 kmh NW 12.0 mph19.3 kmh 30.39 in1029.1 mb 0.00 in0.0 mm 0.00 in0.0 mm 0.00 in0.0 mm
03:07 AM 3.4°F-15.9°C -3.9°F-19.9°C 71% 3.0 mph NW4.8 kmh NW 12.0 mph19.3 kmh 30.39 in1029.1 mb 0.00 in0.0 mm 0.00 in0.0 mm 0.00 in0.0 mm
03:08 AM 3.3°F-15.9°C -4.0°F-20.0°C 71% 4.0 mph WNW6.4 kmh WNW 12.0 mph19.3 kmh 30.39 in1029.1 mb 0.00 in0.0 mm 0.00 in0.0 mm 0.00 in0.0 mm
03:09 AM 3.3°F-15.9°C -4.0°F-20.0°C 71% 5.0 mph NW8.0 kmh NW 12.0 mph19.3 kmh 30.39 in1029.1 mb 0.00 in0.0 mm 0.00 in0.0 mm 0.00 in0.0 mm
03:10 AM 3.3°F-15.9°C -4.0°F-20.0°C 71% 5.0 mph NNW8.0 kmh NNW 12.0 mph19.3 kmh 30.39 in1029.1 mb 0.00 in0.0 mm 0.00 in0.0 mm 0.00 in0.0 mm
03:11 AM 3.3°F-15.9°C -4.0°F-20.0°C 71% 4.0 mph NW6.4 kmh NW 12.0 mph19.3 kmh 30.40 in1029.5 mb 0.00 in0.0 mm 0.00 in0.0 mm 0.00 in0.0 mm
03:12 AM 3.3°F-15.9°C -4.3°F-20.2°C 70% 4.0 mph WNW6.4 kmh WNW 11.0 mph17.7 kmh 30.39 in1029.1 mb 0.00 in0.0 mm 0.00 in0.0 mm 0.00 in0.0 mm
03:13 AM 3.3°F-15.9°C -4.3°F-20.2°C 70% 2.0 mph NW3.2 kmh NW 11.0 mph17.7 kmh 30.39 in1029.1 mb 0.00 in0.0 mm 0.00 in0.0 mm 0.00 in0.0 mm
03:14 AM 3.3°F-15.9°C -4.3°F-20.2°C 70% 6.0 mph NW9.7 kmh NW 11.0 mph17.7 kmh 30.39 in1029.1 mb 0.00 in0.0 mm 0.00 in0.0 mm 0.00 in0.0 mm
03:15 AM 3.2°F-16.0°C -4.4°F-20.2°C 70% 3.0 mph NW4.8 kmh NW 11.0 mph17.7 kmh 30.40 in1029.5 mb 0.00 in0.0 mm 0.00 in0.0 mm 0.00 in0.0 mm
03:16 AM 3.2°F-16.0°C -4.4°F-20.2°C 70% 1.0 mph NW1.6 kmh NW 11.0 mph17.7 kmh 30.40 in1029.5 mb 0.00 in0.0 mm 0.00 in0.0 mm 0.00 in0.0 mm
03:17 AM 3.2°F-16.0°C -4.4°F-20.2°C 70% 2.0 mph NNW3.2 kmh NNW 11.0 mph17.7 kmh 30.40 in1029.5 mb 0.00 in0.0 mm 0.00 in0.0 mm 0.00 in0.0 mm
03:18 AM 3.2°F-16.0°C -4.4°F-20.2°C 70% 7.0 mph WNW11.3 kmh WNW 11.0 mph17.7 kmh 30.40 in1029.5 mb 0.00 in0.0 mm 0.00 in0.0 mm 0.00 in0.0 mm
03:19 AM 3.2°F-16.0°C -4.4°F-20.2°C 70% 5.0 mph WNW8.0 kmh WNW 11.0 mph17.7 kmh 30.40 in1029.5 mb 0.00 in0.0 mm 0.00 in0.0 mm 0.00 in0.0 mm
03:20 AM 3.2°F-16.0°C -4.1°F-20.1°C 71% 4.0 mph NW6.4 kmh NW 11.0 mph17.7 kmh 30.40 in1029.5 mb 0.00 in0.0 mm 0.00 in0.0 mm 0.00 in0.0 mm
03:21 AM 3.2°F-16.0°C -4.1°F-20.1°C 71% 2.0 mph NW3.2 kmh NW 10.0 mph16.1 kmh 30.39 in1029.1 mb 0.00 in0.0 mm 0.00 in0.0 mm 0.00 in0.0 mm
03:22 AM 3.2°F-16.0°C -4.1°F-20.1°C 71% 1.0 mph NW1.6 kmh NW 10.0 mph16.1 kmh 30.39 in1029.1 mb 0.00 in0.0 mm 0.00 in0.0 mm 0.00 in0.0 mm
03:23 AM 3.1°F-16.1°C -4.2°F-20.1°C 71% 1.0 mph NW1.6 kmh NW 10.0 mph16.1 kmh 30.39 in1029.1 mb 0.00 in0.0 mm 0.00 in0.0 mm 0.00 in0.0 mm
03:24 AM 3.2°F-16.0°C -4.4°F-20.2°C 70% 3.0 mph WNW4.8 kmh WNW 10.0 mph16.1 kmh 30.39 in1029.1 mb 0.00 in0.0 mm 0.00 in0.0 mm 0.00 in0.0 mm
03:25 AM 3.1°F-16.1°C -4.5°F-20.3°C 70% 1.0 mph NW1.6 kmh NW 10.0 mph16.1 kmh 30.40 in1029.5 mb 0.00 in0.0 mm 0.00 in0.0 mm 0.00 in0.0 mm
03:26 AM 3.1°F-16.1°C -4.2°F-20.1°C 71% 8.0 mph WNW12.9 kmh WNW 10.0 mph16.1 kmh 30.39 in1029.1 mb 0.00 in0.0 mm 0.00 in0.0 mm 0.00 in0.0 mm
03:27 AM 3.1°F-16.1°C -4.2°F-20.1°C 71% 1.0 mph NW1.6 kmh NW 9.0 mph14.5 kmh 30.39 in1029.1 mb 0.00 in0.0 mm 0.00 in0.0 mm 0.00 in0.0 mm
03:28 AM 3.0°F-16.1°C -4.3°F-20.2°C 71% 3.0 mph NW4.8 kmh NW 9.0 mph14.5 kmh 30.40 in1029.5 mb 0.00 in0.0 mm 0.00 in0.0 mm 0.00 in0.0 mm
03:29 AM 3.0°F-16.1°C -4.3°F-20.2°C 71% 3.0 mph NW4.8 kmh NW 9.0 mph14.5 kmh 30.40 in1029.5 mb 0.00 in0.0 mm 0.00 in0.0 mm 0.00 in0.0 mm
03:30 AM 3.0°F-16.1°C -4.3°F-20.2°C 71% 2.0 mph N3.2 kmh N 9.0 mph14.5 kmh 30.40 in1029.5 mb 0.00 in0.0 mm 0.00 in0.0 mm 0.00 in0.0 mm
03:31 AM 3.0°F-16.1°C -4.3°F-20.2°C 71% 4.0 mph NW6.4 kmh NW 9.0 mph14.5 kmh 30.40 in1029.5 mb 0.00 in0.0 mm 0.00 in0.0 mm 0.00 in0.0 mm
03:32 AM 3.0°F-16.1°C -4.3°F-20.2°C 71% 3.0 mph NW4.8 kmh NW 9.0 mph14.5 kmh 30.40 in1029.5 mb 0.00 in0.0 mm 0.00 in0.0 mm 0.00 in0.0 mm
03:33 AM 2.9°F-16.2°C -4.4°F-20.2°C 71% 2.0 mph NW3.2 kmh NW 9.0 mph14.5 kmh 30.40 in1029.5 mb 0.00 in0.0 mm 0.00 in0.0 mm 0.00 in0.0 mm
03:34 AM 2.9°F-16.2°C -4.4°F-20.2°C 71% 2.0 mph NW3.2 kmh NW 9.0 mph14.5 kmh 30.40 in1029.5 mb 0.00 in0.0 mm 0.00 in0.0 mm 0.00 in0.0 mm
03:35 AM 2.9°F-16.2°C -4.4°F-20.2°C 71% 3.0 mph W4.8 kmh W 9.0 mph14.5 kmh 30.40 in1029.5 mb 0.00 in0.0 mm 0.00 in0.0 mm 0.00 in0.0 mm
03:36 AM 2.9°F-16.2°C -4.4°F-20.2°C 71% 5.0 mph NNE8.0 kmh NNE 9.0 mph14.5 kmh 30.40 in1029.5 mb 0.00 in0.0 mm 0.00 in0.0 mm 0.00 in0.0 mm
03:37 AM 2.9°F-16.2°C -4.4°F-20.2°C 71% 2.0 mph N3.2 kmh N 9.0 mph14.5 kmh 30.40 in1029.5 mb 0.00 in0.0 mm 0.00 in0.0 mm 0.00 in0.0 mm
03:38 AM 2.9°F-16.2°C -4.1°F-20.1°C 72% 4.0 mph SW6.4 kmh SW 9.0 mph14.5 kmh 30.40 in1029.5 mb 0.00 in0.0 mm 0.00 in0.0 mm 0.00 in0.0 mm
03:39 AM 2.9°F-16.2°C -4.4°F-20.2°C 71% 2.0 mph SW3.2 kmh SW 9.0 mph14.5 kmh 30.40 in1029.5 mb 0.00 in0.0 mm 0.00 in0.0 mm 0.00 in0.0 mm
03:40 AM 2.8°F-16.2°C -4.5°F-20.3°C 71% 5.0 mph N8.0 kmh N 9.0 mph14.5 kmh 30.40 in1029.5 mb 0.00 in0.0 mm 0.00 in0.0 mm 0.00 in0.0 mm
03:41 AM 2.8°F-16.2°C -4.5°F-20.3°C 71% 5.0 mph N8.0 kmh N 9.0 mph14.5 kmh 30.40 in1029.5 mb 0.00 in0.0 mm 0.00 in0.0 mm 0.00 in0.0 mm
03:42 AM 2.8°F-16.2°C -4.5°F-20.3°C 71% 3.0 mph NW4.8 kmh NW 9.0 mph14.5 kmh 30.40 in1029.5 mb 0.00 in0.0 mm 0.00 in0.0 mm 0.00 in0.0 mm
03:43 AM 2.8°F-16.2°C -4.5°F-20.3°C 71% 3.0 mph NW4.8 kmh NW 8.0 mph12.9 kmh 30.41 in1029.8 mb 0.00 in0.0 mm 0.00 in0.0 mm 0.00 in0.0 mm
03:44 AM 2.8°F-16.2°C -4.5°F-20.3°C 71% 3.0 mph NNW4.8 kmh NNW 8.0 mph12.9 kmh 30.41 in1029.8 mb 0.00 in0.0 mm 0.00 in0.0 mm 0.00 in0.0 mm
03:45 AM 2.8°F-16.2°C -4.5°F-20.3°C 71% 1.0 mph NNW1.6 kmh NNW 8.0 mph12.9 kmh 30.41 in1029.8 mb 0.00 in0.0 mm 0.00 in0.0 mm 0.00 in0.0 mm
03:46 AM 2.8°F-16.2°C -4.5°F-20.3°C 71% 3.0 mph NW4.8 kmh NW 8.0 mph12.9 kmh 30.41 in1029.8 mb 0.00 in0.0 mm 0.00 in0.0 mm 0.00 in0.0 mm
03:47 AM 2.7°F-16.3°C -4.6°F-20.3°C 71% 3.0 mph NW4.8 kmh NW 8.0 mph12.9 kmh 30.41 in1029.8 mb 0.00 in0.0 mm 0.00 in0.0 mm 0.00 in0.0 mm
03:48 AM 2.7°F-16.3°C -4.6°F-20.3°C 71% 6.0 mph NW9.7 kmh NW 9.0 mph14.5 kmh 30.41 in1029.8 mb 0.00 in0.0 mm 0.00 in0.0 mm 0.00 in0.0 mm
03:49 AM 2.7°F-16.3°C -4.6°F-20.3°C 71% 5.0 mph NW8.0 kmh NW 10.0 mph16.1 kmh 30.41 in1029.8 mb 0.00 in0.0 mm 0.00 in0.0 mm 0.00 in0.0 mm
03:50 AM 2.7°F-16.3°C -4.6°F-20.3°C 71% 3.0 mph NW4.8 kmh NW 10.0 mph16.1 kmh 30.41 in1029.8 mb 0.00 in0.0 mm 0.00 in0.0 mm 0.00 in0.0 mm
03:51 AM 2.7°F-16.3°C -4.6°F-20.3°C 71% 4.0 mph NW6.4 kmh NW 13.0 mph20.9 kmh 30.41 in1029.8 mb 0.00 in0.0 mm 0.00 in0.0 mm 0.00 in0.0 mm
03:52 AM 2.7°F-16.3°C -4.9°F-20.5°C 70% 6.0 mph NW9.7 kmh NW 13.0 mph20.9 kmh 30.41 in1029.8 mb 0.00 in0.0 mm 0.00 in0.0 mm 0.00 in0.0 mm
03:53 AM 2.7°F-16.3°C -4.9°F-20.5°C 70% 7.0 mph N11.3 kmh N 13.0 mph20.9 kmh 30.41 in1029.8 mb 0.00 in0.0 mm 0.00 in0.0 mm 0.00 in0.0 mm
03:54 AM 2.7°F-16.3°C -4.9°F-20.5°C 70% 9.0 mph WNW14.5 kmh WNW 13.0 mph20.9 kmh 30.41 in1029.8 mb 0.00 in0.0 mm 0.00 in0.0 mm 0.00 in0.0 mm
03:55 AM 2.7°F-16.3°C -5.2°F-20.7°C 69% 3.0 mph NNE4.8 kmh NNE 13.0 mph20.9 kmh 30.41 in1029.8 mb 0.00 in0.0 mm 0.00 in0.0 mm 0.00 in0.0 mm
03:56 AM 2.6°F-16.3°C -5.3°F-20.7°C 69% 2.0 mph NW3.2 kmh NW 13.0 mph20.9 kmh 30.41 in1029.8 mb 0.00 in0.0 mm 0.00 in0.0 mm 0.00 in0.0 mm
03:57 AM 2.6°F-16.3°C -5.3°F-20.7°C 69% 3.0 mph NW4.8 kmh NW 13.0 mph20.9 kmh 30.41 in1029.8 mb 0.00 in0.0 mm 0.00 in0.0 mm 0.00 in0.0 mm
03:58 AM 2.6°F-16.3°C -5.3°F-20.7°C 69% 5.0 mph WNW8.0 kmh WNW 13.0 mph20.9 kmh 30.41 in1029.8 mb 0.00 in0.0 mm 0.00 in0.0 mm 0.00 in0.0 mm
03:59 AM 2.6°F-16.3°C -5.3°F-20.7°C 69% 3.0 mph WNW4.8 kmh WNW 13.0 mph20.9 kmh 30.41 in1029.8 mb 0.00 in0.0 mm 0.00 in0.0 mm 0.00 in0.0 mm
04:00 AM 2.6°F-16.3°C -5.3°F-20.7°C 69% 6.0 mph W9.7 kmh W 13.0 mph20.9 kmh 30.41 in1029.8 mb 0.00 in0.0 mm 0.00 in0.0 mm 0.00 in0.0 mm
04:01 AM 2.6°F-16.3°C -5.3°F-20.7°C 69% 4.0 mph WSW6.4 kmh WSW 13.0 mph20.9 kmh 30.41 in1029.8 mb 0.00 in0.0 mm 0.00 in0.0 mm 0.00 in0.0 mm
04:02 AM 2.6°F-16.3°C -5.3°F-20.7°C 69% 9.0 mph NW14.5 kmh NW 13.0 mph20.9 kmh 30.41 in1029.8 mb 0.00 in0.0 mm 0.00 in0.0 mm 0.00 in0.0 mm
04:03 AM 2.6°F-16.3°C -5.3°F-20.7°C 69% 1.0 mph NW1.6 kmh NW 13.0 mph20.9 kmh 30.41 in1029.8 mb 0.00 in0.0 mm 0.00 in0.0 mm 0.00 in0.0 mm
04:04 AM 2.6°F-16.3°C -5.3°F-20.7°C 69% 2.0 mph N3.2 kmh N 13.0 mph20.9 kmh 30.42 in1030.1 mb 0.00 in0.0 mm 0.00 in0.0 mm 0.00 in0.0 mm
04:05 AM 2.6°F-16.3°C -5.3°F-20.7°C 69% 5.0 mph WNW8.0 kmh WNW 13.0 mph20.9 kmh 30.41 in1029.8 mb 0.00 in0.0 mm 0.00 in0.0 mm 0.00 in0.0 mm
04:06 AM 2.6°F-16.3°C -5.3°F-20.7°C 69% 6.0 mph NNW9.7 kmh NNW 13.0 mph20.9 kmh 30.41 in1029.8 mb 0.00 in0.0 mm 0.00 in0.0 mm 0.00 in0.0 mm
04:07 AM 2.6°F-16.3°C -5.3°F-20.7°C 69% 2.0 mph NNW3.2 kmh NNW 13.0 mph20.9 kmh 30.41 in1029.8 mb 0.00 in0.0 mm 0.00 in0.0 mm 0.00 in0.0 mm
04:08 AM 2.6°F-16.3°C -5.0°F-20.6°C 70% 4.0 mph NW6.4 kmh NW 13.0 mph20.9 kmh 30.41 in1029.8 mb 0.00 in0.0 mm 0.00 in0.0 mm 0.00 in0.0 mm
04:09 AM 2.5°F-16.4°C -5.1°F-20.6°C 70% 3.0 mph NW4.8 kmh NW 12.0 mph19.3 kmh 30.42 in1030.1 mb 0.00 in0.0 mm 0.00 in0.0 mm 0.00 in0.0 mm
04:10 AM 2.5°F-16.4°C -5.1°F-20.6°C 70% 8.0 mph WNW12.9 kmh WNW 10.0 mph16.1 kmh 30.42 in1030.1 mb 0.00 in0.0 mm 0.00 in0.0 mm 0.00 in0.0 mm
04:11 AM 2.5°F-16.4°C -5.1°F-20.6°C 70% 8.0 mph N12.9 kmh N 10.0 mph16.1 kmh 30.42 in1030.1 mb 0.00 in0.0 mm 0.00 in0.0 mm 0.00 in0.0 mm
04:12 AM 2.5°F-16.4°C -5.1°F-20.6°C 70% 7.0 mph WNW11.3 kmh WNW 11.0 mph17.7 kmh 30.42 in1030.1 mb 0.00 in0.0 mm 0.00 in0.0 mm 0.00 in0.0 mm
04:13 AM 2.4°F-16.4°C -5.2°F-20.7°C 70% 8.0 mph WNW12.9 kmh WNW 11.0 mph17.7 kmh 30.42 in1030.1 mb 0.00 in0.0 mm 0.00 in0.0 mm 0.00 in0.0 mm
04:14 AM 2.4°F-16.4°C -5.2°F-20.7°C 70% 3.0 mph NW4.8 kmh NW 11.0 mph17.7 kmh 30.42 in1030.1 mb 0.00 in0.0 mm 0.00 in0.0 mm 0.00 in0.0 mm
04:15 AM 2.4°F-16.4°C -5.5°F-20.8°C 69% 7.0 mph WNW11.3 kmh WNW 11.0 mph17.7 kmh 30.41 in1029.8 mb 0.00 in0.0 mm 0.00 in0.0 mm 0.00 in0.0 mm
04:16 AM 2.4°F-16.4°C -5.5°F-20.8°C 69% 2.0 mph NW3.2 kmh NW 11.0 mph17.7 kmh 30.42 in1030.1 mb 0.00 in0.0 mm 0.00 in0.0 mm 0.00 in0.0 mm
04:17 AM 2.4°F-16.4°C -5.5°F-20.8°C 69% 3.0 mph NW4.8 kmh NW 11.0 mph17.7 kmh 30.42 in1030.1 mb 0.00 in0.0 mm 0.00 in0.0 mm 0.00 in0.0 mm
04:18 AM 2.3°F-16.5°C -5.6°F-20.9°C 69% 5.0 mph NW8.0 kmh NW 11.0 mph17.7 kmh 30.42 in1030.1 mb 0.00 in0.0 mm 0.00 in0.0 mm 0.00 in0.0 mm
04:19 AM 2.3°F-16.5°C -5.6°F-20.9°C 69% 5.0 mph NW8.0 kmh NW 11.0 mph17.7 kmh 30.42 in1030.1 mb 0.00 in0.0 mm 0.00 in0.0 mm 0.00 in0.0 mm
04:20 AM 2.3°F-16.5°C -5.6°F-20.9°C 69% 3.0 mph N4.8 kmh N 11.0 mph17.7 kmh 30.42 in1030.1 mb 0.00 in0.0 mm 0.00 in0.0 mm 0.00 in0.0 mm
04:21 AM 2.3°F-16.5°C -5.6°F-20.9°C 69% 2.0 mph WNW3.2 kmh WNW 11.0 mph17.7 kmh 30.42 in1030.1 mb 0.00 in0.0 mm 0.00 in0.0 mm 0.00 in0.0 mm
04:22 AM 2.3°F-16.5°C -5.6°F-20.9°C 69% 4.0 mph NW6.4 kmh NW 11.0 mph17.7 kmh 30.42 in1030.1 mb 0.00 in0.0 mm 0.00 in0.0 mm 0.00 in0.0 mm
04:23 AM 2.2°F-16.6°C -5.6°F-20.9°C 69% 3.0 mph NW4.8 kmh NW 11.0 mph17.7 kmh 30.42 in1030.1 mb 0.00 in0.0 mm 0.00 in0.0 mm 0.00 in0.0 mm
04:24 AM 2.3°F-16.5°C -5.6°F-20.9°C 69% 8.0 mph NW12.9 kmh NW 10.0 mph16.1 kmh 30.42 in1030.1 mb 0.00 in0.0 mm 0.00 in0.0 mm 0.00 in0.0 mm
04:25 AM 2.2°F-16.6°C -5.6°F-20.9°C 69% 3.0 mph NNW4.8 kmh NNW 10.0 mph16.1 kmh 30.42 in1030.1 mb 0.00 in0.0 mm 0.00 in0.0 mm 0.00 in0.0 mm
04:26 AM 2.2°F-16.6°C -5.6°F-20.9°C 69% 2.0 mph NW3.2 kmh NW 10.0 mph16.1 kmh 30.42 in1030.1 mb 0.00 in0.0 mm 0.00 in0.0 mm 0.00 in0.0 mm
04:27 AM 2.2°F-16.6°C -5.6°F-20.9°C 69% 4.0 mph NNW6.4 kmh NNW 10.0 mph16.1 kmh 30.42 in1030.1 mb 0.00 in0.0 mm 0.00 in0.0 mm 0.00 in0.0 mm
04:28 AM 2.2°F-16.6°C -5.4°F-20.8°C 70% 3.0 mph WNW4.8 kmh WNW 10.0 mph16.1 kmh 30.42 in1030.1 mb 0.00 in0.0 mm 0.00 in0.0 mm 0.00 in0.0 mm
04:29 AM 2.2°F-16.6°C -5.4°F-20.8°C 70% 3.0 mph W4.8 kmh W 10.0 mph16.1 kmh 30.42 in1030.1 mb 0.00 in0.0 mm 0.00 in0.0 mm 0.00 in0.0 mm
04:30 AM 2.2°F-16.6°C -5.4°F-20.8°C 70% 5.0 mph NNW8.0 kmh NNW 10.0 mph16.1 kmh 30.42 in1030.1 mb 0.00 in0.0 mm 0.00 in0.0 mm 0.00 in0.0 mm
04:31 AM 2.2°F-16.6°C -5.4°F-20.8°C 70% 4.0 mph N6.4 kmh N 10.0 mph16.1 kmh 30.42 in1030.1 mb 0.00 in0.0 mm 0.00 in0.0 mm 0.00 in0.0 mm
04:32 AM 2.1°F-16.6°C -5.4°F-20.8°C 70% 4.0 mph NNW6.4 kmh NNW 9.0 mph14.5 kmh 30.42 in1030.1 mb 0.00 in0.0 mm 0.00 in0.0 mm 0.00 in0.0 mm
04:33 AM 2.1°F-16.6°C -5.4°F-20.8°C 70% 4.0 mph WNW6.4 kmh WNW 9.0 mph14.5 kmh 30.42 in1030.1 mb 0.00 in0.0 mm 0.00 in0.0 mm 0.00 in0.0 mm
04:34 AM 2.1°F-16.6°C -5.4°F-20.8°C 70% 3.0 mph WNW4.8 kmh WNW 9.0 mph14.5 kmh 30.42 in1030.1 mb 0.00 in0.0 mm 0.00 in0.0 mm 0.00 in0.0 mm
04:35 AM 2.1°F-16.6°C -5.4°F-20.8°C 70% 4.0 mph NW6.4 kmh NW 10.0 mph16.1 kmh 30.42 in1030.1 mb 0.00 in0.0 mm 0.00 in0.0 mm 0.00 in0.0 mm
04:36 AM 2.0°F-16.7°C -5.2°F-20.7°C 71% 1.0 mph NW1.6 kmh NW 10.0 mph16.1 kmh 30.42 in1030.1 mb 0.00 in0.0 mm 0.00 in0.0 mm 0.00 in0.0 mm
04:37 AM 2.1°F-16.6°C -5.2°F-20.7°C 71% 5.0 mph NW8.0 kmh NW 10.0 mph16.1 kmh 30.42 in1030.1 mb 0.00 in0.0 mm 0.00 in0.0 mm 0.00 in0.0 mm
04:38 AM 2.0°F-16.7°C -5.2°F-20.7°C 71% 8.0 mph N12.9 kmh N 13.0 mph20.9 kmh 30.42 in1030.1 mb 0.00 in0.0 mm 0.00 in0.0 mm 0.00 in0.0 mm
04:39 AM 2.0°F-16.7°C -5.2°F-20.7°C 71% 4.0 mph NNW6.4 kmh NNW 13.0 mph20.9 kmh 30.42 in1030.1 mb 0.00 in0.0 mm 0.00 in0.0 mm 0.00 in0.0 mm
04:40 AM 2.0°F-16.7°C -5.2°F-20.7°C 71% 8.0 mph NW12.9 kmh NW 13.0 mph20.9 kmh 30.42 in1030.1 mb 0.00 in0.0 mm 0.00 in0.0 mm 0.00 in0.0 mm
04:41 AM 1.9°F-16.7°C -5.3°F-20.7°C 71% 7.0 mph NW11.3 kmh NW 13.0 mph20.9 kmh 30.42 in1030.1 mb 0.00 in0.0 mm 0.00 in0.0 mm 0.00 in0.0 mm
04:42 AM 1.9°F-16.7°C -5.3°F-20.7°C 71% 4.0 mph NW6.4 kmh NW 15.0 mph24.1 kmh 30.42 in1030.1 mb 0.00 in0.0 mm 0.00 in0.0 mm 0.00 in0.0 mm
04:43 AM 1.9°F-16.7°C -5.3°F-20.7°C 71% 3.0 mph NW4.8 kmh NW 15.0 mph24.1 kmh 30.42 in1030.1 mb 0.00 in0.0 mm 0.00 in0.0 mm 0.00 in0.0 mm
04:44 AM 1.9°F-16.7°C -5.3°F-20.7°C 71% 2.0 mph NE3.2 kmh NE 15.0 mph24.1 kmh 30.42 in1030.1 mb 0.00 in0.0 mm 0.00 in0.0 mm 0.00 in0.0 mm
04:45 AM 1.9°F-16.7°C -5.3°F-20.7°C 71% 2.0 mph NE3.2 kmh NE 15.0 mph24.1 kmh 30.42 in1030.1 mb 0.00 in0.0 mm 0.00 in0.0 mm 0.00 in0.0 mm
04:46 AM 1.8°F-16.8°C -5.4°F-20.8°C 71% 9.0 mph NW14.5 kmh NW 15.0 mph24.1 kmh 30.42 in1030.1 mb 0.00 in0.0 mm 0.00 in0.0 mm 0.00 in0.0 mm
04:47 AM 1.8°F-16.8°C -5.4°F-20.8°C 71% 2.0 mph NW3.2 kmh NW 15.0 mph24.1 kmh 30.42 in1030.1 mb 0.00 in0.0 mm 0.00 in0.0 mm 0.00 in0.0 mm
04:48 AM 1.8°F-16.8°C -5.4°F-20.8°C 71% 3.0 mph NW4.8 kmh NW 15.0 mph24.1 kmh 30.43 in1030.5 mb 0.00 in0.0 mm 0.00 in0.0 mm 0.00 in0.0 mm
04:49 AM 1.8°F-16.8°C -5.4°F-20.8°C 71% 3.0 mph WNW4.8 kmh WNW 15.0 mph24.1 kmh 30.42 in1030.1 mb 0.00 in0.0 mm 0.00 in0.0 mm 0.00 in0.0 mm
04:50 AM 1.7°F-16.8°C -5.5°F-20.8°C 71% 6.0 mph N9.7 kmh N 15.0 mph24.1 kmh 30.42 in1030.1 mb 0.00 in0.0 mm 0.00 in0.0 mm 0.00 in0.0 mm
04:51 AM 1.7°F-16.8°C -5.2°F-20.7°C 72% 13.0 mph NW20.9 kmh NW 15.0 mph24.1 kmh 30.43 in1030.5 mb 0.00 in0.0 mm 0.00 in0.0 mm 0.00 in0.0 mm
04:52 AM 1.7°F-16.8°C -5.2°F-20.7°C 72% 3.0 mph WNW4.8 kmh WNW 13.0 mph20.9 kmh 30.43 in1030.5 mb 0.00 in0.0 mm 0.00 in0.0 mm 0.00 in0.0 mm
04:53 AM 1.7°F-16.8°C -5.2°F-20.7°C 72% 5.0 mph NNE8.0 kmh NNE 13.0 mph20.9 kmh 30.43 in1030.5 mb 0.00 in0.0 mm 0.00 in0.0 mm 0.00 in0.0 mm
04:54 AM 1.7°F-16.8°C -5.2°F-20.7°C 72% 5.0 mph NNW8.0 kmh NNW 13.0 mph20.9 kmh 30.43 in1030.5 mb 0.00 in0.0 mm 0.00 in0.0 mm 0.00 in0.0 mm
04:55 AM 1.7°F-16.8°C -5.2°F-20.7°C 72% 4.0 mph NW6.4 kmh NW 13.0 mph20.9 kmh 30.42 in1030.1 mb 0.00 in0.0 mm 0.00 in0.0 mm 0.00 in0.0 mm
04:56 AM 1.6°F-16.9°C -5.3°F-20.7°C 72% 1.0 mph NNW1.6 kmh NNW 13.0 mph20.9 kmh 30.42 in1030.1 mb 0.00 in0.0 mm 0.00 in0.0 mm 0.00 in0.0 mm
04:57 AM 1.6°F-16.9°C -5.3°F-20.7°C 72% 8.0 mph NW12.9 kmh NW 13.0 mph20.9 kmh 30.42 in1030.1 mb 0.00 in0.0 mm 0.00 in0.0 mm 0.00 in0.0 mm
04:58 AM 1.6°F-16.9°C -5.3°F-20.7°C 72% 2.0 mph NNW3.2 kmh NNW 13.0 mph20.9 kmh 30.42 in1030.1 mb 0.00 in0.0 mm 0.00 in0.0 mm 0.00 in0.0 mm
04:59 AM 1.6°F-16.9°C -5.3°F-20.7°C 72% 6.0 mph NNW9.7 kmh NNW 13.0 mph20.9 kmh 30.42 in1030.1 mb 0.00 in0.0 mm 0.00 in0.0 mm 0.00 in0.0 mm
05:00 AM 1.5°F-16.9°C -5.4°F-20.8°C 72% 5.0 mph NW8.0 kmh NW 13.0 mph20.9 kmh 30.42 in1030.1 mb 0.00 in0.0 mm 0.00 in0.0 mm 0.00 in0.0 mm
05:01 AM 1.5°F-16.9°C -5.7°F-20.9°C 71% 2.0 mph N3.2 kmh N 12.0 mph19.3 kmh 30.42 in1030.1 mb 0.00 in0.0 mm 0.00 in0.0 mm 0.00 in0.0 mm
05:02 AM 1.5°F-16.9°C -5.7°F-20.9°C 71% 3.0 mph NW4.8 kmh NW 10.0 mph16.1 kmh 30.42 in1030.1 mb 0.00 in0.0 mm 0.00 in0.0 mm 0.00 in0.0 mm
05:03 AM 1.5°F-16.9°C -5.7°F-20.9°C 71% 10.0 mph NW16.1 kmh NW 10.0 mph16.1 kmh 30.42 in1030.1 mb 0.00 in0.0 mm 0.00 in0.0 mm 0.00 in0.0 mm
05:04 AM 1.5°F-16.9°C -5.7°F-20.9°C 71% 6.0 mph N9.7 kmh N 10.0 mph16.1 kmh 30.42 in1030.1 mb 0.00 in0.0 mm 0.00 in0.0 mm 0.00 in0.0 mm
05:05 AM 1.5°F-16.9°C -5.7°F-20.9°C 71% 4.0 mph NW6.4 kmh NW 10.0 mph16.1 kmh 30.42 in1030.1 mb 0.00 in0.0 mm 0.00 in0.0 mm 0.00 in0.0 mm
05:06 AM 1.4°F-17.0°C -5.8°F-21.0°C 71% 10.0 mph N16.1 kmh N 10.0 mph16.1 kmh 30.42 in1030.1 mb 0.00 in0.0 mm 0.00 in0.0 mm 0.00 in0.0 mm
05:07 AM 1.4°F-17.0°C -5.8°F-21.0°C 71% 3.0 mph NW4.8 kmh NW 10.0 mph16.1 kmh 30.42 in1030.1 mb 0.00 in0.0 mm 0.00 in0.0 mm 0.00 in0.0 mm
05:08 AM 1.4°F-17.0°C -5.8°F-21.0°C 71% 11.0 mph NW17.7 kmh NW 11.0 mph17.7 kmh 30.43 in1030.5 mb 0.00 in0.0 mm 0.00 in0.0 mm 0.00 in0.0 mm
05:09 AM 1.4°F-17.0°C -5.8°F-21.0°C 71% 3.0 mph NNW4.8 kmh NNW 13.0 mph20.9 kmh 30.43 in1030.5 mb 0.00 in0.0 mm 0.00 in0.0 mm 0.00 in0.0 mm
05:10 AM 1.4°F-17.0°C -5.8°F-21.0°C 71% 9.0 mph NW14.5 kmh NW 13.0 mph20.9 kmh 30.43 in1030.5 mb 0.00 in0.0 mm 0.00 in0.0 mm 0.00 in0.0 mm
05:11 AM 1.4°F-17.0°C -5.8°F-21.0°C 71% 9.0 mph NW14.5 kmh NW 13.0 mph20.9 kmh 30.43 in1030.5 mb 0.00 in0.0 mm 0.00 in0.0 mm 0.00 in0.0 mm
05:12 AM 1.4°F-17.0°C -5.8°F-21.0°C 71% 4.0 mph NNW6.4 kmh NNW 13.0 mph20.9 kmh 30.43 in1030.5 mb 0.00 in0.0 mm 0.00 in0.0 mm 0.00 in0.0 mm
05:13 AM 1.4°F-17.0°C -5.8°F-21.0°C 71% 9.0 mph NW14.5 kmh NW 13.0 mph20.9 kmh 30.43 in1030.5 mb 0.00 in0.0 mm 0.00 in0.0 mm 0.00 in0.0 mm
05:14 AM 1.4°F-17.0°C -5.8°F-21.0°C 71% 9.0 mph NNW14.5 kmh NNW 13.0 mph20.9 kmh 30.42 in1030.1 mb 0.00 in0.0 mm 0.00 in0.0 mm 0.00 in0.0 mm
05:15 AM 1.4°F-17.0°C -5.8°F-21.0°C 71% 4.0 mph NW6.4 kmh NW 13.0 mph20.9 kmh 30.42 in1030.1 mb 0.00 in0.0 mm 0.00 in0.0 mm 0.00 in0.0 mm
05:16 AM 1.4°F-17.0°C -5.8°F-21.0°C 71% 5.0 mph NNW8.0 kmh NNW 13.0 mph20.9 kmh 30.42 in1030.1 mb 0.00 in0.0 mm 0.00 in0.0 mm 0.00 in0.0 mm
05:17 AM 1.4°F-17.0°C -5.8°F-21.0°C 71% 3.0 mph NW4.8 kmh NW 13.0 mph20.9 kmh 30.42 in1030.1 mb 0.00 in0.0 mm 0.00 in0.0 mm 0.00 in0.0 mm
05:18 AM 1.3°F-17.1°C -5.9°F-21.1°C 71% 4.0 mph N6.4 kmh N 13.0 mph20.9 kmh 30.42 in1030.1 mb 0.00 in0.0 mm 0.00 in0.0 mm 0.00 in0.0 mm
05:19 AM 1.3°F-17.1°C -5.9°F-21.1°C 71% 2.0 mph NNW3.2 kmh NNW 13.0 mph20.9 kmh 30.43 in1030.5 mb 0.00 in0.0 mm 0.00 in0.0 mm 0.00 in0.0 mm
05:20 AM 1.3°F-17.1°C -5.9°F-21.1°C 71% 8.0 mph NW12.9 kmh NW 13.0 mph20.9 kmh 30.43 in1030.5 mb 0.00 in0.0 mm 0.00 in0.0 mm 0.00 in0.0 mm
05:21 AM 1.3°F-17.1°C -5.9°F-21.1°C 71% 5.0 mph N8.0 kmh N 12.0 mph19.3 kmh 30.43 in1030.5 mb 0.00 in0.0 mm 0.00 in0.0 mm 0.00 in0.0 mm
05:22 AM 1.3°F-17.1°C -5.9°F-21.1°C 71% 3.0 mph WNW4.8 kmh WNW 12.0 mph19.3 kmh 30.43 in1030.5 mb 0.00 in0.0 mm 0.00 in0.0 mm 0.00 in0.0 mm
05:23 AM 1.3°F-17.1°C -5.9°F-21.1°C 71% 6.0 mph N9.7 kmh N 12.0 mph19.3 kmh 30.43 in1030.5 mb 0.00 in0.0 mm 0.00 in0.0 mm 0.00 in0.0 mm
05:24 AM 1.3°F-17.1°C -5.9°F-21.1°C 71% 3.0 mph NNW4.8 kmh NNW 12.0 mph19.3 kmh 30.43 in1030.5 mb 0.00 in0.0 mm 0.00 in0.0 mm 0.00 in0.0 mm
05:25 AM 1.3°F-17.1°C -5.9°F-21.1°C 71% 3.0 mph NW4.8 kmh NW 12.0 mph19.3 kmh 30.43 in1030.5 mb 0.00 in0.0 mm 0.00 in0.0 mm 0.00 in0.0 mm
05:26 AM 1.3°F-17.1°C -5.9°F-21.1°C 71% 5.0 mph NNW8.0 kmh NNW 12.0 mph19.3 kmh 30.43 in1030.5 mb 0.00 in0.0 mm 0.00 in0.0 mm 0.00 in0.0 mm
05:27 AM 1.3°F-17.1°C -5.9°F-21.1°C 71% 1.0 mph NW1.6 kmh NW 12.0 mph19.3 kmh 30.43 in1030.5 mb 0.00 in0.0 mm 0.00 in0.0 mm 0.00 in0.0 mm
05:28 AM 1.3°F-17.1°C -5.6°F-20.9°C 72% Calm Calm 12.0 mph19.3 kmh 30.43 in1030.5 mb 0.00 in0.0 mm 0.00 in0.0 mm 0.00 in0.0 mm
05:29 AM 1.3°F-17.1°C -5.9°F-21.1°C 71% Calm Calm 12.0 mph19.3 kmh 30.43 in1030.5 mb 0.00 in0.0 mm 0.00 in0.0 mm 0.00 in0.0 mm
05:30 AM 1.3°F-17.1°C -5.9°F-21.1°C 71% 5.0 mph NNW8.0 kmh NNW 12.0 mph19.3 kmh 30.43 in1030.5 mb 0.00 in0.0 mm 0.00 in0.0 mm 0.00 in0.0 mm
05:31 AM 1.3°F-17.1°C -5.9°F-21.1°C 71% 1.0 mph WNW1.6 kmh WNW 9.0 mph14.5 kmh 30.43 in1030.5 mb 0.00 in0.0 mm 0.00 in0.0 mm 0.00 in0.0 mm
05:32 AM 1.3°F-17.1°C -5.6°F-20.9°C 72% 2.0 mph NW3.2 kmh NW 9.0 mph14.5 kmh 30.43 in1030.5 mb 0.00 in0.0 mm 0.00 in0.0 mm 0.00 in0.0 mm
05:33 AM 1.2°F-17.1°C -6.0°F-21.1°C 71% 6.0 mph N9.7 kmh N 8.0 mph12.9 kmh 30.43 in1030.5 mb 0.00 in0.0 mm 0.00 in0.0 mm 0.00 in0.0 mm
05:34 AM 1.2°F-17.1°C -6.0°F-21.1°C 71% 4.0 mph NNE6.4 kmh NNE 16.0 mph25.7 kmh 30.43 in1030.5 mb 0.00 in0.0 mm 0.00 in0.0 mm 0.00 in0.0 mm
05:35 AM 1.2°F-17.1°C -6.0°F-21.1°C 71% 4.0 mph NW6.4 kmh NW 16.0 mph25.7 kmh 30.43 in1030.5 mb 0.00 in0.0 mm 0.00 in0.0 mm 0.00 in0.0 mm
05:36 AM 1.2°F-17.1°C -6.0°F-21.1°C 71% 3.0 mph NW4.8 kmh NW 16.0 mph25.7 kmh 30.43 in1030.5 mb 0.00 in0.0 mm 0.00 in0.0 mm 0.00 in0.0 mm
05:37 AM 1.2°F-17.1°C -6.0°F-21.1°C 71% 3.0 mph NNW4.8 kmh NNW 16.0 mph25.7 kmh 30.43 in1030.5 mb 0.00 in0.0 mm 0.00 in0.0 mm 0.00 in0.0 mm
05:38 AM 1.2°F-17.1°C -6.0°F-21.1°C 71% 6.0 mph N9.7 kmh N 16.0 mph25.7 kmh 30.43 in1030.5 mb 0.00 in0.0 mm 0.00 in0.0 mm 0.00 in0.0 mm
05:39 AM 1.2°F-17.1°C -6.0°F-21.1°C 71% 6.0 mph N9.7 kmh N 16.0 mph25.7 kmh 30.43 in1030.5 mb 0.00 in0.0 mm 0.00 in0.0 mm 0.00 in0.0 mm
05:40 AM 1.1°F-17.2°C -6.1°F-21.2°C 71% 6.0 mph N9.7 kmh N 16.0 mph25.7 kmh 30.43 in1030.5 mb 0.00 in0.0 mm 0.00 in0.0 mm 0.00 in0.0 mm
05:41 AM 1.1°F-17.2°C -6.1°F-21.2°C 71% 3.0 mph N4.8 kmh N 16.0 mph25.7 kmh 30.43 in1030.5 mb 0.00 in0.0 mm 0.00 in0.0 mm 0.00 in0.0 mm
05:42 AM 1.1°F-17.2°C -6.1°F-21.2°C 71% 1.0 mph N1.6 kmh N 16.0 mph25.7 kmh 30.43 in1030.5 mb 0.00 in0.0 mm 0.00 in0.0 mm 0.00 in0.0 mm
05:43 AM 1.1°F-17.2°C -6.1°F-21.2°C 71% 1.0 mph NNW1.6 kmh NNW 16.0 mph25.7 kmh 30.43 in1030.5 mb 0.00 in0.0 mm 0.00 in0.0 mm 0.00 in0.0 mm
05:44 AM 1.1°F-17.2°C -6.1°F-21.2°C 71% 3.0 mph WNW4.8 kmh WNW 12.0 mph19.3 kmh 30.43 in1030.5 mb 0.00 in0.0 mm 0.00 in0.0 mm 0.00 in0.0 mm
05:45 AM 1.1°F-17.2°C -6.1°F-21.2°C 71% 2.0 mph WNW3.2 kmh WNW 12.0 mph19.3 kmh 30.43 in1030.5 mb 0.00 in0.0 mm 0.00 in0.0 mm 0.00 in0.0 mm
05:46 AM 1.1°F-17.2°C -6.1°F-21.2°C 71% 3.0 mph WNW4.8 kmh WNW 12.0 mph19.3 kmh 30.43 in1030.5 mb 0.00 in0.0 mm 0.00 in0.0 mm 0.00 in0.0 mm
05:47 AM 1.1°F-17.2°C -6.1°F-21.2°C 71% 2.0 mph NNE3.2 kmh NNE 12.0 mph19.3 kmh 30.43 in1030.5 mb 0.00 in0.0 mm 0.00 in0.0 mm 0.00 in0.0 mm
05:48 AM 1.1°F-17.2°C -5.8°F-21.0°C 72% 6.0 mph NW9.7 kmh NW 12.0 mph19.3 kmh 30.43 in1030.5 mb 0.00 in0.0 mm 0.00 in0.0 mm 0.00 in0.0 mm
05:49 AM 1.1°F-17.2°C -5.8°F-21.0°C 72% 8.0 mph WNW12.9 kmh WNW 12.0 mph19.3 kmh 30.43 in1030.5 mb 0.00 in0.0 mm 0.00 in0.0 mm 0.00 in0.0 mm
05:50 AM 1.1°F-17.2°C -5.8°F-21.0°C 72% 4.0 mph WNW6.4 kmh WNW 10.0 mph16.1 kmh 30.43 in1030.5 mb 0.00 in0.0 mm 0.00 in0.0 mm 0.00 in0.0 mm
05:51 AM 1.1°F-17.2°C -5.8°F-21.0°C 72% 4.0 mph NNW6.4 kmh NNW 10.0 mph16.1 kmh 30.43 in1030.5 mb 0.00 in0.0 mm 0.00 in0.0 mm 0.00 in0.0 mm
05:52 AM 1.1°F-17.2°C -5.8°F-21.0°C 72% 5.0 mph NNW8.0 kmh NNW 10.0 mph16.1 kmh 30.43 in1030.5 mb 0.00 in0.0 mm 0.00 in0.0 mm 0.00 in0.0 mm
05:53 AM 1.1°F-17.2°C -5.8°F-21.0°C 72% 4.0 mph WNW6.4 kmh WNW 10.0 mph16.1 kmh 30.43 in1030.5 mb 0.00 in0.0 mm 0.00 in0.0 mm 0.00 in0.0 mm
05:54 AM 1.1°F-17.2°C -5.8°F-21.0°C 72% 3.0 mph NW4.8 kmh NW 10.0 mph16.1 kmh 30.43 in1030.5 mb 0.00 in0.0 mm 0.00 in0.0 mm 0.00 in0.0 mm
05:55 AM 1.1°F-17.2°C -5.8°F-21.0°C 72% 12.0 mph NNW19.3 kmh NNW 12.0 mph19.3 kmh 30.43 in1030.5 mb 0.00 in0.0 mm 0.00 in0.0 mm 0.00 in0.0 mm
05:56 AM 1.0°F-17.2°C -5.9°F-21.1°C 72% 6.0 mph NW9.7 kmh NW 12.0 mph19.3 kmh 30.43 in1030.5 mb 0.00 in0.0 mm 0.00 in0.0 mm 0.00 in0.0 mm
05:57 AM 1.0°F-17.2°C -5.9°F-21.1°C 72% 5.0 mph WNW8.0 kmh WNW 12.0 mph19.3 kmh 30.43 in1030.5 mb 0.00 in0.0 mm 0.00 in0.0 mm 0.00 in0.0 mm
05:58 AM 1.0°F-17.2°C -5.9°F-21.1°C 72% 8.0 mph NNW12.9 kmh NNW 12.0 mph19.3 kmh 30.43 in1030.5 mb 0.00 in0.0 mm 0.00 in0.0 mm 0.00 in0.0 mm
05:59 AM 1.0°F-17.2°C -6.2°F-21.2°C 71% 3.0 mph N4.8 kmh N 12.0 mph19.3 kmh 30.43 in1030.5 mb 0.00 in0.0 mm 0.00 in0.0 mm 0.00 in0.0 mm
06:00 AM 1.0°F-17.2°C -6.2°F-21.2°C 71% 3.0 mph N4.8 kmh N 12.0 mph19.3 kmh 30.43 in1030.5 mb 0.00 in0.0 mm 0.00 in0.0 mm 0.00 in0.0 mm
06:01 AM 0.9°F-17.3°C -6.3°F-21.3°C 71% 3.0 mph NW4.8 kmh NW 12.0 mph19.3 kmh 30.43 in1030.5 mb 0.00 in0.0 mm 0.00 in0.0 mm 0.00 in0.0 mm
06:02 AM 0.9°F-17.3°C -6.3°F-21.3°C 71% 6.0 mph N9.7 kmh N 12.0 mph19.3 kmh 30.43 in1030.5 mb 0.00 in0.0 mm 0.00 in0.0 mm 0.00 in0.0 mm
06:03 AM 0.9°F-17.3°C -6.3°F-21.3°C 71% 4.0 mph N6.4 kmh N 12.0 mph19.3 kmh 30.43 in1030.5 mb 0.00 in0.0 mm 0.00 in0.0 mm 0.00 in0.0 mm
06:04 AM 0.9°F-17.3°C -6.3°F-21.3°C 71% 6.0 mph NW9.7 kmh NW 12.0 mph19.3 kmh 30.43 in1030.5 mb 0.00 in0.0 mm 0.00 in0.0 mm 0.00 in0.0 mm
06:05 AM 0.9°F-17.3°C -6.0°F-21.1°C 72% 3.0 mph NW4.8 kmh NW 11.0 mph17.7 kmh 30.44 in1030.8 mb 0.00 in0.0 mm 0.00 in0.0 mm 0.00 in0.0 mm
06:06 AM 0.9°F-17.3°C -6.0°F-21.1°C 72% 3.0 mph SW4.8 kmh SW 11.0 mph17.7 kmh 30.44 in1030.8 mb 0.00 in0.0 mm 0.00 in0.0 mm 0.00 in0.0 mm
06:07 AM 0.9°F-17.3°C -6.0°F-21.1°C 72% 2.0 mph NE3.2 kmh NE 11.0 mph17.7 kmh 30.44 in1030.8 mb 0.00 in0.0 mm 0.00 in0.0 mm 0.00 in0.0 mm
06:08 AM 0.9°F-17.3°C -6.0°F-21.1°C 72% 2.0 mph N3.2 kmh N 11.0 mph17.7 kmh 30.44 in1030.8 mb 0.00 in0.0 mm 0.00 in0.0 mm 0.00 in0.0 mm
06:09 AM 0.9°F-17.3°C -6.0°F-21.1°C 72% 2.0 mph N3.2 kmh N 11.0 mph17.7 kmh 30.43 in1030.5 mb 0.00 in0.0 mm 0.00 in0.0 mm 0.00 in0.0 mm
06:10 AM 0.9°F-17.3°C -6.0°F-21.1°C 72% 5.0 mph NW8.0 kmh NW 11.0 mph17.7 kmh 30.44 in1030.8 mb 0.00 in0.0 mm 0.00 in0.0 mm 0.00 in0.0 mm
06:11 AM 0.9°F-17.3°C -6.0°F-21.1°C 72% 2.0 mph NW3.2 kmh NW 11.0 mph17.7 kmh 30.44 in1030.8 mb 0.00 in0.0 mm 0.00 in0.0 mm 0.00 in0.0 mm
06:12 AM 0.9°F-17.3°C -6.0°F-21.1°C 72% 6.0 mph N9.7 kmh N 11.0 mph17.7 kmh 30.44 in1030.8 mb 0.00 in0.0 mm 0.00 in0.0 mm 0.00 in0.0 mm
06:13 AM 0.8°F-17.3°C -6.1°F-21.2°C 72% 6.0 mph NW9.7 kmh NW 14.0 mph22.5 kmh 30.44 in1030.8 mb 0.00 in0.0 mm 0.00 in0.0 mm 0.00 in0.0 mm
06:14 AM 0.8°F-17.3°C -6.1°F-21.2°C 72% 2.0 mph NNW3.2 kmh NNW 14.0 mph22.5 kmh 30.44 in1030.8 mb 0.00 in0.0 mm 0.00 in0.0 mm 0.00 in0.0 mm
06:15 AM 0.8°F-17.3°C -6.1°F-21.2°C 72% 3.0 mph NW4.8 kmh NW 14.0 mph22.5 kmh 30.44 in1030.8 mb 0.00 in0.0 mm 0.00 in0.0 mm 0.00 in0.0 mm
06:16 AM 0.8°F-17.3°C -6.1°F-21.2°C 72% 2.0 mph NW3.2 kmh NW 14.0 mph22.5 kmh 30.44 in1030.8 mb 0.00 in0.0 mm 0.00 in0.0 mm 0.00 in0.0 mm
06:17 AM 0.8°F-17.3°C -6.1°F-21.2°C 72% 4.0 mph N6.4 kmh N 14.0 mph22.5 kmh 30.44 in1030.8 mb 0.00 in0.0 mm 0.00 in0.0 mm 0.00 in0.0 mm
06:18 AM 0.8°F-17.3°C -6.1°F-21.2°C 72% 2.0 mph NNE3.2 kmh NNE 14.0 mph22.5 kmh 30.44 in1030.8 mb 0.00 in0.0 mm 0.00 in0.0 mm 0.00 in0.0 mm
06:19 AM 0.8°F-17.3°C -6.1°F-21.2°C 72% 4.0 mph NW6.4 kmh NW 14.0 mph22.5 kmh 30.44 in1030.8 mb 0.00 in0.0 mm 0.00 in0.0 mm 0.00 in0.0 mm
06:20 AM 0.7°F-17.4°C -6.2°F-21.2°C 72% 3.0 mph NW4.8 kmh NW 14.0 mph22.5 kmh 30.44 in1030.8 mb 0.00 in0.0 mm 0.00 in0.0 mm 0.00 in0.0 mm
06:21 AM 0.7°F-17.4°C -6.2°F-21.2°C 72% 4.0 mph NNW6.4 kmh NNW 14.0 mph22.5 kmh 30.44 in1030.8 mb 0.00 in0.0 mm 0.00 in0.0 mm 0.00 in0.0 mm
06:22 AM 0.7°F-17.4°C -6.2°F-21.2°C 72% 3.0 mph NW4.8 kmh NW 14.0 mph22.5 kmh 30.44 in1030.8 mb 0.00 in0.0 mm 0.00 in0.0 mm 0.00 in0.0 mm
06:23 AM 0.7°F-17.4°C -6.2°F-21.2°C 72% 4.0 mph NW6.4 kmh NW 9.0 mph14.5 kmh 30.44 in1030.8 mb 0.00 in0.0 mm 0.00 in0.0 mm 0.00 in0.0 mm
06:24 AM 0.7°F-17.4°C -6.2°F-21.2°C 72% 4.0 mph N6.4 kmh N 9.0 mph14.5 kmh 30.44 in1030.8 mb 0.00 in0.0 mm 0.00 in0.0 mm 0.00 in0.0 mm
06:25 AM 0.7°F-17.4°C -6.2°F-21.2°C 72% 4.0 mph NW6.4 kmh NW 9.0 mph14.5 kmh 30.44 in1030.8 mb 0.00 in0.0 mm 0.00 in0.0 mm 0.00 in0.0 mm
06:26 AM 0.7°F-17.4°C -6.2°F-21.2°C 72% 1.0 mph NW1.6 kmh NW 9.0 mph14.5 kmh 30.44 in1030.8 mb 0.00 in0.0 mm 0.00 in0.0 mm 0.00 in0.0 mm
06:27 AM 0.7°F-17.4°C -5.9°F-21.1°C 73% 4.0 mph NW6.4 kmh NW 9.0 mph14.5 kmh 30.44 in1030.8 mb 0.00 in0.0 mm 0.00 in0.0 mm 0.00 in0.0 mm
06:28 AM 0.7°F-17.4°C -5.9°F-21.1°C 73% 3.0 mph NW4.8 kmh NW 9.0 mph14.5 kmh 30.44 in1030.8 mb 0.00 in0.0 mm 0.00 in0.0 mm 0.00 in0.0 mm
06:29 AM 0.7°F-17.4°C -6.2°F-21.2°C 72% 5.0 mph NNW8.0 kmh NNW 11.0 mph17.7 kmh 30.44 in1030.8 mb 0.00 in0.0 mm 0.00 in0.0 mm 0.00 in0.0 mm
06:30 AM 0.7°F-17.4°C -6.2°F-21.2°C 72% 5.0 mph NW8.0 kmh NW 11.0 mph17.7 kmh 30.44 in1030.8 mb 0.00 in0.0 mm 0.00 in0.0 mm 0.00 in0.0 mm
06:31 AM 0.6°F-17.4°C -6.3°F-21.3°C 72% 3.0 mph NW4.8 kmh NW 11.0 mph17.7 kmh 30.44 in1030.8 mb 0.00 in0.0 mm 0.00 in0.0 mm 0.00 in0.0 mm
06:32 AM 0.6°F-17.4°C -6.3°F-21.3°C 72% 5.0 mph NW8.0 kmh NW 11.0 mph17.7 kmh 30.44 in1030.8 mb 0.00 in0.0 mm 0.00 in0.0 mm 0.00 in0.0 mm
06:33 AM 0.6°F-17.4°C -6.3°F-21.3°C 72% 5.0 mph NW8.0 kmh NW 11.0 mph17.7 kmh 30.44 in1030.8 mb 0.00 in0.0 mm 0.00 in0.0 mm 0.00 in0.0 mm
06:34 AM 0.7°F-17.4°C -6.2°F-21.2°C 72% 2.0 mph N3.2 kmh N 11.0 mph17.7 kmh 30.44 in1030.8 mb 0.00 in0.0 mm 0.00 in0.0 mm 0.00 in0.0 mm
06:35 AM 0.6°F-17.4°C -6.3°F-21.3°C 72% 4.0 mph N6.4 kmh N 11.0 mph17.7 kmh 30.44 in1030.8 mb 0.00 in0.0 mm 0.00 in0.0 mm 0.00 in0.0 mm
06:36 AM 0.6°F-17.4°C -6.3°F-21.3°C 72% 4.0 mph NNW6.4 kmh NNW 11.0 mph17.7 kmh 30.44 in1030.8 mb 0.00 in0.0 mm 0.00 in0.0 mm 0.00 in0.0 mm
06:37 AM 0.6°F-17.4°C -6.3°F-21.3°C 72% 4.0 mph N6.4 kmh N 11.0 mph17.7 kmh 30.44 in1030.8 mb 0.00 in0.0 mm 0.00 in0.0 mm 0.00 in0.0 mm
06:38 AM 0.6°F-17.4°C -6.3°F-21.3°C 72% 2.0 mph NW3.2 kmh NW 11.0 mph17.7 kmh 30.44 in1030.8 mb 0.00 in0.0 mm 0.00 in0.0 mm 0.00 in0.0 mm
06:39 AM 0.6°F-17.4°C -6.3°F-21.3°C 72% 6.0 mph NNW9.7 kmh NNW 10.0 mph16.1 kmh 30.44 in1030.8 mb 0.00 in0.0 mm 0.00 in0.0 mm 0.00 in0.0 mm
06:40 AM 0.6°F-17.4°C -6.3°F-21.3°C 72% 5.0 mph NW8.0 kmh NW 10.0 mph16.1 kmh 30.44 in1030.8 mb 0.00 in0.0 mm 0.00 in0.0 mm 0.00 in0.0 mm
06:41 AM 0.6°F-17.4°C -6.3°F-21.3°C 72% 2.0 mph NW3.2 kmh NW 10.0 mph16.1 kmh 30.44 in1030.8 mb 0.00 in0.0 mm 0.00 in0.0 mm 0.00 in0.0 mm
06:42 AM 0.5°F-17.5°C -6.4°F-21.3°C 72% 7.0 mph NW11.3 kmh NW 10.0 mph16.1 kmh 30.44 in1030.8 mb 0.00 in0.0 mm 0.00 in0.0 mm 0.00 in0.0 mm
06:43 AM 0.6°F-17.4°C -6.3°F-21.3°C 72% 8.0 mph N12.9 kmh N 10.0 mph16.1 kmh 30.44 in1030.8 mb 0.00 in0.0 mm 0.00 in0.0 mm 0.00 in0.0 mm
06:44 AM 0.6°F-17.4°C -6.3°F-21.3°C 72% 2.0 mph N3.2 kmh N 10.0 mph16.1 kmh 30.44 in1030.8 mb 0.00 in0.0 mm 0.00 in0.0 mm 0.00 in0.0 mm
06:45 AM 0.6°F-17.4°C -6.3°F-21.3°C 72% 4.0 mph NW6.4 kmh NW 10.0 mph16.1 kmh 30.44 in1030.8 mb 0.00 in0.0 mm 0.00 in0.0 mm 0.00 in0.0 mm
06:46 AM 0.6°F-17.4°C -6.0°F-21.1°C 73% 7.0 mph NW11.3 kmh NW 10.0 mph16.1 kmh 30.44 in1030.8 mb 0.00 in0.0 mm 0.00 in0.0 mm 0.00 in0.0 mm
06:47 AM 0.6°F-17.4°C -6.0°F-21.1°C 73% 4.0 mph NNW6.4 kmh NNW 10.0 mph16.1 kmh 30.44 in1030.8 mb 0.00 in0.0 mm 0.00 in0.0 mm 0.00 in0.0 mm
06:48 AM 0.6°F-17.4°C -6.0°F-21.1°C 73% 2.0 mph NNW3.2 kmh NNW 10.0 mph16.1 kmh 30.44 in1030.8 mb 0.00 in0.0 mm 0.00 in0.0 mm 0.00 in0.0 mm
06:49 AM 0.6°F-17.4°C -6.0°F-21.1°C 73% 2.0 mph N3.2 kmh N 10.0 mph16.1 kmh 30.44 in1030.8 mb 0.00 in0.0 mm 0.00 in0.0 mm 0.00 in0.0 mm
06:50 AM 0.6°F-17.4°C -6.3°F-21.3°C 72% 4.0 mph NNW6.4 kmh NNW 10.0 mph16.1 kmh 30.45 in1031.2 mb 0.00 in0.0 mm 0.00 in0.0 mm 0.00 in0.0 mm
06:51 AM 0.6°F-17.4°C -6.3°F-21.3°C 72% 2.0 mph NNW3.2 kmh NNW 10.0 mph16.1 kmh 30.45 in1031.2 mb 0.00 in0.0 mm 0.00 in0.0 mm 0.00 in0.0 mm
06:52 AM 0.6°F-17.4°C -6.3°F-21.3°C 72% 2.0 mph N3.2 kmh N 10.0 mph16.1 kmh 30.45 in1031.2 mb 0.00 in0.0 mm 0.00 in0.0 mm 0.00 in0.0 mm
06:53 AM 0.6°F-17.4°C -6.3°F-21.3°C 72% 4.0 mph NW6.4 kmh NW 10.0 mph16.1 kmh 30.45 in1031.2 mb 0.00 in0.0 mm 0.00 in0.0 mm 0.00 in0.0 mm
06:54 AM 0.6°F-17.4°C -6.0°F-21.1°C 73% 4.0 mph NNW6.4 kmh NNW 11.0 mph17.7 kmh 30.45 in1031.2 mb 0.00 in0.0 mm 0.00 in0.0 mm 0.00 in0.0 mm
06:55 AM 0.6°F-17.4°C -6.0°F-21.1°C 73% 5.0 mph NNW8.0 kmh NNW 11.0 mph17.7 kmh 30.45 in1031.2 mb 0.00 in0.0 mm 0.00 in0.0 mm 0.00 in0.0 mm
06:56 AM 0.6°F-17.4°C -6.3°F-21.3°C 72% 6.0 mph NNE9.7 kmh NNE 11.0 mph17.7 kmh 30.45 in1031.2 mb 0.00 in0.0 mm 0.00 in0.0 mm 0.00 in0.0 mm
06:57 AM 0.6°F-17.4°C -6.3°F-21.3°C 72% 3.0 mph NW4.8 kmh NW 11.0 mph17.7 kmh 30.45 in1031.2 mb 0.00 in0.0 mm 0.00 in0.0 mm 0.00 in0.0 mm
06:58 AM 0.6°F-17.4°C -6.3°F-21.3°C 72% 9.0 mph NNE14.5 kmh NNE 11.0 mph17.7 kmh 30.45 in1031.2 mb 0.00 in0.0 mm 0.00 in0.0 mm 0.00 in0.0 mm
06:59 AM 0.6°F-17.4°C -6.3°F-21.3°C 72% 4.0 mph N6.4 kmh N 11.0 mph17.7 kmh 30.45 in1031.2 mb 0.00 in0.0 mm 0.00 in0.0 mm 0.00 in0.0 mm
07:00 AM 0.6°F-17.4°C -6.3°F-21.3°C 72% 3.0 mph NW4.8 kmh NW 11.0 mph17.7 kmh 30.45 in1031.2 mb 0.00 in0.0 mm 0.00 in0.0 mm 0.00 in0.0 mm
07:01 AM 0.6°F-17.4°C -6.3°F-21.3°C 72% 3.0 mph NW4.8 kmh NW 11.0 mph17.7 kmh 30.45 in1031.2 mb 0.00 in0.0 mm 0.00 in0.0 mm 0.00 in0.0 mm
07:02 AM 0.6°F-17.4°C -6.3°F-21.3°C 72% 5.0 mph NNW8.0 kmh NNW 11.0 mph17.7 kmh 30.45 in1031.2 mb 0.00 in0.0 mm 0.00 in0.0 mm 0.00 in0.0 mm
07:03 AM 0.6°F-17.4°C -6.3°F-21.3°C 72% 6.0 mph NNW9.7 kmh NNW 11.0 mph17.7 kmh 30.45 in1031.2 mb 0.00 in0.0 mm 0.00 in0.0 mm 0.00 in0.0 mm
07:04 AM 0.6°F-17.4°C -6.3°F-21.3°C 72% 5.0 mph NW8.0 kmh NW 9.0 mph14.5 kmh 30.45 in1031.2 mb 0.00 in0.0 mm 0.00 in0.0 mm 0.00 in0.0 mm
07:05 AM 0.6°F-17.4°C -6.3°F-21.3°C 72% 4.0 mph WNW6.4 kmh WNW 9.0 mph14.5 kmh 30.45 in1031.2 mb 0.00 in0.0 mm 0.00 in0.0 mm 0.00 in0.0 mm
07:06 AM 0.5°F-17.5°C -6.4°F-21.3°C 72% 2.0 mph NW3.2 kmh NW 9.0 mph14.5 kmh 30.45 in1031.2 mb 0.00 in0.0 mm 0.00 in0.0 mm 0.00 in0.0 mm
07:07 AM 0.5°F-17.5°C -6.4°F-21.3°C 72% 4.0 mph W6.4 kmh W 9.0 mph14.5 kmh 30.45 in1031.2 mb 0.00 in0.0 mm 0.00 in0.0 mm 0.00 in0.0 mm
07:08 AM 0.5°F-17.5°C -6.4°F-21.3°C 72% 2.0 mph NW3.2 kmh NW 11.0 mph17.7 kmh 30.45 in1031.2 mb 0.00 in0.0 mm 0.00 in0.0 mm 0.00 in0.0 mm
07:09 AM 0.5°F-17.5°C -6.4°F-21.3°C 72% 4.0 mph N6.4 kmh N 11.0 mph17.7 kmh 30.45 in1031.2 mb 0.00 in0.0 mm 0.00 in0.0 mm 0.00 in0.0 mm
07:10 AM 0.6°F-17.4°C -6.3°F-21.3°C 72% 3.0 mph N4.8 kmh N 11.0 mph17.7 kmh 30.45 in1031.2 mb 0.00 in0.0 mm 0.00 in0.0 mm 0.00 in0.0 mm
07:11 AM 0.5°F-17.5°C -6.4°F-21.3°C 72% 5.0 mph NW8.0 kmh NW 11.0 mph17.7 kmh 30.45 in1031.2 mb 0.00 in0.0 mm 0.00 in0.0 mm 0.00 in0.0 mm
07:12 AM 0.5°F-17.5°C -6.4°F-21.3°C 72% 7.0 mph NW11.3 kmh NW 12.0 mph19.3 kmh 30.45 in1031.2 mb 0.00 in0.0 mm 0.00 in0.0 mm 0.00 in0.0 mm
07:13 AM 0.6°F-17.4°C -6.3°F-21.3°C 72% 4.0 mph N6.4 kmh N 12.0 mph19.3 kmh 30.45 in1031.2 mb 0.00 in0.0 mm 0.00 in0.0 mm 0.00 in0.0 mm
07:14 AM 0.6°F-17.4°C -6.3°F-21.3°C 72% 5.0 mph NNW8.0 kmh NNW 12.0 mph19.3 kmh 30.45 in1031.2 mb 0.00 in0.0 mm 0.00 in0.0 mm 0.00 in0.0 mm
07:15 AM 0.5°F-17.5°C -6.4°F-21.3°C 72% 2.0 mph NW3.2 kmh NW 12.0 mph19.3 kmh 30.45 in1031.2 mb 0.00 in0.0 mm 0.00 in0.0 mm 0.00 in0.0 mm
07:16 AM 0.6°F-17.4°C -6.3°F-21.3°C 72% 1.0 mph NW1.6 kmh NW 12.0 mph19.3 kmh 30.45 in1031.2 mb 0.00 in0.0 mm 0.00 in0.0 mm 0.00 in0.0 mm
07:17 AM 0.5°F-17.5°C -6.4°F-21.3°C 72% 4.0 mph NW6.4 kmh NW 12.0 mph19.3 kmh 30.45 in1031.2 mb 0.00 in0.0 mm 0.00 in0.0 mm 0.00 in0.0 mm
07:18 AM 0.5°F-17.5°C -6.4°F-21.3°C 72% 4.0 mph NW6.4 kmh NW 12.0 mph19.3 kmh 30.45 in1031.2 mb 0.00 in0.0 mm 0.00 in0.0 mm 0.00 in0.0 mm
07:19 AM 0.6°F-17.4°C -6.0°F-21.1°C 73% 3.0 mph NW4.8 kmh NW 12.0 mph19.3 kmh 30.45 in1031.2 mb 0.00 in0.0 mm 0.00 in0.0 mm 0.00 in0.0 mm
07:20 AM 0.6°F-17.4°C -6.0°F-21.1°C 73% 2.0 mph NW3.2 kmh NW 12.0 mph19.3 kmh 30.45 in1031.2 mb 0.00 in0.0 mm 0.00 in0.0 mm 0.00 in0.0 mm
07:21 AM 0.6°F-17.4°C -6.0°F-21.1°C 73% 5.0 mph NW8.0 kmh NW 10.0 mph16.1 kmh 30.45 in1031.2 mb 0.00 in0.0 mm 0.00 in0.0 mm 0.00 in0.0 mm
07:22 AM 0.6°F-17.4°C -6.0°F-21.1°C 73% 8.0 mph NW12.9 kmh NW 10.0 mph16.1 kmh 30.45 in1031.2 mb 0.00 in0.0 mm 0.00 in0.0 mm 0.00 in0.0 mm
07:23 AM 0.6°F-17.4°C -6.3°F-21.3°C 72% 2.0 mph NW3.2 kmh NW 10.0 mph16.1 kmh 30.45 in1031.2 mb 0.00 in0.0 mm 0.00 in0.0 mm 0.00 in0.0 mm
07:24 AM 0.6°F-17.4°C -6.3°F-21.3°C 72% 6.0 mph NW9.7 kmh NW 10.0 mph16.1 kmh 30.45 in1031.2 mb 0.00 in0.0 mm 0.00 in0.0 mm 0.00 in0.0 mm
07:25 AM 0.6°F-17.4°C -6.3°F-21.3°C 72% 4.0 mph NNW6.4 kmh NNW 10.0 mph16.1 kmh 30.45 in1031.2 mb 0.00 in0.0 mm 0.00 in0.0 mm 0.00 in0.0 mm
07:26 AM 0.5°F-17.5°C -6.4°F-21.3°C 72% 5.0 mph NNW8.0 kmh NNW 10.0 mph16.1 kmh 30.45 in1031.2 mb 0.00 in0.0 mm 0.00 in0.0 mm 0.00 in0.0 mm
07:27 AM 0.5°F-17.5°C -6.4°F-21.3°C 72% 2.0 mph NW3.2 kmh NW 10.0 mph16.1 kmh 30.45 in1031.2 mb 0.00 in0.0 mm 0.00 in0.0 mm 0.00 in0.0 mm
07:28 AM 0.5°F-17.5°C -6.4°F-21.3°C 72% 2.0 mph NW3.2 kmh NW 10.0 mph16.1 kmh 30.45 in1031.2 mb 0.00 in0.0 mm 0.00 in0.0 mm 0.00 in0.0 mm
07:29 AM 0.5°F-17.5°C -6.4°F-21.3°C 72% 4.0 mph N6.4 kmh N 10.0 mph16.1 kmh 30.46 in1031.5 mb 0.00 in0.0 mm 0.00 in0.0 mm 0.00 in0.0 mm
07:30 AM 0.5°F-17.5°C -6.4°F-21.3°C 72% 9.0 mph NW14.5 kmh NW 10.0 mph16.1 kmh 30.46 in1031.5 mb 0.00 in0.0 mm 0.00 in0.0 mm 0.00 in0.0 mm
07:31 AM 0.5°F-17.5°C -6.4°F-21.3°C 72% 4.0 mph WNW6.4 kmh WNW 10.0 mph16.1 kmh 30.46 in1031.5 mb 0.00 in0.0 mm 0.00 in0.0 mm 0.00 in0.0 mm
07:32 AM 0.5°F-17.5°C -6.4°F-21.3°C 72% 1.0 mph NW1.6 kmh NW 10.0 mph16.1 kmh 30.46 in1031.5 mb 0.00 in0.0 mm 0.00 in0.0 mm 0.00 in0.0 mm
07:33 AM 0.5°F-17.5°C -6.4°F-21.3°C 72% 3.0 mph NW4.8 kmh NW 10.0 mph16.1 kmh 30.46 in1031.5 mb 0.00 in0.0 mm 0.00 in0.0 mm 0.00 in0.0 mm
07:34 AM 0.5°F-17.5°C -6.4°F-21.3°C 72% 3.0 mph N4.8 kmh N 10.0 mph16.1 kmh 30.46 in1031.5 mb 0.00 in0.0 mm 0.00 in0.0 mm 0.00 in0.0 mm
07:35 AM 0.4°F-17.6°C -6.5°F-21.4°C 72% 4.0 mph WNW6.4 kmh WNW 9.0 mph14.5 kmh 30.46 in1031.5 mb 0.00 in0.0 mm 0.00 in0.0 mm 0.00 in0.0 mm
07:36 AM 0.5°F-17.5°C -6.4°F-21.3°C 72% 6.0 mph N9.7 kmh N 9.0 mph14.5 kmh 30.46 in1031.5 mb 0.00 in0.0 mm 0.00 in0.0 mm 0.00 in0.0 mm
07:37 AM 0.5°F-17.5°C -6.1°F-21.2°C 73% 4.0 mph NW6.4 kmh NW 9.0 mph14.5 kmh 30.46 in1031.5 mb 0.00 in0.0 mm 0.00 in0.0 mm 0.00 in0.0 mm
07:38 AM 0.5°F-17.5°C -6.4°F-21.3°C 72% 3.0 mph NW4.8 kmh NW 9.0 mph14.5 kmh 30.46 in1031.5 mb 0.00 in0.0 mm 0.00 in0.0 mm 0.00 in0.0 mm
07:39 AM 0.5°F-17.5°C -6.4°F-21.3°C 72% 2.0 mph NW3.2 kmh NW 9.0 mph14.5 kmh 30.46 in1031.5 mb 0.00 in0.0 mm 0.00 in0.0 mm 0.00 in0.0 mm
07:40 AM 0.4°F-17.6°C -6.5°F-21.4°C 72% 3.0 mph W4.8 kmh W 9.0 mph14.5 kmh 30.46 in1031.5 mb 0.00 in0.0 mm 0.00 in0.0 mm 0.00 in0.0 mm
07:41 AM 0.4°F-17.6°C -6.5°F-21.4°C 72% 3.0 mph W4.8 kmh W 9.0 mph14.5 kmh 30.46 in1031.5 mb 0.00 in0.0 mm 0.00 in0.0 mm 0.00 in0.0 mm
07:42 AM 0.4°F-17.6°C -6.5°F-21.4°C 72% 2.0 mph WNW3.2 kmh WNW 9.0 mph14.5 kmh 30.46 in1031.5 mb 0.00 in0.0 mm 0.00 in0.0 mm 0.00 in0.0 mm
07:43 AM 0.4°F-17.6°C -6.5°F-21.4°C 72% 2.0 mph WNW3.2 kmh WNW 9.0 mph14.5 kmh 30.46 in1031.5 mb 0.00 in0.0 mm 0.00 in0.0 mm 0.00 in0.0 mm
07:44 AM 0.4°F-17.6°C -6.5°F-21.4°C 72% 8.0 mph NNW12.9 kmh NNW 9.0 mph14.5 kmh 30.46 in1031.5 mb 0.00 in0.0 mm 0.00 in0.0 mm 0.00 in0.0 mm
07:45 AM 0.4°F-17.6°C -6.5°F-21.4°C 72% 3.0 mph NW4.8 kmh NW 9.0 mph14.5 kmh 30.46 in1031.5 mb 0.00 in0.0 mm 0.00 in0.0 mm 0.00 in0.0 mm
07:46 AM 0.4°F-17.6°C -6.5°F-21.4°C 72% 4.0 mph WNW6.4 kmh WNW 9.0 mph14.5 kmh 30.46 in1031.5 mb 0.00 in0.0 mm 0.00 in0.0 mm 0.00 in0.0 mm
07:47 AM 0.4°F-17.6°C -6.2°F-21.2°C 73% 2.0 mph NW3.2 kmh NW 10.0 mph16.1 kmh 30.46 in1031.5 mb 0.00 in0.0 mm 0.00 in0.0 mm 0.00 in0.0 mm
07:48 AM 0.4°F-17.6°C -6.2°F-21.2°C 73% 5.0 mph NW8.0 kmh NW 10.0 mph16.1 kmh 30.46 in1031.5 mb 0.00 in0.0 mm 0.00 in0.0 mm 0.00 in0.0 mm
07:49 AM 0.4°F-17.6°C -6.2°F-21.2°C 73% 5.0 mph NW8.0 kmh NW 10.0 mph16.1 kmh 30.47 in1031.8 mb 0.00 in0.0 mm 0.00 in0.0 mm 0.00 in0.0 mm
07:50 AM 0.4°F-17.6°C -6.5°F-21.4°C 72% 2.0 mph NW3.2 kmh NW 10.0 mph16.1 kmh 30.47 in1031.8 mb 0.00 in0.0 mm 0.00 in0.0 mm 0.00 in0.0 mm
07:51 AM 0.4°F-17.6°C -6.5°F-21.4°C 72% 3.0 mph NNW4.8 kmh NNW 10.0 mph16.1 kmh 30.47 in1031.8 mb 0.00 in0.0 mm 0.00 in0.0 mm 0.00 in0.0 mm
07:52 AM 0.4°F-17.6°C -6.5°F-21.4°C 72% 3.0 mph N4.8 kmh N 10.0 mph16.1 kmh 30.47 in1031.8 mb 0.00 in0.0 mm 0.00 in0.0 mm 0.00 in0.0 mm
07:53 AM 0.3°F-17.6°C -6.6°F-21.4°C 72% 3.0 mph NW4.8 kmh NW 10.0 mph16.1 kmh 30.47 in1031.8 mb 0.00 in0.0 mm 0.00 in0.0 mm 0.00 in0.0 mm
07:54 AM 0.3°F-17.6°C -6.6°F-21.4°C 72% 3.0 mph W4.8 kmh W 10.0 mph16.1 kmh 30.47 in1031.8 mb 0.00 in0.0 mm 0.00 in0.0 mm 0.00 in0.0 mm
07:55 AM 0.3°F-17.6°C -6.6°F-21.4°C 72% 6.0 mph N9.7 kmh N 10.0 mph16.1 kmh 30.47 in1031.8 mb 0.00 in0.0 mm 0.00 in0.0 mm 0.00 in0.0 mm
07:56 AM 0.3°F-17.6°C -6.6°F-21.4°C 72% 6.0 mph NW9.7 kmh NW 10.0 mph16.1 kmh 30.47 in1031.8 mb 0.00 in0.0 mm 0.00 in0.0 mm 0.00 in0.0 mm
07:57 AM 0.2°F-17.7°C -6.7°F-21.5°C 72% 5.0 mph N8.0 kmh N 10.0 mph16.1 kmh 30.47 in1031.8 mb 0.00 in0.0 mm 0.00 in0.0 mm 0.00 in0.0 mm
07:58 AM 0.3°F-17.6°C -6.6°F-21.4°C 72% 4.0 mph NNW6.4 kmh NNW 10.0 mph16.1 kmh 30.47 in1031.8 mb 0.00 in0.0 mm 0.00 in0.0 mm 0.00 in0.0 mm
07:59 AM 0.2°F-17.7°C -6.7°F-21.5°C 72% 3.0 mph NW4.8 kmh NW 11.0 mph17.7 kmh 30.47 in1031.8 mb 0.00 in0.0 mm 0.00 in0.0 mm 0.00 in0.0 mm
08:00 AM 0.2°F-17.7°C -6.7°F-21.5°C 72% 6.0 mph N9.7 kmh N 11.0 mph17.7 kmh 30.47 in1031.8 mb 0.00 in0.0 mm 0.00 in0.0 mm 0.00 in0.0 mm
08:01 AM 0.2°F-17.7°C -6.7°F-21.5°C 72% 7.0 mph WNW11.3 kmh WNW 11.0 mph17.7 kmh 30.47 in1031.8 mb 0.00 in0.0 mm 0.00 in0.0 mm 0.00 in0.0 mm
08:02 AM 0.2°F-17.7°C -6.7°F-21.5°C 72% 7.0 mph WNW11.3 kmh WNW 11.0 mph17.7 kmh 30.47 in1031.8 mb 0.00 in0.0 mm 0.00 in0.0 mm 0.00 in0.0 mm
08:03 AM 0.2°F-17.7°C -6.7°F-21.5°C 72% 4.0 mph NNW6.4 kmh NNW 14.0 mph22.5 kmh 30.47 in1031.8 mb 0.00 in0.0 mm 0.00 in0.0 mm 0.00 in0.0 mm
08:04 AM 0.3°F-17.6°C -6.6°F-21.4°C 72% 6.0 mph NW9.7 kmh NW 14.0 mph22.5 kmh 30.47 in1031.8 mb 0.00 in0.0 mm 0.00 in0.0 mm 0.00 in0.0 mm
08:05 AM 0.3°F-17.6°C -6.6°F-21.4°C 72% 9.0 mph NNW14.5 kmh NNW 14.0 mph22.5 kmh 30.47 in1031.8 mb 0.00 in0.0 mm 0.00 in0.0 mm 0.00 in0.0 mm
08:06 AM 0.2°F-17.7°C -6.7°F-21.5°C 72% 8.0 mph NNW12.9 kmh NNW 14.0 mph22.5 kmh 30.47 in1031.8 mb 0.00 in0.0 mm 0.00 in0.0 mm 0.00 in0.0 mm
08:07 AM 0.3°F-17.6°C -6.6°F-21.4°C 72% 5.0 mph NNW8.0 kmh NNW 14.0 mph22.5 kmh 30.46 in1031.5 mb 0.00 in0.0 mm 0.00 in0.0 mm 0.00 in0.0 mm
08:08 AM 0.2°F-17.7°C -6.7°F-21.5°C 72% 6.0 mph N9.7 kmh N 14.0 mph22.5 kmh 30.46 in1031.5 mb 0.00 in0.0 mm 0.00 in0.0 mm 0.00 in0.0 mm
08:09 AM 0.2°F-17.7°C -6.7°F-21.5°C 72% 3.0 mph NW4.8 kmh NW 14.0 mph22.5 kmh 30.47 in1031.8 mb 0.00 in0.0 mm 0.00 in0.0 mm 0.00 in0.0 mm
08:10 AM 0.2°F-17.7°C -6.7°F-21.5°C 72% 3.0 mph NW4.8 kmh NW 14.0 mph22.5 kmh 30.46 in1031.5 mb 0.00 in0.0 mm 0.00 in0.0 mm 0.00 in0.0 mm
08:11 AM 0.2°F-17.7°C -6.7°F-21.5°C 72% 3.0 mph NNW4.8 kmh NNW 14.0 mph22.5 kmh 30.47 in1031.8 mb 0.00 in0.0 mm 0.00 in0.0 mm 0.00 in0.0 mm
08:12 AM 0.2°F-17.7°C -6.7°F-21.5°C 72% 9.0 mph N14.5 kmh N 14.0 mph22.5 kmh 30.47 in1031.8 mb 0.00 in0.0 mm 0.00 in0.0 mm 0.00 in0.0 mm
08:13 AM 0.3°F-17.6°C -6.6°F-21.4°C 72% 5.0 mph NW8.0 kmh NW 11.0 mph17.7 kmh 30.47 in1031.8 mb 0.00 in0.0 mm 0.00 in0.0 mm 0.00 in0.0 mm
08:14 AM 0.3°F-17.6°C -6.6°F-21.4°C 72% 2.0 mph NNE3.2 kmh NNE 11.0 mph17.7 kmh 30.47 in1031.8 mb 0.00 in0.0 mm 0.00 in0.0 mm 0.00 in0.0 mm
08:15 AM 0.3°F-17.6°C -6.6°F-21.4°C 72% 4.0 mph NW6.4 kmh NW 11.0 mph17.7 kmh 30.47 in1031.8 mb 0.00 in0.0 mm 0.00 in0.0 mm 0.00 in0.0 mm
08:16 AM 0.4°F-17.6°C -6.5°F-21.4°C 72% 4.0 mph NW6.4 kmh NW 11.0 mph17.7 kmh 30.47 in1031.8 mb 0.00 in0.0 mm 0.00 in0.0 mm 0.00 in0.0 mm
08:17 AM 0.4°F-17.6°C -6.5°F-21.4°C 72% 4.0 mph NW6.4 kmh NW 11.0 mph17.7 kmh 30.47 in1031.8 mb 0.00 in0.0 mm 0.00 in0.0 mm 0.00 in0.0 mm
08:18 AM 0.4°F-17.6°C -6.5°F-21.4°C 72% 2.0 mph NNW3.2 kmh NNW 11.0 mph17.7 kmh 30.48 in1032.2 mb 0.00 in0.0 mm 0.00 in0.0 mm 0.00 in0.0 mm
08:19 AM 0.4°F-17.6°C -6.5°F-21.4°C 72% 5.0 mph NW8.0 kmh NW 10.0 mph16.1 kmh 30.47 in1031.8 mb 0.00 in0.0 mm 0.00 in0.0 mm 0.00 in0.0 mm
08:20 AM 0.4°F-17.6°C -6.5°F-21.4°C 72% 5.0 mph NW8.0 kmh NW 11.0 mph17.7 kmh 30.48 in1032.2 mb 0.00 in0.0 mm 0.00 in0.0 mm 0.00 in0.0 mm
08:21 AM 0.4°F-17.6°C -6.5°F-21.4°C 72% 2.0 mph NW3.2 kmh NW 11.0 mph17.7 kmh 30.48 in1032.2 mb 0.00 in0.0 mm 0.00 in0.0 mm 0.00 in0.0 mm
08:22 AM 0.4°F-17.6°C -6.5°F-21.4°C 72% 6.0 mph NW9.7 kmh NW 11.0 mph17.7 kmh 30.48 in1032.2 mb 0.00 in0.0 mm 0.00 in0.0 mm 0.00 in0.0 mm
08:23 AM 0.5°F-17.5°C -6.4°F-21.3°C 72% 5.0 mph NNW8.0 kmh NNW 11.0 mph17.7 kmh 30.48 in1032.2 mb 0.00 in0.0 mm 0.00 in0.0 mm 0.00 in0.0 mm
08:24 AM 0.5°F-17.5°C -6.4°F-21.3°C 72% 7.0 mph WNW11.3 kmh WNW 12.0 mph19.3 kmh 30.48 in1032.2 mb 0.00 in0.0 mm 0.00 in0.0 mm 0.00 in0.0 mm
08:25 AM 0.4°F-17.6°C -6.8°F-21.6°C 71% 4.0 mph NW6.4 kmh NW 12.0 mph19.3 kmh 30.48 in1032.2 mb 0.00 in0.0 mm 0.00 in0.0 mm 0.00 in0.0 mm
08:26 AM 0.4°F-17.6°C -6.8°F-21.6°C 71% 3.0 mph NNW4.8 kmh NNW 12.0 mph19.3 kmh 30.48 in1032.2 mb 0.00 in0.0 mm 0.00 in0.0 mm 0.00 in0.0 mm
08:27 AM 0.5°F-17.5°C -6.7°F-21.5°C 71% 3.0 mph N4.8 kmh N 12.0 mph19.3 kmh 30.48 in1032.2 mb 0.00 in0.0 mm 0.00 in0.0 mm 0.00 in0.0 mm
08:28 AM 0.5°F-17.5°C -6.7°F-21.5°C 71% 4.0 mph NNE6.4 kmh NNE 12.0 mph19.3 kmh 30.48 in1032.2 mb 0.00 in0.0 mm 0.00 in0.0 mm 0.00 in0.0 mm
08:29 AM 0.5°F-17.5°C -6.7°F-21.5°C 71% 5.0 mph NW8.0 kmh NW 12.0 mph19.3 kmh 30.48 in1032.2 mb 0.00 in0.0 mm 0.00 in0.0 mm 0.00 in0.0 mm
08:30 AM 0.5°F-17.5°C -6.7°F-21.5°C 71% 2.0 mph N3.2 kmh N 12.0 mph19.3 kmh 30.48 in1032.2 mb 0.00 in0.0 mm 0.00 in0.0 mm 0.00 in0.0 mm
08:31 AM 0.5°F-17.5°C -6.7°F-21.5°C 71% 5.0 mph NNW8.0 kmh NNW 12.0 mph19.3 kmh 30.48 in1032.2 mb 0.00 in0.0 mm 0.00 in0.0 mm 0.00 in0.0 mm
08:32 AM 0.5°F-17.5°C -6.7°F-21.5°C 71% 3.0 mph NNW4.8 kmh NNW 12.0 mph19.3 kmh 30.48 in1032.2 mb 0.00 in0.0 mm 0.00 in0.0 mm 0.00 in0.0 mm
08:33 AM 0.5°F-17.5°C -6.7°F-21.5°C 71% 5.0 mph NW8.0 kmh NW 12.0 mph19.3 kmh 30.48 in1032.2 mb 0.00 in0.0 mm 0.00 in0.0 mm 0.00 in0.0 mm
08:34 AM 0.6°F-17.4°C -6.6°F-21.4°C 71% 2.0 mph NW3.2 kmh NW 12.0 mph19.3 kmh 30.48 in1032.2 mb 0.00 in0.0 mm 0.00 in0.0 mm 0.00 in0.0 mm
08:35 AM 0.6°F-17.4°C -6.6°F-21.4°C 71% 3.0 mph NW4.8 kmh NW 12.0 mph19.3 kmh 30.48 in1032.2 mb 0.00 in0.0 mm 0.00 in0.0 mm 0.00 in0.0 mm
08:36 AM 0.6°F-17.4°C -6.6°F-21.4°C 71% 4.0 mph NW6.4 kmh NW 12.0 mph19.3 kmh 30.48 in1032.2 mb 0.00 in0.0 mm 0.00 in0.0 mm 0.00 in0.0 mm
08:37 AM 0.7°F-17.4°C -6.5°F-21.4°C 71% 4.0 mph NW6.4 kmh NW 12.0 mph19.3 kmh 30.48 in1032.2 mb 0.00 in0.0 mm 0.00 in0.0 mm 0.00 in0.0 mm
08:38 AM 0.7°F-17.4°C -6.5°F-21.4°C 71% 5.0 mph NW8.0 kmh NW 11.0 mph17.7 kmh 30.48 in1032.2 mb 0.00 in0.0 mm 0.00 in0.0 mm 0.00 in0.0 mm
08:39 AM 0.8°F-17.3°C -6.4°F-21.3°C 71% 2.0 mph NNW3.2 kmh NNW 11.0 mph17.7 kmh 30.48 in1032.2 mb 0.00 in0.0 mm 0.00 in0.0 mm 0.00 in0.0 mm
08:40 AM 0.8°F-17.3°C -6.4°F-21.3°C 71% 3.0 mph NW4.8 kmh NW 11.0 mph17.7 kmh 30.48 in1032.2 mb 0.00 in0.0 mm 0.00 in0.0 mm 0.00 in0.0 mm
08:41 AM 0.8°F-17.3°C -6.1°F-21.2°C 72% 5.0 mph N8.0 kmh N 11.0 mph17.7 kmh 30.48 in1032.2 mb 0.00 in0.0 mm 0.00 in0.0 mm 0.00 in0.0 mm
08:42 AM 0.8°F-17.3°C -6.4°F-21.3°C 71% 5.0 mph N8.0 kmh N 11.0 mph17.7 kmh 30.48 in1032.2 mb 0.00 in0.0 mm 0.00 in0.0 mm 0.00 in0.0 mm
08:43 AM 0.9°F-17.3°C -6.3°F-21.3°C 71% 3.0 mph NE4.8 kmh NE 11.0 mph17.7 kmh 30.48 in1032.2 mb 0.00 in0.0 mm 0.00 in0.0 mm 0.00 in0.0 mm
08:44 AM 0.9°F-17.3°C -6.3°F-21.3°C 71% 3.0 mph NE4.8 kmh NE 11.0 mph17.7 kmh 30.48 in1032.2 mb 0.00 in0.0 mm 0.00 in0.0 mm 0.00 in0.0 mm
08:45 AM 0.9°F-17.3°C -6.3°F-21.3°C 71% 2.0 mph NE3.2 kmh NE 11.0 mph17.7 kmh 30.48 in1032.2 mb 0.00 in0.0 mm 0.00 in0.0 mm 0.00 in0.0 mm
08:46 AM 1.0°F-17.2°C -6.2°F-21.2°C 71% 1.0 mph NE1.6 kmh NE 11.0 mph17.7 kmh 30.48 in1032.2 mb 0.00 in0.0 mm 0.00 in0.0 mm 0.00 in0.0 mm
08:47 AM 1.0°F-17.2°C -6.2°F-21.2°C 71% 1.0 mph NE1.6 kmh NE 11.0 mph17.7 kmh 30.48 in1032.2 mb 0.00 in0.0 mm 0.00 in0.0 mm 0.00 in0.0 mm
08:48 AM 1.1°F-17.2°C -5.8°F-21.0°C 72% 9.0 mph NW14.5 kmh NW 10.0 mph16.1 kmh 30.48 in1032.2 mb 0.00 in0.0 mm 0.00 in0.0 mm 0.00 in0.0 mm
08:49 AM 1.1°F-17.2°C -6.1°F-21.2°C 71% 2.0 mph N3.2 kmh N 10.0 mph16.1 kmh 30.48 in1032.2 mb 0.00 in0.0 mm 0.00 in0.0 mm 0.00 in0.0 mm
08:50 AM 1.1°F-17.2°C -6.1°F-21.2°C 71% 3.0 mph N4.8 kmh N 10.0 mph16.1 kmh 30.48 in1032.2 mb 0.00 in0.0 mm 0.00 in0.0 mm 0.00 in0.0 mm
08:51 AM 1.2°F-17.1°C -6.0°F-21.1°C 71% 3.0 mph NNW4.8 kmh NNW 10.0 mph16.1 kmh 30.48 in1032.2 mb 0.00 in0.0 mm 0.00 in0.0 mm 0.00 in0.0 mm
08:52 AM 1.2°F-17.1°C -6.0°F-21.1°C 71% 2.0 mph NW3.2 kmh NW 10.0 mph16.1 kmh 30.48 in1032.2 mb 0.00 in0.0 mm 0.00 in0.0 mm 0.00 in0.0 mm
08:53 AM 1.3°F-17.1°C -5.9°F-21.1°C 71% 4.0 mph W6.4 kmh W 10.0 mph16.1 kmh 30.48 in1032.2 mb 0.00 in0.0 mm 0.00 in0.0 mm 0.00 in0.0 mm
08:54 AM 1.3°F-17.1°C -5.9°F-21.1°C 71% 4.0 mph W6.4 kmh W 10.0 mph16.1 kmh 30.48 in1032.2 mb 0.00 in0.0 mm 0.00 in0.0 mm 0.00 in0.0 mm
08:55 AM 1.4°F-17.0°C -5.8°F-21.0°C 71% 1.0 mph N1.6 kmh N 10.0 mph16.1 kmh 30.48 in1032.2 mb 0.00 in0.0 mm 0.00 in0.0 mm 0.00 in0.0 mm
08:56 AM 1.4°F-17.0°C -5.8°F-21.0°C 71% 2.0 mph NNW3.2 kmh NNW 10.0 mph16.1 kmh 30.48 in1032.2 mb 0.00 in0.0 mm 0.00 in0.0 mm 0.00 in0.0 mm
08:57 AM 1.4°F-17.0°C -6.1°F-21.2°C 70% 4.0 mph N6.4 kmh N 10.0 mph16.1 kmh 30.48 in1032.2 mb 0.00 in0.0 mm 0.00 in0.0 mm 0.00 in0.0 mm
08:58 AM 1.4°F-17.0°C -6.1°F-21.2°C 70% 4.0 mph NW6.4 kmh NW 10.0 mph16.1 kmh 30.48 in1032.2 mb 0.00 in0.0 mm 0.00 in0.0 mm 0.00 in0.0 mm
08:59 AM 1.4°F-17.0°C -6.1°F-21.2°C 70% 2.0 mph NNW3.2 kmh NNW 10.0 mph16.1 kmh 30.48 in1032.2 mb 0.00 in0.0 mm 0.00 in0.0 mm 0.00 in0.0 mm
09:00 AM 1.4°F-17.0°C -6.1°F-21.2°C 70% 5.0 mph NE8.0 kmh NE 10.0 mph16.1 kmh 30.48 in1032.2 mb 0.00 in0.0 mm 0.00 in0.0 mm 0.00 in0.0 mm
09:01 AM 1.5°F-16.9°C -6.0°F-21.1°C 70% 3.0 mph NE4.8 kmh NE 10.0 mph16.1 kmh 30.48 in1032.2 mb 0.00 in0.0 mm 0.00 in0.0 mm 0.00 in0.0 mm
09:02 AM 1.5°F-16.9°C -6.0°F-21.1°C 70% 9.0 mph NW14.5 kmh NW 10.0 mph16.1 kmh 30.48 in1032.2 mb 0.00 in0.0 mm 0.00 in0.0 mm 0.00 in0.0 mm
09:03 AM 1.5°F-16.9°C -6.0°F-21.1°C 70% 6.0 mph N9.7 kmh N 11.0 mph17.7 kmh 30.47 in1031.8 mb 0.00 in0.0 mm 0.00 in0.0 mm 0.00 in0.0 mm
09:04 AM 1.6°F-16.9°C -5.9°F-21.1°C 70% 4.0 mph N6.4 kmh N 11.0 mph17.7 kmh 30.48 in1032.2 mb 0.00 in0.0 mm 0.00 in0.0 mm 0.00 in0.0 mm
09:05 AM 1.5°F-16.9°C -6.0°F-21.1°C 70% 2.0 mph NW3.2 kmh NW 11.0 mph17.7 kmh 30.47 in1031.8 mb 0.00 in0.0 mm 0.00 in0.0 mm 0.00 in0.0 mm
09:06 AM 1.5°F-16.9°C -6.3°F-21.3°C 69% 1.0 mph NW1.6 kmh NW 11.0 mph17.7 kmh 30.48 in1032.2 mb 0.00 in0.0 mm 0.00 in0.0 mm 0.00 in0.0 mm
09:07 AM 1.6°F-16.9°C -6.2°F-21.2°C 69% 4.0 mph NW6.4 kmh NW 11.0 mph17.7 kmh 30.48 in1032.2 mb 0.00 in0.0 mm 0.00 in0.0 mm 0.00 in0.0 mm
09:08 AM 1.6°F-16.9°C -5.9°F-21.1°C 70% 2.0 mph N3.2 kmh N 11.0 mph17.7 kmh 30.48 in1032.2 mb 0.00 in0.0 mm 0.00 in0.0 mm 0.00 in0.0 mm
09:09 AM 1.7°F-16.8°C -5.8°F-21.0°C 70% 3.0 mph NNW4.8 kmh NNW 11.0 mph17.7 kmh 30.48 in1032.2 mb 0.00 in0.0 mm 0.00 in0.0 mm 0.00 in0.0 mm
09:10 AM 1.7°F-16.8°C -5.8°F-21.0°C 70% 3.0 mph N4.8 kmh N 11.0 mph17.7 kmh 30.48 in1032.2 mb 0.00 in0.0 mm 0.00 in0.0 mm 0.00 in0.0 mm
09:11 AM 1.8°F-16.8°C -5.7°F-20.9°C 70% 7.0 mph NE11.3 kmh NE 12.0 mph19.3 kmh 30.48 in1032.2 mb 0.00 in0.0 mm 0.00 in0.0 mm 0.00 in0.0 mm
09:12 AM 1.9°F-16.7°C -5.6°F-20.9°C 70% 10.0 mph NW16.1 kmh NW 12.0 mph19.3 kmh 30.48 in1032.2 mb 0.00 in0.0 mm 0.00 in0.0 mm 0.00 in0.0 mm
09:13 AM 2.0°F-16.7°C -5.5°F-20.8°C 70% 5.0 mph N8.0 kmh N 12.0 mph19.3 kmh 30.48 in1032.2 mb 0.00 in0.0 mm 0.00 in0.0 mm 0.00 in0.0 mm
09:14 AM 2.0°F-16.7°C -5.5°F-20.8°C 70% 1.0 mph NW1.6 kmh NW 12.0 mph19.3 kmh 30.48 in1032.2 mb 0.00 in0.0 mm 0.00 in0.0 mm 0.00 in0.0 mm
09:15 AM 2.0°F-16.7°C -5.8°F-21.0°C 69% 3.0 mph NNW4.8 kmh NNW 12.0 mph19.3 kmh 30.48 in1032.2 mb 0.00 in0.0 mm 0.00 in0.0 mm 0.00 in0.0 mm
09:16 AM 2.1°F-16.6°C -5.7°F-20.9°C 69% 5.0 mph N8.0 kmh N 12.0 mph19.3 kmh 30.48 in1032.2 mb 0.00 in0.0 mm 0.00 in0.0 mm 0.00 in0.0 mm
09:17 AM 2.1°F-16.6°C -5.7°F-20.9°C 69% 2.0 mph NE3.2 kmh NE 12.0 mph19.3 kmh 30.47 in1031.8 mb 0.00 in0.0 mm 0.00 in0.0 mm 0.00 in0.0 mm
09:18 AM 2.1°F-16.6°C -5.7°F-20.9°C 69% 5.0 mph N8.0 kmh N 12.0 mph19.3 kmh 30.48 in1032.2 mb 0.00 in0.0 mm 0.00 in0.0 mm 0.00 in0.0 mm
09:19 AM 2.2°F-16.6°C -5.6°F-20.9°C 69% 3.0 mph N4.8 kmh N 12.0 mph19.3 kmh 30.47 in1031.8 mb 0.00 in0.0 mm 0.00 in0.0 mm 0.00 in0.0 mm
09:20 AM 2.3°F-16.5°C -5.6°F-20.9°C 69% 4.0 mph NE6.4 kmh NE 12.0 mph19.3 kmh 30.47 in1031.8 mb 0.00 in0.0 mm 0.00 in0.0 mm 0.00 in0.0 mm
09:21 AM 2.4°F-16.4°C -5.5°F-20.8°C 69% 3.0 mph NNW4.8 kmh NNW 11.0 mph17.7 kmh 30.47 in1031.8 mb 0.00 in0.0 mm 0.00 in0.0 mm 0.00 in0.0 mm
09:22 AM 2.4°F-16.4°C -5.5°F-20.8°C 69% 4.0 mph N6.4 kmh N 10.0 mph16.1 kmh 30.47 in1031.8 mb 0.00 in0.0 mm 0.00 in0.0 mm 0.00 in0.0 mm
09:23 AM 2.4°F-16.4°C -5.5°F-20.8°C 69% 5.0 mph NE8.0 kmh NE 10.0 mph16.1 kmh 30.47 in1031.8 mb 0.00 in0.0 mm 0.00 in0.0 mm 0.00 in0.0 mm
09:24 AM 2.5°F-16.4°C -5.4°F-20.8°C 69% 2.0 mph NNE3.2 kmh NNE 10.0 mph16.1 kmh 30.47 in1031.8 mb 0.00 in0.0 mm 0.00 in0.0 mm 0.00 in0.0 mm
09:25 AM 2.6°F-16.3°C -5.3°F-20.7°C 69% 3.0 mph NE4.8 kmh NE 10.0 mph16.1 kmh 30.47 in1031.8 mb 0.00 in0.0 mm 0.00 in0.0 mm 0.00 in0.0 mm
09:26 AM 2.7°F-16.3°C -5.2°F-20.7°C 69% 7.0 mph NE11.3 kmh NE 10.0 mph16.1 kmh 30.47 in1031.8 mb 0.00 in0.0 mm 0.00 in0.0 mm 0.00 in0.0 mm
09:27 AM 2.7°F-16.3°C -5.5°F-20.8°C 68% 3.0 mph NNW4.8 kmh NNW 10.0 mph16.1 kmh 30.47 in1031.8 mb 0.00 in0.0 mm 0.00 in0.0 mm 0.00 in0.0 mm
09:28 AM 2.8°F-16.2°C -5.4°F-20.8°C 68% 4.0 mph NNW6.4 kmh NNW 10.0 mph16.1 kmh 30.47 in1031.8 mb 0.00 in0.0 mm 0.00 in0.0 mm 0.00 in0.0 mm
09:29 AM 2.9°F-16.2°C -5.0°F-20.6°C 69% 6.0 mph N9.7 kmh N 10.0 mph16.1 kmh 30.47 in1031.8 mb 0.00 in0.0 mm 0.00 in0.0 mm 0.00 in0.0 mm
09:30 AM 2.9°F-16.2°C -5.3°F-20.7°C 68% 5.0 mph NNE8.0 kmh NNE 10.0 mph16.1 kmh 30.47 in1031.8 mb 0.00 in0.0 mm 0.00 in0.0 mm 0.00 in0.0 mm
09:31 AM 3.0°F-16.1°C -5.2°F-20.7°C 68% 8.0 mph NNW12.9 kmh NNW 10.0 mph16.1 kmh 30.47 in1031.8 mb 0.00 in0.0 mm 0.00 in0.0 mm 0.00 in0.0 mm
09:32 AM 3.0°F-16.1°C -5.2°F-20.7°C 68% 9.0 mph NNE14.5 kmh NNE 11.0 mph17.7 kmh 30.47 in1031.8 mb 0.00 in0.0 mm 0.00 in0.0 mm 0.00 in0.0 mm
09:33 AM 3.1°F-16.1°C -5.4°F-20.8°C 67% 5.0 mph NNW8.0 kmh NNW 11.0 mph17.7 kmh 30.47 in1031.8 mb 0.00 in0.0 mm 0.00 in0.0 mm 0.00 in0.0 mm
09:34 AM 3.1°F-16.1°C -5.4°F-20.8°C 67% 1.0 mph NNW1.6 kmh NNW 11.0 mph17.7 kmh 30.48 in1032.2 mb 0.00 in0.0 mm 0.00 in0.0 mm 0.00 in0.0 mm
09:35 AM 3.1°F-16.1°C -5.4°F-20.8°C 67% 3.0 mph N4.8 kmh N 11.0 mph17.7 kmh 30.48 in1032.2 mb 0.00 in0.0 mm 0.00 in0.0 mm 0.00 in0.0 mm
09:36 AM 3.1°F-16.1°C -5.4°F-20.8°C 67% 5.0 mph NNW8.0 kmh NNW 11.0 mph17.7 kmh 30.48 in1032.2 mb 0.00 in0.0 mm 0.00 in0.0 mm 0.00 in0.0 mm
09:37 AM 3.1°F-16.1°C -5.4°F-20.8°C 67% 4.0 mph NW6.4 kmh NW 12.0 mph19.3 kmh 30.48 in1032.2 mb 0.00 in0.0 mm 0.00 in0.0 mm 0.00 in0.0 mm
09:38 AM 3.2°F-16.0°C -5.3°F-20.7°C 67% 5.0 mph ENE8.0 kmh ENE 12.0 mph19.3 kmh 30.48 in1032.2 mb 0.00 in0.0 mm 0.00 in0.0 mm 0.00 in0.0 mm
09:39 AM 3.2°F-16.0°C -5.3°F-20.7°C 67% 5.0 mph NNW8.0 kmh NNW 12.0 mph19.3 kmh 30.48 in1032.2 mb 0.00 in0.0 mm 0.00 in0.0 mm 0.00 in0.0 mm
09:40 AM 3.2°F-16.0°C -5.3°F-20.7°C 67% 6.0 mph N9.7 kmh N 12.0 mph19.3 kmh 30.48 in1032.2 mb 0.00 in0.0 mm 0.00 in0.0 mm 0.00 in0.0 mm
09:41 AM 3.2°F-16.0°C -5.3°F-20.7°C 67% 5.0 mph NNE8.0 kmh NNE 12.0 mph19.3 kmh 30.48 in1032.2 mb 0.00 in0.0 mm 0.00 in0.0 mm 0.00 in0.0 mm
09:42 AM 3.3°F-15.9°C -5.2°F-20.7°C 67% 6.0 mph N9.7 kmh N 12.0 mph19.3 kmh 30.48 in1032.2 mb 0.00 in0.0 mm 0.00 in0.0 mm 0.00 in0.0 mm
09:43 AM 3.3°F-15.9°C -5.2°F-20.7°C 67% 5.0 mph NNW8.0 kmh NNW 12.0 mph19.3 kmh 30.48 in1032.2 mb 0.00 in0.0 mm 0.00 in0.0 mm 0.00 in0.0 mm
09:44 AM 3.4°F-15.9°C -5.1°F-20.6°C 67% 5.0 mph NNE8.0 kmh NNE 12.0 mph19.3 kmh 30.48 in1032.2 mb 0.00 in0.0 mm 0.00 in0.0 mm 0.00 in0.0 mm
09:45 AM 3.4°F-15.9°C -5.1°F-20.6°C 67% 5.0 mph NNW8.0 kmh NNW 12.0 mph19.3 kmh 30.48 in1032.2 mb 0.00 in0.0 mm 0.00 in0.0 mm 0.00 in0.0 mm
09:46 AM 3.4°F-15.9°C -5.4°F-20.8°C 66% 4.0 mph NW6.4 kmh NW 12.0 mph19.3 kmh 30.48 in1032.2 mb 0.00 in0.0 mm 0.00 in0.0 mm 0.00 in0.0 mm
09:47 AM 3.4°F-15.9°C -5.1°F-20.6°C 67% 4.0 mph N6.4 kmh N 10.0 mph16.1 kmh 30.49 in1032.5 mb 0.00 in0.0 mm 0.00 in0.0 mm 0.00 in0.0 mm
09:48 AM 3.4°F-15.9°C -5.1°F-20.6°C 67% 2.0 mph NNW3.2 kmh NNW 10.0 mph16.1 kmh 30.49 in1032.5 mb 0.00 in0.0 mm 0.00 in0.0 mm 0.00 in0.0 mm
09:49 AM 3.4°F-15.9°C -5.4°F-20.8°C 66% 7.0 mph WNW11.3 kmh WNW 9.0 mph14.5 kmh 30.49 in1032.5 mb 0.00 in0.0 mm 0.00 in0.0 mm 0.00 in0.0 mm
09:50 AM 3.5°F-15.8°C -5.3°F-20.7°C 66% 3.0 mph N4.8 kmh N 9.0 mph14.5 kmh 30.49 in1032.5 mb 0.00 in0.0 mm 0.00 in0.0 mm 0.00 in0.0 mm
09:51 AM 3.5°F-15.8°C -5.0°F-20.6°C 67% 6.0 mph N9.7 kmh N 9.0 mph14.5 kmh 30.49 in1032.5 mb 0.00 in0.0 mm 0.00 in0.0 mm 0.00 in0.0 mm
09:52 AM 3.5°F-15.8°C -5.0°F-20.6°C 67% 3.0 mph NNW4.8 kmh NNW 9.0 mph14.5 kmh 30.49 in1032.5 mb 0.00 in0.0 mm 0.00 in0.0 mm 0.00 in0.0 mm
09:53 AM 3.5°F-15.8°C -5.0°F-20.6°C 67% 6.0 mph NE9.7 kmh NE 9.0 mph14.5 kmh 30.49 in1032.5 mb 0.00 in0.0 mm 0.00 in0.0 mm 0.00 in0.0 mm
09:54 AM 3.5°F-15.8°C -5.3°F-20.7°C 66% 5.0 mph NNE8.0 kmh NNE 9.0 mph14.5 kmh 30.49 in1032.5 mb 0.00 in0.0 mm 0.00 in0.0 mm 0.00 in0.0 mm
09:55 AM 3.5°F-15.8°C -5.3°F-20.7°C 66% 5.0 mph NNE8.0 kmh NNE 9.0 mph14.5 kmh 30.49 in1032.5 mb 0.00 in0.0 mm 0.00 in0.0 mm 0.00 in0.0 mm
09:56 AM 3.6°F-15.8°C -4.9°F-20.5°C 67% 7.0 mph NNE11.3 kmh NNE 9.0 mph14.5 kmh 30.49 in1032.5 mb 0.00 in0.0 mm 0.00 in0.0 mm 0.00 in0.0 mm
09:57 AM 3.6°F-15.8°C -4.9°F-20.5°C 67% 4.0 mph NNE6.4 kmh NNE 9.0 mph14.5 kmh 30.49 in1032.5 mb 0.00 in0.0 mm 0.00 in0.0 mm 0.00 in0.0 mm
09:58 AM 3.7°F-15.7°C -4.8°F-20.4°C 67% 3.0 mph NNE4.8 kmh NNE 9.0 mph14.5 kmh 30.49 in1032.5 mb 0.00 in0.0 mm 0.00 in0.0 mm 0.00 in0.0 mm
09:59 AM 3.7°F-15.7°C -4.8°F-20.4°C 67% 1.0 mph NNW1.6 kmh NNW 8.0 mph12.9 kmh 30.49 in1032.5 mb 0.00 in0.0 mm 0.00 in0.0 mm 0.00 in0.0 mm
10:00 AM 3.8°F-15.7°C -4.7°F-20.4°C 67% 6.0 mph N9.7 kmh N 8.0 mph12.9 kmh 30.49 in1032.5 mb 0.00 in0.0 mm 0.00 in0.0 mm 0.00 in0.0 mm
10:01 AM 3.8°F-15.7°C -4.7°F-20.4°C 67% 3.0 mph NNW4.8 kmh NNW 8.0 mph12.9 kmh 30.50 in1032.8 mb 0.00 in0.0 mm 0.00 in0.0 mm 0.00 in0.0 mm
10:02 AM 3.9°F-15.6°C -4.6°F-20.3°C 67% 4.0 mph NW6.4 kmh NW 8.0 mph12.9 kmh 30.49 in1032.5 mb 0.00 in0.0 mm 0.00 in0.0 mm 0.00 in0.0 mm
10:03 AM 4.0°F-15.6°C -4.5°F-20.3°C 67% 9.0 mph NE14.5 kmh NE 9.0 mph14.5 kmh 30.49 in1032.5 mb 0.00 in0.0 mm 0.00 in0.0 mm 0.00 in0.0 mm
10:04 AM 4.0°F-15.6°C -4.5°F-20.3°C 67% 6.0 mph NW9.7 kmh NW 9.0 mph14.5 kmh 30.49 in1032.5 mb 0.00 in0.0 mm 0.00 in0.0 mm 0.00 in0.0 mm
10:05 AM 4.0°F-15.6°C -4.5°F-20.3°C 67% 3.0 mph NNW4.8 kmh NNW 9.0 mph14.5 kmh 30.49 in1032.5 mb 0.00 in0.0 mm 0.00 in0.0 mm 0.00 in0.0 mm
10:06 AM 4.1°F-15.5°C -4.4°F-20.2°C 67% 2.0 mph NNW3.2 kmh NNW 9.0 mph14.5 kmh 30.49 in1032.5 mb 0.00 in0.0 mm 0.00 in0.0 mm 0.00 in0.0 mm
10:07 AM 4.1°F-15.5°C -4.4°F-20.2°C 67% Calm Calm 9.0 mph14.5 kmh 30.49 in1032.5 mb 0.00 in0.0 mm 0.00 in0.0 mm 0.00 in0.0 mm
10:08 AM 4.2°F-15.4°C -4.3°F-20.2°C 67% 3.0 mph N4.8 kmh N 9.0 mph14.5 kmh 30.50 in1032.8 mb 0.00 in0.0 mm 0.00 in0.0 mm 0.00 in0.0 mm
10:09 AM 4.3°F-15.4°C -4.2°F-20.1°C 67% 4.0 mph NE6.4 kmh NE 9.0 mph14.5 kmh 30.49 in1032.5 mb 0.00 in0.0 mm 0.00 in0.0 mm 0.00 in0.0 mm
10:10 AM 4.4°F-15.3°C -4.1°F-20.1°C 67% 2.0 mph NE3.2 kmh NE 9.0 mph14.5 kmh 30.50 in1032.8 mb 0.00 in0.0 mm 0.00 in0.0 mm 0.00 in0.0 mm
10:11 AM 4.5°F-15.3°C -4.4°F-20.2°C 66% 9.0 mph NE14.5 kmh NE 10.0 mph16.1 kmh 30.50 in1032.8 mb 0.00 in0.0 mm 0.00 in0.0 mm 0.00 in0.0 mm
10:12 AM 4.5°F-15.3°C -4.4°F-20.2°C 66% 2.0 mph NNE3.2 kmh NNE 10.0 mph16.1 kmh 30.50 in1032.8 mb 0.00 in0.0 mm 0.00 in0.0 mm 0.00 in0.0 mm
10:13 AM 4.5°F-15.3°C -4.4°F-20.2°C 66% 8.0 mph N12.9 kmh N 10.0 mph16.1 kmh 30.50 in1032.8 mb 0.00 in0.0 mm 0.00 in0.0 mm 0.00 in0.0 mm
10:14 AM 4.5°F-15.3°C -4.7°F-20.4°C 65% 2.0 mph NW3.2 kmh NW 10.0 mph16.1 kmh 30.49 in1032.5 mb 0.00 in0.0 mm 0.00 in0.0 mm 0.00 in0.0 mm
10:15 AM 4.5°F-15.3°C -4.7°F-20.4°C 65% 2.0 mph NNW3.2 kmh NNW 10.0 mph16.1 kmh 30.49 in1032.5 mb 0.00 in0.0 mm 0.00 in0.0 mm 0.00 in0.0 mm
10:16 AM 4.5°F-15.3°C -4.7°F-20.4°C 65% 2.0 mph NW3.2 kmh NW 10.0 mph16.1 kmh 30.50 in1032.8 mb 0.00 in0.0 mm 0.00 in0.0 mm 0.00 in0.0 mm
10:17 AM 4.5°F-15.3°C -4.4°F-20.2°C 66% 4.0 mph NW6.4 kmh NW 10.0 mph16.1 kmh 30.50 in1032.8 mb 0.00 in0.0 mm 0.00 in0.0 mm 0.00 in0.0 mm
10:18 AM 4.6°F-15.2°C -4.3°F-20.2°C 66% 3.0 mph NW4.8 kmh NW 10.0 mph16.1 kmh 30.50 in1032.8 mb 0.00 in0.0 mm 0.00 in0.0 mm 0.00 in0.0 mm
10:19 AM 4.7°F-15.2°C -3.9°F-19.9°C 67% 1.0 mph NW1.6 kmh NW 10.0 mph16.1 kmh 30.50 in1032.8 mb 0.00 in0.0 mm 0.00 in0.0 mm 0.00 in0.0 mm
10:20 AM 4.8°F-15.1°C -3.8°F-19.9°C 67% 4.0 mph NE6.4 kmh NE 10.0 mph16.1 kmh 30.50 in1032.8 mb 0.00 in0.0 mm 0.00 in0.0 mm 0.00 in0.0 mm
10:21 AM 4.8°F-15.1°C -4.1°F-20.1°C 66% 1.0 mph N1.6 kmh N 9.0 mph14.5 kmh 30.50 in1032.8 mb 0.00 in0.0 mm 0.00 in0.0 mm 0.00 in0.0 mm
10:22 AM 4.8°F-15.1°C -4.1°F-20.1°C 66% 10.0 mph N16.1 kmh N 10.0 mph16.1 kmh 30.50 in1032.8 mb 0.00 in0.0 mm 0.00 in0.0 mm 0.00 in0.0 mm
10:23 AM 4.8°F-15.1°C -4.4°F-20.2°C 65% 9.0 mph N14.5 kmh N 10.0 mph16.1 kmh 30.50 in1032.8 mb 0.00 in0.0 mm 0.00 in0.0 mm 0.00 in0.0 mm
10:24 AM 4.9°F-15.1°C -4.3°F-20.2°C 65% 5.0 mph WNW8.0 kmh WNW 10.0 mph16.1 kmh 30.50 in1032.8 mb 0.00 in0.0 mm 0.00 in0.0 mm 0.00 in0.0 mm
10:25 AM 4.9°F-15.1°C -4.3°F-20.2°C 65% 3.0 mph NNW4.8 kmh NNW 10.0 mph16.1 kmh 30.50 in1032.8 mb 0.00 in0.0 mm 0.00 in0.0 mm 0.00 in0.0 mm
10:26 AM 4.9°F-15.1°C -4.3°F-20.2°C 65% 6.0 mph NE9.7 kmh NE 11.0 mph17.7 kmh 30.51 in1033.2 mb 0.00 in0.0 mm 0.00 in0.0 mm 0.00 in0.0 mm
10:27 AM 4.9°F-15.1°C -4.6°F-20.3°C 64% 8.0 mph NNW12.9 kmh NNW 11.0 mph17.7 kmh 30.51 in1033.2 mb 0.00 in0.0 mm 0.00 in0.0 mm 0.00 in0.0 mm
10:28 AM 5.0°F-15.0°C -4.5°F-20.3°C 64% 3.0 mph N4.8 kmh N 11.0 mph17.7 kmh 30.51 in1033.2 mb 0.00 in0.0 mm 0.00 in0.0 mm 0.00 in0.0 mm
10:29 AM 5.0°F-15.0°C -4.5°F-20.3°C 64% 6.0 mph N9.7 kmh N 11.0 mph17.7 kmh 30.51 in1033.2 mb 0.00 in0.0 mm 0.00 in0.0 mm 0.00 in0.0 mm
10:30 AM 5.1°F-14.9°C -4.4°F-20.2°C 64% 4.0 mph N6.4 kmh N 11.0 mph17.7 kmh 30.51 in1033.2 mb 0.00 in0.0 mm 0.00 in0.0 mm 0.00 in0.0 mm
10:31 AM 5.1°F-14.9°C -4.4°F-20.2°C 64% 7.0 mph NE11.3 kmh NE 11.0 mph17.7 kmh 30.51 in1033.2 mb 0.00 in0.0 mm 0.00 in0.0 mm 0.00 in0.0 mm
10:32 AM 5.1°F-14.9°C -4.8°F-20.4°C 63% 4.0 mph N6.4 kmh N 11.0 mph17.7 kmh 30.51 in1033.2 mb 0.00 in0.0 mm 0.00 in0.0 mm 0.00 in0.0 mm
10:33 AM 5.2°F-14.9°C -4.7°F-20.4°C 63% 4.0 mph NW6.4 kmh NW 11.0 mph17.7 kmh 30.51 in1033.2 mb 0.00 in0.0 mm 0.00 in0.0 mm 0.00 in0.0 mm
10:34 AM 5.3°F-14.8°C -4.6°F-20.3°C 63% 5.0 mph N8.0 kmh N 11.0 mph17.7 kmh 30.51 in1033.2 mb 0.00 in0.0 mm 0.00 in0.0 mm 0.00 in0.0 mm
10:35 AM 5.4°F-14.8°C -4.2°F-20.1°C 64% 4.0 mph N6.4 kmh N 11.0 mph17.7 kmh 30.51 in1033.2 mb 0.00 in0.0 mm 0.00 in0.0 mm 0.00 in0.0 mm
10:36 AM 5.5°F-14.7°C -4.1°F-20.1°C 64% 4.0 mph NW6.4 kmh NW 11.0 mph17.7 kmh 30.51 in1033.2 mb 0.00 in0.0 mm 0.00 in0.0 mm 0.00 in0.0 mm
10:37 AM 5.6°F-14.7°C -4.0°F-20.0°C 64% 3.0 mph N4.8 kmh N 11.0 mph17.7 kmh 30.51 in1033.2 mb 0.00 in0.0 mm 0.00 in0.0 mm 0.00 in0.0 mm
10:38 AM 5.7°F-14.6°C -3.9°F-19.9°C 64% 1.0 mph NNW1.6 kmh NNW 11.0 mph17.7 kmh 30.51 in1033.2 mb 0.00 in0.0 mm 0.00 in0.0 mm 0.00 in0.0 mm
10:39 AM 5.8°F-14.6°C -3.8°F-19.9°C 64% 2.0 mph NNE3.2 kmh NNE 10.0 mph16.1 kmh 30.51 in1033.2 mb 0.00 in0.0 mm 0.00 in0.0 mm 0.00 in0.0 mm
10:40 AM 5.9°F-14.5°C -3.7°F-19.8°C 64% 4.0 mph N6.4 kmh N 10.0 mph16.1 kmh 30.51 in1033.2 mb 0.00 in0.0 mm 0.00 in0.0 mm 0.00 in0.0 mm
10:41 AM 6.0°F-14.4°C -3.6°F-19.8°C 64% 4.0 mph NNE6.4 kmh NNE 10.0 mph16.1 kmh 30.51 in1033.2 mb 0.00 in0.0 mm 0.00 in0.0 mm 0.00 in0.0 mm
10:42 AM 6.0°F-14.4°C -3.9°F-19.9°C 63% 3.0 mph NNE4.8 kmh NNE 10.0 mph16.1 kmh 30.52 in1033.5 mb 0.00 in0.0 mm 0.00 in0.0 mm 0.00 in0.0 mm
10:43 AM 6.0°F-14.4°C -3.9°F-19.9°C 63% 3.0 mph N4.8 kmh N 10.0 mph16.1 kmh 30.51 in1033.2 mb 0.00 in0.0 mm 0.00 in0.0 mm 0.00 in0.0 mm
10:44 AM 6.0°F-14.4°C -4.2°F-20.1°C 62% 1.0 mph NW1.6 kmh NW 10.0 mph16.1 kmh 30.52 in1033.5 mb 0.00 in0.0 mm 0.00 in0.0 mm 0.00 in0.0 mm
10:45 AM 6.0°F-14.4°C -4.2°F-20.1°C 62% 3.0 mph NNW4.8 kmh NNW 10.0 mph16.1 kmh 30.52 in1033.5 mb 0.00 in0.0 mm 0.00 in0.0 mm 0.00 in0.0 mm
10:46 AM 6.1°F-14.4°C -3.8°F-19.9°C 63% 5.0 mph N8.0 kmh N 10.0 mph16.1 kmh 30.52 in1033.5 mb 0.00 in0.0 mm 0.00 in0.0 mm 0.00 in0.0 mm
10:47 AM 6.2°F-14.3°C -3.7°F-19.8°C 63% 5.0 mph NNW8.0 kmh NNW 10.0 mph16.1 kmh 30.52 in1033.5 mb 0.00 in0.0 mm 0.00 in0.0 mm 0.00 in0.0 mm
10:48 AM 6.2°F-14.3°C -3.7°F-19.8°C 63% 5.0 mph WNW8.0 kmh WNW 10.0 mph16.1 kmh 30.52 in1033.5 mb 0.00 in0.0 mm 0.00 in0.0 mm 0.00 in0.0 mm
10:49 AM 6.2°F-14.3°C -3.7°F-19.8°C 63% 5.0 mph NW8.0 kmh NW 10.0 mph16.1 kmh 30.52 in1033.5 mb 0.00 in0.0 mm 0.00 in0.0 mm 0.00 in0.0 mm
10:50 AM 6.2°F-14.3°C -3.7°F-19.8°C 63% 5.0 mph NNW8.0 kmh NNW 10.0 mph16.1 kmh 30.52 in1033.5 mb 0.00 in0.0 mm 0.00 in0.0 mm 0.00 in0.0 mm
10:51 AM 6.2°F-14.3°C -3.4°F-19.7°C 64% 5.0 mph WNW8.0 kmh WNW 9.0 mph14.5 kmh 30.52 in1033.5 mb 0.00 in0.0 mm 0.00 in0.0 mm 0.00 in0.0 mm
10:52 AM 6.2°F-14.3°C -3.4°F-19.7°C 64% 1.0 mph NW1.6 kmh NW 9.0 mph14.5 kmh 30.52 in1033.5 mb 0.00 in0.0 mm 0.00 in0.0 mm 0.00 in0.0 mm
10:53 AM 6.2°F-14.3°C -3.4°F-19.7°C 64% 4.0 mph NNW6.4 kmh NNW 10.0 mph16.1 kmh 30.52 in1033.5 mb 0.00 in0.0 mm 0.00 in0.0 mm 0.00 in0.0 mm
10:54 AM 6.3°F-14.3°C -3.6°F-19.8°C 63% 5.0 mph NW8.0 kmh NW 10.0 mph16.1 kmh 30.52 in1033.5 mb 0.00 in0.0 mm 0.00 in0.0 mm 0.00 in0.0 mm
10:55 AM 6.3°F-14.3°C -3.6°F-19.8°C 63% 4.0 mph NW6.4 kmh NW 10.0 mph16.1 kmh 30.52 in1033.5 mb 0.00 in0.0 mm 0.00 in0.0 mm 0.00 in0.0 mm
10:56 AM 6.3°F-14.3°C -3.6°F-19.8°C 63% 1.0 mph W1.6 kmh W 10.0 mph16.1 kmh 30.52 in1033.5 mb 0.00 in0.0 mm 0.00 in0.0 mm 0.00 in0.0 mm
10:57 AM 6.3°F-14.3°C -4.0°F-20.0°C 62% 2.0 mph WNW3.2 kmh WNW 10.0 mph16.1 kmh 30.52 in1033.5 mb 0.00 in0.0 mm 0.00 in0.0 mm 0.00 in0.0 mm
10:58 AM 6.3°F-14.3°C -3.6°F-19.8°C 63% 2.0 mph NW3.2 kmh NW 10.0 mph16.1 kmh 30.52 in1033.5 mb 0.00 in0.0 mm 0.00 in0.0 mm 0.00 in0.0 mm
10:59 AM 6.3°F-14.3°C -4.0°F-20.0°C 62% 3.0 mph N4.8 kmh N 10.0 mph16.1 kmh 30.52 in1033.5 mb 0.00 in0.0 mm 0.00 in0.0 mm 0.00 in0.0 mm
11:00 AM 6.3°F-14.3°C -4.0°F-20.0°C 62% 4.0 mph N6.4 kmh N 10.0 mph16.1 kmh 30.52 in1033.5 mb 0.00 in0.0 mm 0.00 in0.0 mm 0.00 in0.0 mm
11:01 AM 6.3°F-14.3°C -4.0°F-20.0°C 62% 3.0 mph NNW4.8 kmh NNW 10.0 mph16.1 kmh 30.52 in1033.5 mb 0.00 in0.0 mm 0.00 in0.0 mm 0.00 in0.0 mm
11:02 AM 6.4°F-14.2°C -3.9°F-19.9°C 62% 4.0 mph NNW6.4 kmh NNW 10.0 mph16.1 kmh 30.52 in1033.5 mb 0.00 in0.0 mm 0.00 in0.0 mm 0.00 in0.0 mm
11:03 AM 6.3°F-14.3°C -4.0°F-20.0°C 62% 6.0 mph NW9.7 kmh NW 8.0 mph12.9 kmh 30.52 in1033.5 mb 0.00 in0.0 mm 0.00 in0.0 mm 0.00 in0.0 mm
11:04 AM 6.3°F-14.3°C -4.3°F-20.2°C 61% 5.0 mph NW8.0 kmh NW 8.0 mph12.9 kmh 30.52 in1033.5 mb 0.00 in0.0 mm 0.00 in0.0 mm 0.00 in0.0 mm
11:05 AM 6.3°F-14.3°C -4.3°F-20.2°C 61% 2.0 mph WNW3.2 kmh WNW 8.0 mph12.9 kmh 30.52 in1033.5 mb 0.00 in0.0 mm 0.00 in0.0 mm 0.00 in0.0 mm
11:06 AM 6.3°F-14.3°C -4.0°F-20.0°C 62% 1.0 mph NW1.6 kmh NW 8.0 mph12.9 kmh 30.52 in1033.5 mb 0.00 in0.0 mm 0.00 in0.0 mm 0.00 in0.0 mm
11:07 AM 6.3°F-14.3°C -4.0°F-20.0°C 62% 4.0 mph NNE6.4 kmh NNE 8.0 mph12.9 kmh 30.52 in1033.5 mb 0.00 in0.0 mm 0.00 in0.0 mm 0.00 in0.0 mm
11:08 AM 6.4°F-14.2°C -3.9°F-19.9°C 62% 3.0 mph N4.8 kmh N 8.0 mph12.9 kmh 30.52 in1033.5 mb 0.00 in0.0 mm 0.00 in0.0 mm 0.00 in0.0 mm
11:09 AM 6.4°F-14.2°C -3.9°F-19.9°C 62% 4.0 mph N6.4 kmh N 9.0 mph14.5 kmh 30.52 in1033.5 mb 0.00 in0.0 mm 0.00 in0.0 mm 0.00 in0.0 mm
11:10 AM 6.5°F-14.2°C -3.4°F-19.7°C 63% 5.0 mph NW8.0 kmh NW 9.0 mph14.5 kmh 30.52 in1033.5 mb 0.00 in0.0 mm 0.00 in0.0 mm 0.00 in0.0 mm
11:11 AM 6.5°F-14.2°C -3.8°F-19.9°C 62% 8.0 mph NNE12.9 kmh NNE 9.0 mph14.5 kmh 30.52 in1033.5 mb 0.00 in0.0 mm 0.00 in0.0 mm 0.00 in0.0 mm
11:12 AM 6.6°F-14.1°C -4.0°F-20.0°C 61% 4.0 mph NW6.4 kmh NW 9.0 mph14.5 kmh 30.52 in1033.5 mb 0.00 in0.0 mm 0.00 in0.0 mm 0.00 in0.0 mm
11:13 AM 6.7°F-14.1°C -3.9°F-19.9°C 61% 3.0 mph N4.8 kmh N 9.0 mph14.5 kmh 30.52 in1033.5 mb 0.00 in0.0 mm 0.00 in0.0 mm 0.00 in0.0 mm
11:14 AM 6.7°F-14.1°C -3.6°F-19.8°C 62% 4.0 mph NNW6.4 kmh NNW 9.0 mph14.5 kmh 30.52 in1033.5 mb 0.00 in0.0 mm 0.00 in0.0 mm 0.00 in0.0 mm
11:15 AM 6.7°F-14.1°C -3.6°F-19.8°C 62% 6.0 mph NE9.7 kmh NE 9.0 mph14.5 kmh 30.52 in1033.5 mb 0.00 in0.0 mm 0.00 in0.0 mm 0.00 in0.0 mm
11:16 AM 6.8°F-14.0°C -3.8°F-19.9°C 61% 8.0 mph N12.9 kmh N 9.0 mph14.5 kmh 30.52 in1033.5 mb 0.00 in0.0 mm 0.00 in0.0 mm 0.00 in0.0 mm
11:17 AM 6.8°F-14.0°C -3.8°F-19.9°C 61% 10.0 mph NE16.1 kmh NE 10.0 mph16.1 kmh 30.52 in1033.5 mb 0.00 in0.0 mm 0.00 in0.0 mm 0.00 in0.0 mm
11:18 AM 6.8°F-14.0°C -4.2°F-20.1°C 60% 4.0 mph N6.4 kmh N 10.0 mph16.1 kmh 30.52 in1033.5 mb 0.00 in0.0 mm 0.00 in0.0 mm 0.00 in0.0 mm
11:19 AM 6.8°F-14.0°C -4.2°F-20.1°C 60% 4.0 mph NE6.4 kmh NE 10.0 mph16.1 kmh 30.52 in1033.5 mb 0.00 in0.0 mm 0.00 in0.0 mm 0.00 in0.0 mm
11:20 AM 6.8°F-14.0°C -3.8°F-19.9°C 61% 4.0 mph NE6.4 kmh NE 10.0 mph16.1 kmh 30.52 in1033.5 mb 0.00 in0.0 mm 0.00 in0.0 mm 0.00 in0.0 mm
11:21 AM 6.9°F-13.9°C -3.7°F-19.8°C 61% 4.0 mph N6.4 kmh N 10.0 mph16.1 kmh 30.52 in1033.5 mb 0.00 in0.0 mm 0.00 in0.0 mm 0.00 in0.0 mm
11:22 AM 6.9°F-13.9°C -3.7°F-19.8°C 61% 2.0 mph N3.2 kmh N 10.0 mph16.1 kmh 30.52 in1033.5 mb 0.00 in0.0 mm 0.00 in0.0 mm 0.00 in0.0 mm
11:23 AM 7.0°F-13.9°C -3.6°F-19.8°C 61% 5.0 mph N8.0 kmh N 10.0 mph16.1 kmh 30.52 in1033.5 mb 0.00 in0.0 mm 0.00 in0.0 mm 0.00 in0.0 mm
11:24 AM 7.1°F-13.8°C -3.5°F-19.7°C 61% 5.0 mph NE8.0 kmh NE 10.0 mph16.1 kmh 30.52 in1033.5 mb 0.00 in0.0 mm 0.00 in0.0 mm 0.00 in0.0 mm
11:25 AM 7.1°F-13.8°C -3.5°F-19.7°C 61% 5.0 mph NNE8.0 kmh NNE 10.0 mph16.1 kmh 30.52 in1033.5 mb 0.00 in0.0 mm 0.00 in0.0 mm 0.00 in0.0 mm
11:26 AM 7.2°F-13.8°C -3.4°F-19.7°C 61% 2.0 mph WNW3.2 kmh WNW 10.0 mph16.1 kmh 30.52 in1033.5 mb 0.00 in0.0 mm 0.00 in0.0 mm 0.00 in0.0 mm
11:27 AM 7.2°F-13.8°C -3.1°F-19.5°C 62% 9.0 mph WNW14.5 kmh WNW 10.0 mph16.1 kmh 30.52 in1033.5 mb 0.00 in0.0 mm 0.00 in0.0 mm 0.00 in0.0 mm
11:28 AM 7.3°F-13.7°C -3.0°F-19.4°C 62% 3.0 mph NW4.8 kmh NW 10.0 mph16.1 kmh 30.52 in1033.5 mb 0.00 in0.0 mm 0.00 in0.0 mm 0.00 in0.0 mm
11:29 AM 7.4°F-13.7°C -2.9°F-19.4°C 62% 3.0 mph NNW4.8 kmh NNW 10.0 mph16.1 kmh 30.52 in1033.5 mb 0.00 in0.0 mm 0.00 in0.0 mm 0.00 in0.0 mm
11:30 AM 7.5°F-13.6°C -2.8°F-19.3°C 62% 4.0 mph N6.4 kmh N 10.0 mph16.1 kmh 30.52 in1033.5 mb 0.00 in0.0 mm 0.00 in0.0 mm 0.00 in0.0 mm
11:31 AM 7.6°F-13.6°C -3.1°F-19.5°C 61% 5.0 mph NNE8.0 kmh NNE 10.0 mph16.1 kmh 30.52 in1033.5 mb 0.00 in0.0 mm 0.00 in0.0 mm 0.00 in0.0 mm
11:32 AM 7.6°F-13.6°C -3.1°F-19.5°C 61% 2.0 mph NW3.2 kmh NW 10.0 mph16.1 kmh 30.52 in1033.5 mb 0.00 in0.0 mm 0.00 in0.0 mm 0.00 in0.0 mm
11:33 AM 7.7°F-13.5°C -3.0°F-19.4°C 61% 4.0 mph NNW6.4 kmh NNW 10.0 mph16.1 kmh 30.52 in1033.5 mb 0.00 in0.0 mm 0.00 in0.0 mm 0.00 in0.0 mm
11:34 AM 7.8°F-13.4°C -2.9°F-19.4°C 61% 4.0 mph NW6.4 kmh NW 10.0 mph16.1 kmh 30.52 in1033.5 mb 0.00 in0.0 mm 0.00 in0.0 mm 0.00 in0.0 mm
11:35 AM 7.8°F-13.4°C -2.9°F-19.4°C 61% 3.0 mph NE4.8 kmh NE 10.0 mph16.1 kmh 30.52 in1033.5 mb 0.00 in0.0 mm 0.00 in0.0 mm 0.00 in0.0 mm
11:36 AM 7.9°F-13.4°C -2.8°F-19.3°C 61% 3.0 mph NE4.8 kmh NE 10.0 mph16.1 kmh 30.52 in1033.5 mb 0.00 in0.0 mm 0.00 in0.0 mm 0.00 in0.0 mm
11:37 AM 8.0°F-13.3°C -3.4°F-19.7°C 59% 3.0 mph NNW4.8 kmh NNW 10.0 mph16.1 kmh 30.52 in1033.5 mb 0.00 in0.0 mm 0.00 in0.0 mm 0.00 in0.0 mm
11:38 AM 8.0°F-13.3°C -3.4°F-19.7°C 59% 4.0 mph NNW6.4 kmh NNW 10.0 mph16.1 kmh 30.52 in1033.5 mb 0.00 in0.0 mm 0.00 in0.0 mm 0.00 in0.0 mm
11:39 AM 8.1°F-13.3°C -3.3°F-19.6°C 59% 2.0 mph NW3.2 kmh NW 10.0 mph16.1 kmh 30.52 in1033.5 mb 0.00 in0.0 mm 0.00 in0.0 mm 0.00 in0.0 mm
11:40 AM 8.1°F-13.3°C -3.3°F-19.6°C 59% 3.0 mph N4.8 kmh N 10.0 mph16.1 kmh 30.52 in1033.5 mb 0.00 in0.0 mm 0.00 in0.0 mm 0.00 in0.0 mm
11:41 AM 8.2°F-13.2°C -3.2°F-19.6°C 59% 4.0 mph NE6.4 kmh NE 10.0 mph16.1 kmh 30.52 in1033.5 mb 0.00 in0.0 mm 0.00 in0.0 mm 0.00 in0.0 mm
11:42 AM 8.2°F-13.2°C -3.2°F-19.6°C 59% 2.0 mph N3.2 kmh N 10.0 mph16.1 kmh 30.52 in1033.5 mb 0.00 in0.0 mm 0.00 in0.0 mm 0.00 in0.0 mm
11:43 AM 8.3°F-13.2°C -3.1°F-19.5°C 59% 1.0 mph NW1.6 kmh NW 10.0 mph16.1 kmh 30.52 in1033.5 mb 0.00 in0.0 mm 0.00 in0.0 mm 0.00 in0.0 mm
11:44 AM 8.4°F-13.1°C -2.7°F-19.3°C 60% 3.0 mph NW4.8 kmh NW 10.0 mph16.1 kmh 30.52 in1033.5 mb 0.00 in0.0 mm 0.00 in0.0 mm 0.00 in0.0 mm
11:45 AM 8.5°F-13.1°C -2.6°F-19.2°C 60% 4.0 mph WNW6.4 kmh WNW 10.0 mph16.1 kmh 30.51 in1033.2 mb 0.00 in0.0 mm 0.00 in0.0 mm 0.00 in0.0 mm
11:46 AM 8.6°F-13.0°C -2.5°F-19.2°C 60% 3.0 mph WNW4.8 kmh WNW 9.0 mph14.5 kmh 30.52 in1033.5 mb 0.00 in0.0 mm 0.00 in0.0 mm 0.00 in0.0 mm
11:47 AM 8.7°F-12.9°C -2.4°F-19.1°C 60% 2.0 mph WNW3.2 kmh WNW 9.0 mph14.5 kmh 30.51 in1033.2 mb 0.00 in0.0 mm 0.00 in0.0 mm 0.00 in0.0 mm
11:48 AM 8.8°F-12.9°C -1.9°F-18.8°C 61% 5.0 mph NW8.0 kmh NW 13.0 mph20.9 kmh 30.51 in1033.2 mb 0.00 in0.0 mm 0.00 in0.0 mm 0.00 in0.0 mm
11:49 AM 8.9°F-12.8°C -1.8°F-18.8°C 61% 1.0 mph W1.6 kmh W 13.0 mph20.9 kmh 30.52 in1033.5 mb 0.00 in0.0 mm 0.00 in0.0 mm 0.00 in0.0 mm
11:50 AM 8.9°F-12.8°C -2.2°F-19.0°C 60% 5.0 mph N8.0 kmh N 13.0 mph20.9 kmh 30.51 in1033.2 mb 0.00 in0.0 mm 0.00 in0.0 mm 0.00 in0.0 mm
11:51 AM 8.9°F-12.8°C -2.5°F-19.2°C 59% 4.0 mph N6.4 kmh N 13.0 mph20.9 kmh 30.51 in1033.2 mb 0.00 in0.0 mm 0.00 in0.0 mm 0.00 in0.0 mm
11:52 AM 8.9°F-12.8°C -2.9°F-19.4°C 58% 3.0 mph N4.8 kmh N 13.0 mph20.9 kmh 30.51 in1033.2 mb 0.00 in0.0 mm 0.00 in0.0 mm 0.00 in0.0 mm
11:53 AM 8.9°F-12.8°C -2.5°F-19.2°C 59% 4.0 mph NNW6.4 kmh NNW 13.0 mph20.9 kmh 30.51 in1033.2 mb 0.00 in0.0 mm 0.00 in0.0 mm 0.00 in0.0 mm
11:54 AM 9.0°F-12.8°C -2.1°F-18.9°C 60% 8.0 mph W12.9 kmh W 13.0 mph20.9 kmh 30.51 in1033.2 mb 0.00 in0.0 mm 0.00 in0.0 mm 0.00 in0.0 mm
11:55 AM 9.1°F-12.7°C -2.3°F-19.1°C 59% 3.0 mph NW4.8 kmh NW 13.0 mph20.9 kmh 30.51 in1033.2 mb 0.00 in0.0 mm 0.00 in0.0 mm 0.00 in0.0 mm
11:56 AM 9.2°F-12.7°C -1.5°F-18.6°C 61% 6.0 mph NW9.7 kmh NW 13.0 mph20.9 kmh 30.51 in1033.2 mb 0.00 in0.0 mm 0.00 in0.0 mm 0.00 in0.0 mm
11:57 AM 9.3°F-12.6°C -2.2°F-19.0°C 59% 2.0 mph NNW3.2 kmh NNW 13.0 mph20.9 kmh 30.51 in1033.2 mb 0.00 in0.0 mm 0.00 in0.0 mm 0.00 in0.0 mm
11:58 AM 9.4°F-12.6°C -2.1°F-18.9°C 59% 5.0 mph NW8.0 kmh NW 8.0 mph12.9 kmh 30.51 in1033.2 mb 0.00 in0.0 mm 0.00 in0.0 mm 0.00 in0.0 mm
11:59 AM 9.5°F-12.5°C -1.6°F-18.7°C 60% 7.0 mph NW11.3 kmh NW 8.0 mph12.9 kmh 30.52 in1033.5 mb 0.00 in0.0 mm 0.00 in0.0 mm 0.00 in0.0 mm
12:00 PM 9.5°F-12.5°C -2.0°F-18.9°C 59% 9.0 mph NW14.5 kmh NW 9.0 mph14.5 kmh 30.52 in1033.5 mb 0.00 in0.0 mm 0.00 in0.0 mm 0.00 in0.0 mm
12:01 PM 9.5°F-12.5°C -2.3°F-19.1°C 58% 3.0 mph NW4.8 kmh NW 9.0 mph14.5 kmh 30.52 in1033.5 mb 0.00 in0.0 mm 0.00 in0.0 mm 0.00 in0.0 mm
12:02 PM 9.5°F-12.5°C -2.0°F-18.9°C 59% 3.0 mph WNW4.8 kmh WNW 9.0 mph14.5 kmh 30.52 in1033.5 mb 0.00 in0.0 mm 0.00 in0.0 mm 0.00 in0.0 mm
12:03 PM 9.6°F-12.4°C -1.9°F-18.8°C 59% 5.0 mph NW8.0 kmh NW 9.0 mph14.5 kmh 30.52 in1033.5 mb 0.00 in0.0 mm 0.00 in0.0 mm 0.00 in0.0 mm
12:04 PM 9.6°F-12.4°C -2.2°F-19.0°C 58% 2.0 mph W3.2 kmh W 9.0 mph14.5 kmh 30.52 in1033.5 mb 0.00 in0.0 mm 0.00 in0.0 mm 0.00 in0.0 mm
12:05 PM 9.7°F-12.4°C -2.1°F-18.9°C 58% 5.0 mph N8.0 kmh N 9.0 mph14.5 kmh 30.52 in1033.5 mb 0.00 in0.0 mm 0.00 in0.0 mm 0.00 in0.0 mm
12:06 PM 9.8°F-12.3°C -2.0°F-18.9°C 58% 5.0 mph NNE8.0 kmh NNE 9.0 mph14.5 kmh 30.52 in1033.5 mb 0.00 in0.0 mm 0.00 in0.0 mm 0.00 in0.0 mm
12:07 PM 9.9°F-12.3°C -1.9°F-18.8°C 58% 3.0 mph N4.8 kmh N 9.0 mph14.5 kmh 30.52 in1033.5 mb 0.00 in0.0 mm 0.00 in0.0 mm 0.00 in0.0 mm
12:08 PM 10.0°F-12.2°C -1.9°F-18.8°C 58% 8.0 mph NW12.9 kmh NW 9.0 mph14.5 kmh 30.52 in1033.5 mb 0.00 in0.0 mm 0.00 in0.0 mm 0.00 in0.0 mm
12:09 PM 10.0°F-12.2°C -1.9°F-18.8°C 58% 3.0 mph NW4.8 kmh NW 9.0 mph14.5 kmh 30.52 in1033.5 mb 0.00 in0.0 mm 0.00 in0.0 mm 0.00 in0.0 mm
12:10 PM 10.1°F-12.2°C -1.8°F-18.8°C 58% Calm Calm 9.0 mph14.5 kmh 30.52 in1033.5 mb 0.00 in0.0 mm 0.00 in0.0 mm 0.00 in0.0 mm
12:11 PM 10.1°F-12.2°C -2.1°F-18.9°C 57% 5.0 mph N8.0 kmh N 9.0 mph14.5 kmh 30.52 in1033.5 mb 0.00 in0.0 mm 0.00 in0.0 mm 0.00 in0.0 mm
12:12 PM 10.2°F-12.1°C -1.7°F-18.7°C 58% 3.0 mph NNE4.8 kmh NNE 9.0 mph14.5 kmh 30.53 in1033.9 mb 0.00 in0.0 mm 0.00 in0.0 mm 0.00 in0.0 mm
12:13 PM 10.2°F-12.1°C -1.7°F-18.7°C 58% 3.0 mph NNE4.8 kmh NNE 9.0 mph14.5 kmh 30.53 in1033.9 mb 0.00 in0.0 mm 0.00 in0.0 mm 0.00 in0.0 mm
12:14 PM 10.3°F-12.1°C -1.6°F-18.7°C 58% 3.0 mph NNE4.8 kmh NNE 9.0 mph14.5 kmh 30.53 in1033.9 mb 0.00 in0.0 mm 0.00 in0.0 mm 0.00 in0.0 mm
12:15 PM 10.3°F-12.1°C -1.6°F-18.7°C 58% 3.0 mph NNW4.8 kmh NNW 9.0 mph14.5 kmh 30.53 in1033.9 mb 0.00 in0.0 mm 0.00 in0.0 mm 0.00 in0.0 mm
12:16 PM 10.4°F-12.0°C -1.8°F-18.8°C 57% 4.0 mph NNW6.4 kmh NNW 9.0 mph14.5 kmh 30.53 in1033.9 mb 0.00 in0.0 mm 0.00 in0.0 mm 0.00 in0.0 mm
12:17 PM 10.4°F-12.0°C -2.2°F-19.0°C 56% 5.0 mph N8.0 kmh N 9.0 mph14.5 kmh 30.53 in1033.9 mb 0.00 in0.0 mm 0.00 in0.0 mm 0.00 in0.0 mm
12:18 PM 10.3°F-12.1°C -2.3°F-19.1°C 56% 3.0 mph NNE4.8 kmh NNE 8.0 mph12.9 kmh 30.53 in1033.9 mb 0.00 in0.0 mm 0.00 in0.0 mm 0.00 in0.0 mm
12:19 PM 10.3°F-12.1°C -2.3°F-19.1°C 56% 4.0 mph NE6.4 kmh NE 8.0 mph12.9 kmh 30.53 in1033.9 mb 0.00 in0.0 mm 0.00 in0.0 mm 0.00 in0.0 mm
12:20 PM 10.2°F-12.1°C -2.8°F-19.3°C 55% 3.0 mph NW4.8 kmh NW 9.0 mph14.5 kmh 30.53 in1033.9 mb 0.00 in0.0 mm 0.00 in0.0 mm 0.00 in0.0 mm
12:21 PM 10.2°F-12.1°C -2.4°F-19.1°C 56% 3.0 mph N4.8 kmh N 9.0 mph14.5 kmh 30.52 in1033.5 mb 0.00 in0.0 mm 0.00 in0.0 mm 0.00 in0.0 mm
12:22 PM 10.2°F-12.1°C -2.4°F-19.1°C 56% 2.0 mph NE3.2 kmh NE 9.0 mph14.5 kmh 30.53 in1033.9 mb 0.00 in0.0 mm 0.00 in0.0 mm 0.00 in0.0 mm
12:23 PM 10.3°F-12.1°C -1.9°F-18.8°C 57% 1.0 mph NNW1.6 kmh NNW 9.0 mph14.5 kmh 30.53 in1033.9 mb 0.00 in0.0 mm 0.00 in0.0 mm 0.00 in0.0 mm
12:24 PM 10.3°F-12.1°C -1.6°F-18.7°C 58% 5.0 mph NW8.0 kmh NW 9.0 mph14.5 kmh 30.53 in1033.9 mb 0.00 in0.0 mm 0.00 in0.0 mm 0.00 in0.0 mm
12:25 PM 10.3°F-12.1°C -1.6°F-18.7°C 58% 4.0 mph NW6.4 kmh NW 9.0 mph14.5 kmh 30.52 in1033.5 mb 0.00 in0.0 mm 0.00 in0.0 mm 0.00 in0.0 mm
12:26 PM 10.3°F-12.1°C -1.9°F-18.8°C 57% 1.0 mph N1.6 kmh N 9.0 mph14.5 kmh 30.52 in1033.5 mb 0.00 in0.0 mm 0.00 in0.0 mm 0.00 in0.0 mm
12:27 PM 10.4°F-12.0°C -1.8°F-18.8°C 57% 4.0 mph NW6.4 kmh NW 10.0 mph16.1 kmh 30.52 in1033.5 mb 0.00 in0.0 mm 0.00 in0.0 mm 0.00 in0.0 mm
12:28 PM 10.4°F-12.0°C -1.5°F-18.6°C 58% 2.0 mph NW3.2 kmh NW 10.0 mph16.1 kmh 30.52 in1033.5 mb 0.00 in0.0 mm 0.00 in0.0 mm 0.00 in0.0 mm
12:29 PM 10.5°F-11.9°C -1.0°F-18.3°C 59% 4.0 mph NNW6.4 kmh NNW 10.0 mph16.1 kmh 30.52 in1033.5 mb 0.00 in0.0 mm 0.00 in0.0 mm 0.00 in0.0 mm
12:30 PM 10.5°F-11.9°C -1.4°F-18.6°C 58% 5.0 mph N8.0 kmh N 10.0 mph16.1 kmh 30.52 in1033.5 mb 0.00 in0.0 mm 0.00 in0.0 mm 0.00 in0.0 mm
12:31 PM 10.5°F-11.9°C -1.4°F-18.6°C 58% 5.0 mph NNW8.0 kmh NNW 10.0 mph16.1 kmh 30.52 in1033.5 mb 0.00 in0.0 mm 0.00 in0.0 mm 0.00 in0.0 mm
12:32 PM 10.5°F-11.9°C -1.4°F-18.6°C 58% 3.0 mph NW4.8 kmh NW 10.0 mph16.1 kmh 30.52 in1033.5 mb 0.00 in0.0 mm 0.00 in0.0 mm 0.00 in0.0 mm
12:33 PM 10.6°F-11.9°C -0.9°F-18.3°C 59% 4.0 mph W6.4 kmh W 10.0 mph16.1 kmh 30.52 in1033.5 mb 0.00 in0.0 mm 0.00 in0.0 mm 0.00 in0.0 mm
12:34 PM 10.6°F-11.9°C -0.6°F-18.1°C 60% 2.0 mph WNW3.2 kmh WNW 10.0 mph16.1 kmh 30.52 in1033.5 mb 0.00 in0.0 mm 0.00 in0.0 mm 0.00 in0.0 mm
12:35 PM 10.6°F-11.9°C -0.6°F-18.1°C 60% 4.0 mph W6.4 kmh W 10.0 mph16.1 kmh 30.52 in1033.5 mb 0.00 in0.0 mm 0.00 in0.0 mm 0.00 in0.0 mm
12:36 PM 10.6°F-11.9°C -0.6°F-18.1°C 60% 1.0 mph NW1.6 kmh NW 10.0 mph16.1 kmh 30.52 in1033.5 mb 0.00 in0.0 mm 0.00 in0.0 mm 0.00 in0.0 mm
12:37 PM 10.6°F-11.9°C -0.6°F-18.1°C 60% 2.0 mph NW3.2 kmh NW 8.0 mph12.9 kmh 30.52 in1033.5 mb 0.00 in0.0 mm 0.00 in0.0 mm 0.00 in0.0 mm
12:38 PM 10.6°F-11.9°C -0.9°F-18.3°C 59% 1.0 mph NW1.6 kmh NW 8.0 mph12.9 kmh 30.52 in1033.5 mb 0.00 in0.0 mm 0.00 in0.0 mm 0.00 in0.0 mm
12:39 PM 10.6°F-11.9°C -0.6°F-18.1°C 60% 3.0 mph NW4.8 kmh NW 8.0 mph12.9 kmh 30.52 in1033.5 mb 0.00 in0.0 mm 0.00 in0.0 mm 0.00 in0.0 mm
12:40 PM 10.6°F-11.9°C -0.6°F-18.1°C 60% 3.0 mph NNW4.8 kmh NNW 8.0 mph12.9 kmh 30.52 in1033.5 mb 0.00 in0.0 mm 0.00 in0.0 mm 0.00 in0.0 mm
12:41 PM 10.7°F-11.8°C -0.1°F-17.8°C 61% 3.0 mph NNW4.8 kmh NNW 8.0 mph12.9 kmh 30.52 in1033.5 mb 0.00 in0.0 mm 0.00 in0.0 mm 0.00 in0.0 mm
12:42 PM 10.7°F-11.8°C -0.1°F-17.8°C 61% 5.0 mph N8.0 kmh N 8.0 mph12.9 kmh 30.52 in1033.5 mb 0.00 in0.0 mm 0.00 in0.0 mm 0.00 in0.0 mm
12:43 PM 10.7°F-11.8°C -1.2°F-18.4°C 58% 3.0 mph NW4.8 kmh NW 8.0 mph12.9 kmh 30.52 in1033.5 mb 0.00 in0.0 mm 0.00 in0.0 mm 0.00 in0.0 mm
12:44 PM 10.7°F-11.8°C -1.2°F-18.4°C 58% 7.0 mph NW11.3 kmh NW 8.0 mph12.9 kmh 30.52 in1033.5 mb 0.00 in0.0 mm 0.00 in0.0 mm 0.00 in0.0 mm
12:45 PM 10.7°F-11.8°C -1.2°F-18.4°C 58% 4.0 mph NNW6.4 kmh NNW 9.0 mph14.5 kmh 30.52 in1033.5 mb 0.00 in0.0 mm 0.00 in0.0 mm 0.00 in0.0 mm
12:46 PM 10.6°F-11.9°C -1.7°F-18.7°C 57% 3.0 mph NW4.8 kmh NW 9.0 mph14.5 kmh 30.52 in1033.5 mb 0.00 in0.0 mm 0.00 in0.0 mm 0.00 in0.0 mm
12:47 PM 10.5°F-11.9°C -2.1°F-18.9°C 56% 2.0 mph NW3.2 kmh NW 9.0 mph14.5 kmh 30.52 in1033.5 mb 0.00 in0.0 mm 0.00 in0.0 mm 0.00 in0.0 mm
12:48 PM 10.4°F-12.0°C -1.8°F-18.8°C 57% 1.0 mph NW1.6 kmh NW 9.0 mph14.5 kmh 30.52 in1033.5 mb 0.00 in0.0 mm 0.00 in0.0 mm 0.00 in0.0 mm
12:49 PM 10.4°F-12.0°C -1.5°F-18.6°C 58% 2.0 mph NW3.2 kmh NW 9.0 mph14.5 kmh 30.52 in1033.5 mb 0.00 in0.0 mm 0.00 in0.0 mm 0.00 in0.0 mm
12:50 PM 10.4°F-12.0°C -1.1°F-18.4°C 59% 4.0 mph ENE6.4 kmh ENE 9.0 mph14.5 kmh 30.52 in1033.5 mb 0.00 in0.0 mm 0.00 in0.0 mm 0.00 in0.0 mm
12:51 PM 10.4°F-12.0°C -1.1°F-18.4°C 59% 1.0 mph NE1.6 kmh NE 9.0 mph14.5 kmh 30.52 in1033.5 mb 0.00 in0.0 mm 0.00 in0.0 mm 0.00 in0.0 mm
12:52 PM 10.4°F-12.0°C -1.1°F-18.4°C 59% 2.0 mph NE3.2 kmh NE 9.0 mph14.5 kmh 30.52 in1033.5 mb 0.00 in0.0 mm 0.00 in0.0 mm 0.00 in0.0 mm
12:53 PM 10.5°F-11.9°C -1.0°F-18.3°C 59% Calm Calm 9.0 mph14.5 kmh 30.52 in1033.5 mb 0.00 in0.0 mm 0.00 in0.0 mm 0.00 in0.0 mm
12:54 PM 10.5°F-11.9°C -0.7°F-18.2°C 60% 3.0 mph SW4.8 kmh SW 9.0 mph14.5 kmh 30.52 in1033.5 mb 0.00 in0.0 mm 0.00 in0.0 mm 0.00 in0.0 mm
12:55 PM 10.6°F-11.9°C -0.2°F-17.9°C 61% 3.0 mph WSW4.8 kmh WSW 6.0 mph9.7 kmh 30.52 in1033.5 mb 0.00 in0.0 mm 0.00 in0.0 mm 0.00 in0.0 mm
12:56 PM 10.6°F-11.9°C -0.2°F-17.9°C 61% 4.0 mph NNW6.4 kmh NNW 9.0 mph14.5 kmh 30.52 in1033.5 mb 0.00 in0.0 mm 0.00 in0.0 mm 0.00 in0.0 mm
12:57 PM 10.6°F-11.9°C -0.2°F-17.9°C 61% 3.0 mph WNW4.8 kmh WNW 9.0 mph14.5 kmh 30.52 in1033.5 mb 0.00 in0.0 mm 0.00 in0.0 mm 0.00 in0.0 mm
12:58 PM 10.6°F-11.9°C -0.6°F-18.1°C 60% 3.0 mph WNW4.8 kmh WNW 9.0 mph14.5 kmh 30.52 in1033.5 mb 0.00 in0.0 mm 0.00 in0.0 mm 0.00 in0.0 mm
12:59 PM 10.6°F-11.9°C -0.2°F-17.9°C 61% 2.0 mph WNW3.2 kmh WNW 9.0 mph14.5 kmh 30.52 in1033.5 mb 0.00 in0.0 mm 0.00 in0.0 mm 0.00 in0.0 mm
01:00 PM 10.6°F-11.9°C 0.1°F-17.7°C 62% 4.0 mph W6.4 kmh W 9.0 mph14.5 kmh 30.52 in1033.5 mb 0.00 in0.0 mm 0.00 in0.0 mm 0.00 in0.0 mm
01:01 PM 10.7°F-11.8°C 0.2°F-17.7°C 62% 3.0 mph NW4.8 kmh NW 9.0 mph14.5 kmh 30.52 in1033.5 mb 0.00 in0.0 mm 0.00 in0.0 mm 0.00 in0.0 mm
01:02 PM 10.6°F-11.9°C -0.2°F-17.9°C 61% 4.0 mph WNW6.4 kmh WNW 9.0 mph14.5 kmh 30.52 in1033.5 mb 0.00 in0.0 mm 0.00 in0.0 mm 0.00 in0.0 mm
01:03 PM 10.6°F-11.9°C -0.2°F-17.9°C 61% 3.0 mph NNW4.8 kmh NNW 9.0 mph14.5 kmh 30.52 in1033.5 mb 0.00 in0.0 mm 0.00 in0.0 mm 0.00 in0.0 mm
01:04 PM 10.6°F-11.9°C -0.2°F-17.9°C 61% 2.0 mph NNW3.2 kmh NNW 9.0 mph14.5 kmh 30.52 in1033.5 mb 0.00 in0.0 mm 0.00 in0.0 mm 0.00 in0.0 mm
01:05 PM 10.6°F-11.9°C -0.2°F-17.9°C 61% 4.0 mph N6.4 kmh N 9.0 mph14.5 kmh 30.52 in1033.5 mb 0.00 in0.0 mm 0.00 in0.0 mm 0.00 in0.0 mm
01:06 PM 10.5°F-11.9°C -0.7°F-18.2°C 60% 2.0 mph NW3.2 kmh NW 8.0 mph12.9 kmh 30.52 in1033.5 mb 0.00 in0.0 mm 0.00 in0.0 mm 0.00 in0.0 mm
01:07 PM 10.5°F-11.9°C -0.7°F-18.2°C 60% 1.0 mph NNE1.6 kmh NNE 8.0 mph12.9 kmh 30.52 in1033.5 mb 0.00 in0.0 mm 0.00 in0.0 mm 0.00 in0.0 mm
01:08 PM 10.5°F-11.9°C -0.3°F-17.9°C 61% 1.0 mph WNW1.6 kmh WNW 8.0 mph12.9 kmh 30.52 in1033.5 mb 0.00 in0.0 mm 0.00 in0.0 mm 0.00 in0.0 mm
01:09 PM 10.5°F-11.9°C -0.3°F-17.9°C 61% 3.0 mph WNW4.8 kmh WNW 8.0 mph12.9 kmh 30.52 in1033.5 mb 0.00 in0.0 mm 0.00 in0.0 mm 0.00 in0.0 mm
01:10 PM 10.6°F-11.9°C 0.1°F-17.7°C 62% 5.0 mph NW8.0 kmh NW 8.0 mph12.9 kmh 30.52 in1033.5 mb 0.00 in0.0 mm 0.00 in0.0 mm 0.00 in0.0 mm
01:11 PM 10.7°F-11.8°C 0.2°F-17.7°C 62% 4.0 mph NW6.4 kmh NW 8.0 mph12.9 kmh 30.52 in1033.5 mb 0.00 in0.0 mm 0.00 in0.0 mm 0.00 in0.0 mm
01:12 PM 10.7°F-11.8°C -0.1°F-17.8°C 61% 7.0 mph NW11.3 kmh NW 8.0 mph12.9 kmh 30.52 in1033.5 mb 0.00 in0.0 mm 0.00 in0.0 mm 0.00 in0.0 mm
01:13 PM 10.7°F-11.8°C -0.5°F-18.1°C 60% 3.0 mph NW4.8 kmh NW 8.0 mph12.9 kmh 30.52 in1033.5 mb 0.00 in0.0 mm 0.00 in0.0 mm 0.00 in0.0 mm
01:14 PM 10.7°F-11.8°C -0.5°F-18.1°C 60% 2.0 mph NW3.2 kmh NW 8.0 mph12.9 kmh 30.52 in1033.5 mb 0.00 in0.0 mm 0.00 in0.0 mm 0.00 in0.0 mm
01:15 PM 10.5°F-11.9°C -0.7°F-18.2°C 60% 7.0 mph NW11.3 kmh NW 8.0 mph12.9 kmh 30.52 in1033.5 mb 0.00 in0.0 mm 0.00 in0.0 mm 0.00 in0.0 mm
01:16 PM 10.5°F-11.9°C -0.7°F-18.2°C 60% 4.0 mph NW6.4 kmh NW 8.0 mph12.9 kmh 30.52 in1033.5 mb 0.00 in0.0 mm 0.00 in0.0 mm 0.00 in0.0 mm
01:17 PM 10.5°F-11.9°C -0.7°F-18.2°C 60% 4.0 mph N6.4 kmh N 8.0 mph12.9 kmh 30.52 in1033.5 mb 0.00 in0.0 mm 0.00 in0.0 mm 0.00 in0.0 mm
01:18 PM 10.4°F-12.0°C -0.8°F-18.2°C 60% 4.0 mph NNW6.4 kmh NNW 8.0 mph12.9 kmh 30.52 in1033.5 mb 0.00 in0.0 mm 0.00 in0.0 mm 0.00 in0.0 mm
01:19 PM 10.4°F-12.0°C -0.8°F-18.2°C 60% 5.0 mph NW8.0 kmh NW 9.0 mph14.5 kmh 30.52 in1033.5 mb 0.00 in0.0 mm 0.00 in0.0 mm 0.00 in0.0 mm
01:20 PM 10.4°F-12.0°C -0.4°F-18.0°C 61% 3.0 mph NW4.8 kmh NW 9.0 mph14.5 kmh 30.52 in1033.5 mb 0.00 in0.0 mm 0.00 in0.0 mm 0.00 in0.0 mm
01:21 PM 10.4°F-12.0°C -0.4°F-18.0°C 61% 3.0 mph NNW4.8 kmh NNW 9.0 mph14.5 kmh 30.52 in1033.5 mb 0.00 in0.0 mm 0.00 in0.0 mm 0.00 in0.0 mm
01:22 PM 10.4°F-12.0°C -0.4°F-18.0°C 61% 4.0 mph NW6.4 kmh NW 9.0 mph14.5 kmh 30.52 in1033.5 mb 0.00 in0.0 mm 0.00 in0.0 mm 0.00 in0.0 mm
01:23 PM 10.4°F-12.0°C -0.4°F-18.0°C 61% 2.0 mph NNW3.2 kmh NNW 9.0 mph14.5 kmh 30.52 in1033.5 mb 0.00 in0.0 mm 0.00 in0.0 mm 0.00 in0.0 mm
01:24 PM 10.5°F-11.9°C 0.0°F-17.8°C 62% 3.0 mph NW4.8 kmh NW 9.0 mph14.5 kmh 30.52 in1033.5 mb 0.00 in0.0 mm 0.00 in0.0 mm 0.00 in0.0 mm
01:25 PM 10.5°F-11.9°C -0.3°F-17.9°C 61% 1.0 mph W1.6 kmh W 9.0 mph14.5 kmh 30.52 in1033.5 mb 0.00 in0.0 mm 0.00 in0.0 mm 0.00 in0.0 mm
01:26 PM 10.4°F-12.0°C -0.8°F-18.2°C 60% 1.0 mph NW1.6 kmh NW 9.0 mph14.5 kmh 30.52 in1033.5 mb 0.00 in0.0 mm 0.00 in0.0 mm 0.00 in0.0 mm
01:27 PM 10.4°F-12.0°C -0.8°F-18.2°C 60% 1.0 mph NNW1.6 kmh NNW 9.0 mph14.5 kmh 30.53 in1033.9 mb 0.00 in0.0 mm 0.00 in0.0 mm 0.00 in0.0 mm
01:28 PM 10.4°F-12.0°C -0.8°F-18.2°C 60% 5.0 mph NW8.0 kmh NW 9.0 mph14.5 kmh 30.53 in1033.9 mb 0.00 in0.0 mm 0.00 in0.0 mm 0.00 in0.0 mm
01:29 PM 10.4°F-12.0°C -0.4°F-18.0°C 61% 4.0 mph WNW6.4 kmh WNW 11.0 mph17.7 kmh 30.53 in1033.9 mb 0.00 in0.0 mm 0.00 in0.0 mm 0.00 in0.0 mm
01:30 PM 10.4°F-12.0°C -0.4°F-18.0°C 61% 6.0 mph WNW9.7 kmh WNW 11.0 mph17.7 kmh 30.53 in1033.9 mb 0.00 in0.0 mm 0.00 in0.0 mm 0.00 in0.0 mm
01:31 PM 10.3°F-12.1°C -0.5°F-18.1°C 61% 9.0 mph NW14.5 kmh NW 11.0 mph17.7 kmh 30.53 in1033.9 mb 0.00 in0.0 mm 0.00 in0.0 mm 0.00 in0.0 mm
01:32 PM 10.3°F-12.1°C -0.5°F-18.1°C 61% 8.0 mph NW12.9 kmh NW 11.0 mph17.7 kmh 30.53 in1033.9 mb 0.00 in0.0 mm 0.00 in0.0 mm 0.00 in0.0 mm
01:33 PM 10.2°F-12.1°C -0.6°F-18.1°C 61% 2.0 mph NNW3.2 kmh NNW 11.0 mph17.7 kmh 30.53 in1033.9 mb 0.00 in0.0 mm 0.00 in0.0 mm 0.00 in0.0 mm
01:34 PM 10.2°F-12.1°C -0.9°F-18.3°C 60% 4.0 mph W6.4 kmh W 11.0 mph17.7 kmh 30.53 in1033.9 mb 0.00 in0.0 mm 0.00 in0.0 mm 0.00 in0.0 mm
01:35 PM 10.1°F-12.2°C -0.7°F-18.2°C 61% 4.0 mph WSW6.4 kmh WSW 11.0 mph17.7 kmh 30.53 in1033.9 mb 0.00 in0.0 mm 0.00 in0.0 mm 0.00 in0.0 mm
01:36 PM 10.1°F-12.2°C -0.7°F-18.2°C 61% 2.0 mph WNW3.2 kmh WNW 11.0 mph17.7 kmh 30.53 in1033.9 mb 0.00 in0.0 mm 0.00 in0.0 mm 0.00 in0.0 mm
01:37 PM 10.1°F-12.2°C -0.3°F-17.9°C 62% 3.0 mph W4.8 kmh W 11.0 mph17.7 kmh 30.53 in1033.9 mb 0.00 in0.0 mm 0.00 in0.0 mm 0.00 in0.0 mm
01:38 PM 10.1°F-12.2°C -0.3°F-17.9°C 62% 5.0 mph WSW8.0 kmh WSW 11.0 mph17.7 kmh 30.53 in1033.9 mb 0.00 in0.0 mm 0.00 in0.0 mm 0.00 in0.0 mm
01:39 PM 10.2°F-12.1°C -0.2°F-17.9°C 62% 4.0 mph WSW6.4 kmh WSW 10.0 mph16.1 kmh 30.53 in1033.9 mb 0.00 in0.0 mm 0.00 in0.0 mm 0.00 in0.0 mm
01:40 PM 10.3°F-12.1°C 0.2°F-17.7°C 63% 5.0 mph NW8.0 kmh NW 10.0 mph16.1 kmh 30.53 in1033.9 mb 0.00 in0.0 mm 0.00 in0.0 mm 0.00 in0.0 mm
01:41 PM 10.3°F-12.1°C 0.2°F-17.7°C 63% 6.0 mph NW9.7 kmh NW 10.0 mph16.1 kmh 30.53 in1033.9 mb 0.00 in0.0 mm 0.00 in0.0 mm 0.00 in0.0 mm
01:42 PM 10.3°F-12.1°C -0.2°F-17.9°C 62% 4.0 mph NNW6.4 kmh NNW 9.0 mph14.5 kmh 30.53 in1033.9 mb 0.00 in0.0 mm 0.00 in0.0 mm 0.00 in0.0 mm
01:43 PM 10.3°F-12.1°C -0.2°F-17.9°C 62% 3.0 mph WNW4.8 kmh WNW 9.0 mph14.5 kmh 30.54 in1034.2 mb 0.00 in0.0 mm 0.00 in0.0 mm 0.00 in0.0 mm
01:44 PM 10.3°F-12.1°C -0.2°F-17.9°C 62% 2.0 mph NNW3.2 kmh NNW 9.0 mph14.5 kmh 30.54 in1034.2 mb 0.00 in0.0 mm 0.00 in0.0 mm 0.00 in0.0 mm
01:45 PM 10.2°F-12.1°C -0.6°F-18.1°C 61% 7.0 mph WSW11.3 kmh WSW 9.0 mph14.5 kmh 30.54 in1034.2 mb 0.00 in0.0 mm 0.00 in0.0 mm 0.00 in0.0 mm
01:46 PM 10.2°F-12.1°C -0.6°F-18.1°C 61% 3.0 mph W4.8 kmh W 9.0 mph14.5 kmh 30.54 in1034.2 mb 0.00 in0.0 mm 0.00 in0.0 mm 0.00 in0.0 mm
01:47 PM 10.2°F-12.1°C -0.2°F-17.9°C 62% 8.0 mph WNW12.9 kmh WNW 11.0 mph17.7 kmh 30.54 in1034.2 mb 0.00 in0.0 mm 0.00 in0.0 mm 0.00 in0.0 mm
01:48 PM 10.3°F-12.1°C 0.2°F-17.7°C 63% 4.0 mph NNE6.4 kmh NNE 11.0 mph17.7 kmh 30.54 in1034.2 mb 0.00 in0.0 mm 0.00 in0.0 mm 0.00 in0.0 mm
01:49 PM 10.3°F-12.1°C 0.2°F-17.7°C 63% 3.0 mph N4.8 kmh N 11.0 mph17.7 kmh 30.54 in1034.2 mb 0.00 in0.0 mm 0.00 in0.0 mm 0.00 in0.0 mm
01:50 PM 10.4°F-12.0°C 0.3°F-17.6°C 63% 4.0 mph N6.4 kmh N 11.0 mph17.7 kmh 30.54 in1034.2 mb 0.00 in0.0 mm 0.00 in0.0 mm 0.00 in0.0 mm
01:51 PM 10.4°F-12.0°C -0.1°F-17.8°C 62% 4.0 mph NW6.4 kmh NW 11.0 mph17.7 kmh 30.54 in1034.2 mb 0.00 in0.0 mm 0.00 in0.0 mm 0.00 in0.0 mm
01:52 PM 10.5°F-11.9°C 0.0°F-17.8°C 62% 4.0 mph NW6.4 kmh NW 11.0 mph17.7 kmh 30.54 in1034.2 mb 0.00 in0.0 mm 0.00 in0.0 mm 0.00 in0.0 mm
01:53 PM 10.5°F-11.9°C 0.0°F-17.8°C 62% 2.0 mph N3.2 kmh N 11.0 mph17.7 kmh 30.54 in1034.2 mb 0.00 in0.0 mm 0.00 in0.0 mm 0.00 in0.0 mm
01:54 PM 10.5°F-11.9°C 0.0°F-17.8°C 62% 1.0 mph NE1.6 kmh NE 11.0 mph17.7 kmh 30.54 in1034.2 mb 0.00 in0.0 mm 0.00 in0.0 mm 0.00 in0.0 mm
01:55 PM 10.5°F-11.9°C 0.0°F-17.8°C 62% 2.0 mph NNE3.2 kmh NNE 11.0 mph17.7 kmh 30.54 in1034.2 mb 0.00 in0.0 mm 0.00 in0.0 mm 0.00 in0.0 mm
01:56 PM 10.5°F-11.9°C 0.0°F-17.8°C 62% 4.0 mph NW6.4 kmh NW 11.0 mph17.7 kmh 30.54 in1034.2 mb 0.00 in0.0 mm 0.00 in0.0 mm 0.00 in0.0 mm
01:57 PM 10.5°F-11.9°C 0.0°F-17.8°C 62% 4.0 mph NW6.4 kmh NW 8.0 mph12.9 kmh 30.54 in1034.2 mb 0.00 in0.0 mm 0.00 in0.0 mm 0.00 in0.0 mm
01:58 PM 10.6°F-11.9°C 0.5°F-17.5°C 63% 3.0 mph WNW4.8 kmh WNW 8.0 mph12.9 kmh 30.54 in1034.2 mb 0.00 in0.0 mm 0.00 in0.0 mm 0.00 in0.0 mm
01:59 PM 10.6°F-11.9°C 0.5°F-17.5°C 63% 4.0 mph NW6.4 kmh NW 8.0 mph12.9 kmh 30.54 in1034.2 mb 0.00 in0.0 mm 0.00 in0.0 mm 0.00 in0.0 mm
02:00 PM 10.7°F-11.8°C 0.6°F-17.4°C 63% 5.0 mph NW8.0 kmh NW 9.0 mph14.5 kmh 30.54 in1034.2 mb 0.00 in0.0 mm 0.00 in0.0 mm 0.00 in0.0 mm
02:01 PM 10.7°F-11.8°C 0.6°F-17.4°C 63% 4.0 mph NW6.4 kmh NW 9.0 mph14.5 kmh 30.54 in1034.2 mb 0.00 in0.0 mm 0.00 in0.0 mm 0.00 in0.0 mm
02:02 PM 10.8°F-11.8°C 0.3°F-17.6°C 62% 1.0 mph NW1.6 kmh NW 9.0 mph14.5 kmh 30.54 in1034.2 mb 0.00 in0.0 mm 0.00 in0.0 mm 0.00 in0.0 mm
02:03 PM 10.7°F-11.8°C 0.2°F-17.7°C 62% 6.0 mph NNW9.7 kmh NNW 9.0 mph14.5 kmh 30.54 in1034.2 mb 0.00 in0.0 mm 0.00 in0.0 mm 0.00 in0.0 mm
02:04 PM 10.7°F-11.8°C 0.2°F-17.7°C 62% 4.0 mph NW6.4 kmh NW 9.0 mph14.5 kmh 30.54 in1034.2 mb 0.00 in0.0 mm 0.00 in0.0 mm 0.00 in0.0 mm
02:05 PM 10.7°F-11.8°C -0.1°F-17.8°C 61% 1.0 mph NNW1.6 kmh NNW 9.0 mph14.5 kmh 30.54 in1034.2 mb 0.00 in0.0 mm 0.00 in0.0 mm 0.00 in0.0 mm
02:06 PM 10.7°F-11.8°C 0.2°F-17.7°C 62% 4.0 mph NW6.4 kmh NW 9.0 mph14.5 kmh 30.54 in1034.2 mb 0.00 in0.0 mm 0.00 in0.0 mm 0.00 in0.0 mm
02:07 PM 10.8°F-11.8°C 0.3°F-17.6°C 62% 4.0 mph W6.4 kmh W 9.0 mph14.5 kmh 30.54 in1034.2 mb 0.00 in0.0 mm 0.00 in0.0 mm 0.00 in0.0 mm
02:08 PM 10.8°F-11.8°C 0.3°F-17.6°C 62% 3.0 mph W4.8 kmh W 9.0 mph14.5 kmh 30.54 in1034.2 mb 0.00 in0.0 mm 0.00 in0.0 mm 0.00 in0.0 mm
02:09 PM 10.8°F-11.8°C 0.3°F-17.6°C 62% 3.0 mph NNW4.8 kmh NNW 9.0 mph14.5 kmh 30.54 in1034.2 mb 0.00 in0.0 mm 0.00 in0.0 mm 0.00 in0.0 mm
02:10 PM 10.8°F-11.8°C 0.3°F-17.6°C 62% 2.0 mph NW3.2 kmh NW 9.0 mph14.5 kmh 30.54 in1034.2 mb 0.00 in0.0 mm 0.00 in0.0 mm 0.00 in0.0 mm
02:11 PM 10.7°F-11.8°C -0.1°F-17.8°C 61% 3.0 mph NW4.8 kmh NW 9.0 mph14.5 kmh 30.54 in1034.2 mb 0.00 in0.0 mm 0.00 in0.0 mm 0.00 in0.0 mm
02:12 PM 10.7°F-11.8°C -0.1°F-17.8°C 61% 4.0 mph NNW6.4 kmh NNW 9.0 mph14.5 kmh 30.54 in1034.2 mb 0.00 in0.0 mm 0.00 in0.0 mm 0.00 in0.0 mm
02:13 PM 10.7°F-11.8°C -0.1°F-17.8°C 61% 4.0 mph NNW6.4 kmh NNW 9.0 mph14.5 kmh 30.54 in1034.2 mb 0.00 in0.0 mm 0.00 in0.0 mm 0.00 in0.0 mm
02:14 PM 10.7°F-11.8°C -0.1°F-17.8°C 61% 3.0 mph NNE4.8 kmh NNE 9.0 mph14.5 kmh 30.54 in1034.2 mb 0.00 in0.0 mm 0.00 in0.0 mm 0.00 in0.0 mm
02:15 PM 10.7°F-11.8°C -0.1°F-17.8°C 61% 4.0 mph NNE6.4 kmh NNE 9.0 mph14.5 kmh 30.54 in1034.2 mb 0.00 in0.0 mm 0.00 in0.0 mm 0.00 in0.0 mm
02:16 PM 10.7°F-11.8°C 0.2°F-17.7°C 62% 5.0 mph NNW8.0 kmh NNW 9.0 mph14.5 kmh 30.54 in1034.2 mb 0.00 in0.0 mm 0.00 in0.0 mm 0.00 in0.0 mm
02:17 PM 10.7°F-11.8°C 0.2°F-17.7°C 62% 1.0 mph N1.6 kmh N 10.0 mph16.1 kmh 30.54 in1034.2 mb 0.00 in0.0 mm 0.00 in0.0 mm 0.00 in0.0 mm
02:18 PM 10.7°F-11.8°C 0.2°F-17.7°C 62% 4.0 mph N6.4 kmh N 10.0 mph16.1 kmh 30.54 in1034.2 mb 0.00 in0.0 mm 0.00 in0.0 mm 0.00 in0.0 mm
02:19 PM 10.8°F-11.8°C 0.3°F-17.6°C 62% 5.0 mph NNW8.0 kmh NNW 10.0 mph16.1 kmh 30.54 in1034.2 mb 0.00 in0.0 mm 0.00 in0.0 mm 0.00 in0.0 mm
02:20 PM 10.9°F-11.7°C 0.4°F-17.6°C 62% 8.0 mph NE12.9 kmh NE 10.0 mph16.1 kmh 30.54 in1034.2 mb 0.00 in0.0 mm 0.00 in0.0 mm 0.00 in0.0 mm
02:21 PM 10.9°F-11.7°C 0.4°F-17.6°C 62% 4.0 mph NW6.4 kmh NW 10.0 mph16.1 kmh 30.54 in1034.2 mb 0.00 in0.0 mm 0.00 in0.0 mm 0.00 in0.0 mm
02:22 PM 10.9°F-11.7°C 0.4°F-17.6°C 62% 2.0 mph N3.2 kmh N 10.0 mph16.1 kmh 30.54 in1034.2 mb 0.00 in0.0 mm 0.00 in0.0 mm 0.00 in0.0 mm
02:23 PM 10.9°F-11.7°C 0.4°F-17.6°C 62% 4.0 mph NNW6.4 kmh NNW 10.0 mph16.1 kmh 30.53 in1033.9 mb 0.00 in0.0 mm 0.00 in0.0 mm 0.00 in0.0 mm
02:24 PM 10.9°F-11.7°C 0.4°F-17.6°C 62% 8.0 mph NNE12.9 kmh NNE 11.0 mph17.7 kmh 30.54 in1034.2 mb 0.00 in0.0 mm 0.00 in0.0 mm 0.00 in0.0 mm
02:25 PM 11.0°F-11.7°C 0.5°F-17.5°C 62% 3.0 mph N4.8 kmh N 11.0 mph17.7 kmh 30.54 in1034.2 mb 0.00 in0.0 mm 0.00 in0.0 mm 0.00 in0.0 mm
02:26 PM 11.0°F-11.7°C 0.2°F-17.7°C 61% 4.0 mph NNW6.4 kmh NNW 11.0 mph17.7 kmh 30.53 in1033.9 mb 0.00 in0.0 mm 0.00 in0.0 mm 0.00 in0.0 mm
02:27 PM 11.0°F-11.7°C 0.5°F-17.5°C 62% 3.0 mph NW4.8 kmh NW 11.0 mph17.7 kmh 30.54 in1034.2 mb 0.00 in0.0 mm 0.00 in0.0 mm 0.00 in0.0 mm
02:28 PM 11.1°F-11.6°C 0.9°F-17.3°C 63% 2.0 mph NW3.2 kmh NW 11.0 mph17.7 kmh 30.53 in1033.9 mb 0.00 in0.0 mm 0.00 in0.0 mm 0.00 in0.0 mm
02:29 PM 11.2°F-11.6°C 0.7°F-17.4°C 62% 3.0 mph NW4.8 kmh NW 11.0 mph17.7 kmh 30.53 in1033.9 mb 0.00 in0.0 mm 0.00 in0.0 mm 0.00 in0.0 mm
02:30 PM 11.2°F-11.6°C 0.4°F-17.6°C 61% 5.0 mph NNW8.0 kmh NNW 11.0 mph17.7 kmh 30.54 in1034.2 mb 0.00 in0.0 mm 0.00 in0.0 mm 0.00 in0.0 mm
02:31 PM 11.2°F-11.6°C 0.7°F-17.4°C 62% 5.0 mph NW8.0 kmh NW 11.0 mph17.7 kmh 30.53 in1033.9 mb 0.00 in0.0 mm 0.00 in0.0 mm 0.00 in0.0 mm
02:32 PM 11.2°F-11.6°C 0.4°F-17.6°C 61% 4.0 mph N6.4 kmh N 11.0 mph17.7 kmh 30.53 in1033.9 mb 0.00 in0.0 mm 0.00 in0.0 mm 0.00 in0.0 mm
02:33 PM 11.2°F-11.6°C 0.4°F-17.6°C 61% 5.0 mph NNW8.0 kmh NNW 11.0 mph17.7 kmh 30.53 in1033.9 mb 0.00 in0.0 mm 0.00 in0.0 mm 0.00 in0.0 mm
02:34 PM 11.2°F-11.6°C 0.4°F-17.6°C 61% 7.0 mph WNW11.3 kmh WNW 10.0 mph16.1 kmh 30.54 in1034.2 mb 0.00 in0.0 mm 0.00 in0.0 mm 0.00 in0.0 mm
02:35 PM 11.3°F-11.5°C 0.4°F-17.6°C 61% 4.0 mph NE6.4 kmh NE 10.0 mph16.1 kmh 30.54 in1034.2 mb 0.00 in0.0 mm 0.00 in0.0 mm 0.00 in0.0 mm
02:36 PM 11.3°F-11.5°C 0.4°F-17.6°C 61% 6.0 mph N9.7 kmh N 10.0 mph16.1 kmh 30.54 in1034.2 mb 0.00 in0.0 mm 0.00 in0.0 mm 0.00 in0.0 mm
02:37 PM 11.3°F-11.5°C 0.4°F-17.6°C 61% 3.0 mph N4.8 kmh N 10.0 mph16.1 kmh 30.54 in1034.2 mb 0.00 in0.0 mm 0.00 in0.0 mm 0.00 in0.0 mm
02:38 PM 11.4°F-11.4°C 0.5°F-17.5°C 61% 3.0 mph N4.8 kmh N 8.0 mph12.9 kmh 30.54 in1034.2 mb 0.00 in0.0 mm 0.00 in0.0 mm 0.00 in0.0 mm
02:39 PM 11.5°F-11.4°C 1.0°F-17.2°C 62% 2.0 mph NNW3.2 kmh NNW 8.0 mph12.9 kmh 30.54 in1034.2 mb 0.00 in0.0 mm 0.00 in0.0 mm 0.00 in0.0 mm
02:40 PM 11.6°F-11.3°C 1.1°F-17.2°C 62% 5.0 mph NNE8.0 kmh NNE 8.0 mph12.9 kmh 30.54 in1034.2 mb 0.00 in0.0 mm 0.00 in0.0 mm 0.00 in0.0 mm
02:41 PM 11.7°F-11.3°C 0.8°F-17.3°C 61% 2.0 mph W3.2 kmh W 8.0 mph12.9 kmh 30.54 in1034.2 mb 0.00 in0.0 mm 0.00 in0.0 mm 0.00 in0.0 mm
02:42 PM 11.7°F-11.3°C 0.8°F-17.3°C 61% 4.0 mph NW6.4 kmh NW 8.0 mph12.9 kmh 30.54 in1034.2 mb 0.00 in0.0 mm 0.00 in0.0 mm 0.00 in0.0 mm
02:43 PM 11.7°F-11.3°C 0.5°F-17.5°C 60% 2.0 mph W3.2 kmh W 8.0 mph12.9 kmh 30.54 in1034.2 mb 0.00 in0.0 mm 0.00 in0.0 mm 0.00 in0.0 mm
02:44 PM 11.7°F-11.3°C 0.5°F-17.5°C 60% 5.0 mph N8.0 kmh N 8.0 mph12.9 kmh 30.54 in1034.2 mb 0.00 in0.0 mm 0.00 in0.0 mm 0.00 in0.0 mm
02:45 PM 11.8°F-11.2°C 0.6°F-17.4°C 60% 6.0 mph N9.7 kmh N 8.0 mph12.9 kmh 30.54 in1034.2 mb 0.00 in0.0 mm 0.00 in0.0 mm 0.00 in0.0 mm
02:46 PM 11.7°F-11.3°C 0.5°F-17.5°C 60% 5.0 mph N8.0 kmh N 9.0 mph14.5 kmh 30.54 in1034.2 mb 0.00 in0.0 mm 0.00 in0.0 mm 0.00 in0.0 mm
02:47 PM 11.8°F-11.2°C 0.6°F-17.4°C 60% 4.0 mph N6.4 kmh N 9.0 mph14.5 kmh 30.54 in1034.2 mb 0.00 in0.0 mm 0.00 in0.0 mm 0.00 in0.0 mm
02:48 PM 11.8°F-11.2°C 0.6°F-17.4°C 60% 3.0 mph NNW4.8 kmh NNW 9.0 mph14.5 kmh 30.55 in1034.5 mb 0.00 in0.0 mm 0.00 in0.0 mm 0.00 in0.0 mm
02:49 PM 11.8°F-11.2°C 0.9°F-17.3°C 61% 3.0 mph NW4.8 kmh NW 9.0 mph14.5 kmh 30.55 in1034.5 mb 0.00 in0.0 mm 0.00 in0.0 mm 0.00 in0.0 mm
02:50 PM 11.8°F-11.2°C 0.9°F-17.3°C 61% 4.0 mph NNW6.4 kmh NNW 9.0 mph14.5 kmh 30.55 in1034.5 mb 0.00 in0.0 mm 0.00 in0.0 mm 0.00 in0.0 mm
02:51 PM 11.8°F-11.2°C 0.9°F-17.3°C 61% 2.0 mph WNW3.2 kmh WNW 9.0 mph14.5 kmh 30.55 in1034.5 mb 0.00 in0.0 mm 0.00 in0.0 mm 0.00 in0.0 mm
02:52 PM 11.8°F-11.2°C 0.9°F-17.3°C 61% 4.0 mph NW6.4 kmh NW 9.0 mph14.5 kmh 30.55 in1034.5 mb 0.00 in0.0 mm 0.00 in0.0 mm 0.00 in0.0 mm
02:53 PM 11.9°F-11.2°C 1.0°F-17.2°C 61% 6.0 mph NNE9.7 kmh NNE 9.0 mph14.5 kmh 30.55 in1034.5 mb 0.00 in0.0 mm 0.00 in0.0 mm 0.00 in0.0 mm
02:54 PM 11.9°F-11.2°C 1.0°F-17.2°C 61% 4.0 mph NW6.4 kmh NW 9.0 mph14.5 kmh 30.55 in1034.5 mb 0.00 in0.0 mm 0.00 in0.0 mm 0.00 in0.0 mm
02:55 PM 11.9°F-11.2°C 1.0°F-17.2°C 61% 6.0 mph NNE9.7 kmh NNE 9.0 mph14.5 kmh 30.55 in1034.5 mb 0.00 in0.0 mm 0.00 in0.0 mm 0.00 in0.0 mm
02:56 PM 12.0°F-11.1°C 1.1°F-17.2°C 61% 6.0 mph NNE9.7 kmh NNE 8.0 mph12.9 kmh 30.55 in1034.5 mb 0.00 in0.0 mm 0.00 in0.0 mm 0.00 in0.0 mm
02:57 PM 12.0°F-11.1°C 1.1°F-17.2°C 61% 5.0 mph NE8.0 kmh NE 8.0 mph12.9 kmh 30.55 in1034.5 mb 0.00 in0.0 mm 0.00 in0.0 mm 0.00 in0.0 mm
02:58 PM 12.0°F-11.1°C 1.1°F-17.2°C 61% 4.0 mph NNW6.4 kmh NNW 8.0 mph12.9 kmh 30.55 in1034.5 mb 0.00 in0.0 mm 0.00 in0.0 mm 0.00 in0.0 mm
02:59 PM 12.1°F-11.1°C 1.2°F-17.1°C 61% 2.0 mph N3.2 kmh N 8.0 mph12.9 kmh 30.55 in1034.5 mb 0.00 in0.0 mm 0.00 in0.0 mm 0.00 in0.0 mm
03:00 PM 12.1°F-11.1°C 1.6°F-16.9°C 62% 2.0 mph NE3.2 kmh NE 8.0 mph12.9 kmh 30.55 in1034.5 mb 0.00 in0.0 mm 0.00 in0.0 mm 0.00 in0.0 mm
03:01 PM 12.2°F-11.0°C 1.3°F-17.1°C 61% 4.0 mph NE6.4 kmh NE 9.0 mph14.5 kmh 30.55 in1034.5 mb 0.00 in0.0 mm 0.00 in0.0 mm 0.00 in0.0 mm
03:02 PM 12.2°F-11.0°C 1.3°F-17.1°C 61% 5.0 mph NNE8.0 kmh NNE 10.0 mph16.1 kmh 30.55 in1034.5 mb 0.00 in0.0 mm 0.00 in0.0 mm 0.00 in0.0 mm
03:03 PM 12.2°F-11.0°C 1.3°F-17.1°C 61% 9.0 mph NNE14.5 kmh NNE 11.0 mph17.7 kmh 30.55 in1034.5 mb 0.00 in0.0 mm 0.00 in0.0 mm 0.00 in0.0 mm
03:04 PM 12.3°F-10.9°C 1.0°F-17.2°C 60% 3.0 mph NNE4.8 kmh NNE 11.0 mph17.7 kmh 30.55 in1034.5 mb 0.00 in0.0 mm 0.00 in0.0 mm 0.00 in0.0 mm
03:05 PM 12.3°F-10.9°C 1.0°F-17.2°C 60% 4.0 mph NNE6.4 kmh NNE 11.0 mph17.7 kmh 30.55 in1034.5 mb 0.00 in0.0 mm 0.00 in0.0 mm 0.00 in0.0 mm
03:06 PM 12.2°F-11.0°C 0.9°F-17.3°C 60% 3.0 mph NNE4.8 kmh NNE 11.0 mph17.7 kmh 30.55 in1034.5 mb 0.00 in0.0 mm 0.00 in0.0 mm 0.00 in0.0 mm
03:07 PM 12.2°F-11.0°C 0.9°F-17.3°C 60% 2.0 mph N3.2 kmh N 11.0 mph17.7 kmh 30.55 in1034.5 mb 0.00 in0.0 mm 0.00 in0.0 mm 0.00 in0.0 mm
03:08 PM 12.2°F-11.0°C 0.9°F-17.3°C 60% 3.0 mph N4.8 kmh N 11.0 mph17.7 kmh 30.55 in1034.5 mb 0.00 in0.0 mm 0.00 in0.0 mm 0.00 in0.0 mm
03:09 PM 12.2°F-11.0°C 0.9°F-17.3°C 60% 2.0 mph N3.2 kmh N 11.0 mph17.7 kmh 30.55 in1034.5 mb 0.00 in0.0 mm 0.00 in0.0 mm 0.00 in0.0 mm
03:10 PM 12.2°F-11.0°C 1.7°F-16.8°C 62% 3.0 mph N4.8 kmh N 11.0 mph17.7 kmh 30.55 in1034.5 mb 0.00 in0.0 mm 0.00 in0.0 mm 0.00 in0.0 mm
03:11 PM 12.3°F-10.9°C 1.7°F-16.8°C 62% 5.0 mph NNE8.0 kmh NNE 11.0 mph17.7 kmh 30.55 in1034.5 mb 0.00 in0.0 mm 0.00 in0.0 mm 0.00 in0.0 mm
03:12 PM 12.3°F-10.9°C 1.7°F-16.8°C 62% 2.0 mph NNE3.2 kmh NNE 11.0 mph17.7 kmh 30.55 in1034.5 mb 0.00 in0.0 mm 0.00 in0.0 mm 0.00 in0.0 mm
03:13 PM 12.4°F-10.9°C 1.8°F-16.8°C 62% 4.0 mph NE6.4 kmh NE 10.0 mph16.1 kmh 30.55 in1034.5 mb 0.00 in0.0 mm 0.00 in0.0 mm 0.00 in0.0 mm
03:14 PM 12.4°F-10.9°C 1.8°F-16.8°C 62% 5.0 mph N8.0 kmh N 10.0 mph16.1 kmh 30.55 in1034.5 mb 0.00 in0.0 mm 0.00 in0.0 mm 0.00 in0.0 mm
03:15 PM 12.5°F-10.8°C 1.9°F-16.7°C 62% 4.0 mph N6.4 kmh N 10.0 mph16.1 kmh 30.56 in1034.9 mb 0.00 in0.0 mm 0.00 in0.0 mm 0.00 in0.0 mm
03:16 PM 12.4°F-10.9°C 1.1°F-17.2°C 60% 5.0 mph NNE8.0 kmh NNE 10.0 mph16.1 kmh 30.56 in1034.9 mb 0.00 in0.0 mm 0.00 in0.0 mm 0.00 in0.0 mm
03:17 PM 12.4°F-10.9°C 1.1°F-17.2°C 60% 4.0 mph N6.4 kmh N 10.0 mph16.1 kmh 30.56 in1034.9 mb 0.00 in0.0 mm 0.00 in0.0 mm 0.00 in0.0 mm
03:18 PM 12.4°F-10.9°C 0.8°F-17.3°C 59% 2.0 mph N3.2 kmh N 10.0 mph16.1 kmh 30.56 in1034.9 mb 0.00 in0.0 mm 0.00 in0.0 mm 0.00 in0.0 mm
03:19 PM 12.3°F-10.9°C 1.0°F-17.2°C 60% 4.0 mph NE6.4 kmh NE 10.0 mph16.1 kmh 30.56 in1034.9 mb 0.00 in0.0 mm 0.00 in0.0 mm 0.00 in0.0 mm
03:20 PM 12.3°F-10.9°C 1.0°F-17.2°C 60% 6.0 mph NNE9.7 kmh NNE 9.0 mph14.5 kmh 30.56 in1034.9 mb 0.00 in0.0 mm 0.00 in0.0 mm 0.00 in0.0 mm
03:21 PM 12.3°F-10.9°C 1.0°F-17.2°C 60% 1.0 mph NE1.6 kmh NE 9.0 mph14.5 kmh 30.56 in1034.9 mb 0.00 in0.0 mm 0.00 in0.0 mm 0.00 in0.0 mm
03:22 PM 12.3°F-10.9°C 1.7°F-16.8°C 62% 1.0 mph N1.6 kmh N 9.0 mph14.5 kmh 30.56 in1034.9 mb 0.00 in0.0 mm 0.00 in0.0 mm 0.00 in0.0 mm
03:23 PM 12.3°F-10.9°C 1.7°F-16.8°C 62% 2.0 mph NW3.2 kmh NW 9.0 mph14.5 kmh 30.57 in1035.2 mb 0.00 in0.0 mm 0.00 in0.0 mm 0.00 in0.0 mm
03:24 PM 12.4°F-10.9°C 1.5°F-16.9°C 61% 6.0 mph NW9.7 kmh NW 8.0 mph12.9 kmh 30.57 in1035.2 mb 0.00 in0.0 mm 0.00 in0.0 mm 0.00 in0.0 mm
03:25 PM 12.4°F-10.9°C 1.5°F-16.9°C 61% 3.0 mph NNE4.8 kmh NNE 8.0 mph12.9 kmh 30.57 in1035.2 mb 0.00 in0.0 mm 0.00 in0.0 mm 0.00 in0.0 mm
03:26 PM 12.4°F-10.9°C 1.5°F-16.9°C 61% 4.0 mph NNE6.4 kmh NNE 8.0 mph12.9 kmh 30.57 in1035.2 mb 0.00 in0.0 mm 0.00 in0.0 mm 0.00 in0.0 mm
03:27 PM 12.4°F-10.9°C 1.5°F-16.9°C 61% 2.0 mph NE3.2 kmh NE 8.0 mph12.9 kmh 30.57 in1035.2 mb 0.00 in0.0 mm 0.00 in0.0 mm 0.00 in0.0 mm
03:28 PM 12.4°F-10.9°C 1.5°F-16.9°C 61% 8.0 mph NW12.9 kmh NW 8.0 mph12.9 kmh 30.57 in1035.2 mb 0.00 in0.0 mm 0.00 in0.0 mm 0.00 in0.0 mm
03:29 PM 12.4°F-10.9°C 1.5°F-16.9°C 61% 6.0 mph N9.7 kmh N 9.0 mph14.5 kmh 30.57 in1035.2 mb 0.00 in0.0 mm 0.00 in0.0 mm 0.00 in0.0 mm
03:30 PM 12.4°F-10.9°C 1.1°F-17.2°C 60% 3.0 mph NW4.8 kmh NW 9.0 mph14.5 kmh 30.57 in1035.2 mb 0.00 in0.0 mm 0.00 in0.0 mm 0.00 in0.0 mm
03:31 PM 12.3°F-10.9°C 1.0°F-17.2°C 60% 2.0 mph NE3.2 kmh NE 9.0 mph14.5 kmh 30.57 in1035.2 mb 0.00 in0.0 mm 0.00 in0.0 mm 0.00 in0.0 mm
03:32 PM 12.3°F-10.9°C 1.0°F-17.2°C 60% 1.0 mph NE1.6 kmh NE 9.0 mph14.5 kmh 30.57 in1035.2 mb 0.00 in0.0 mm 0.00 in0.0 mm 0.00 in0.0 mm
03:33 PM 12.3°F-10.9°C 1.4°F-17.0°C 61% 3.0 mph NW4.8 kmh NW 9.0 mph14.5 kmh 30.57 in1035.2 mb 0.00 in0.0 mm 0.00 in0.0 mm 0.00 in0.0 mm
03:34 PM 12.3°F-10.9°C 1.0°F-17.2°C 60% 11.0 mph NW17.7 kmh NW 11.0 mph17.7 kmh 30.58 in1035.6 mb 0.00 in0.0 mm 0.00 in0.0 mm 0.00 in0.0 mm
03:35 PM 12.3°F-10.9°C 1.0°F-17.2°C 60% 3.0 mph NW4.8 kmh NW 11.0 mph17.7 kmh 30.57 in1035.2 mb 0.00 in0.0 mm 0.00 in0.0 mm 0.00 in0.0 mm
03:36 PM 12.3°F-10.9°C 1.0°F-17.2°C 60% 6.0 mph N9.7 kmh N 12.0 mph19.3 kmh 30.57 in1035.2 mb 0.00 in0.0 mm 0.00 in0.0 mm 0.00 in0.0 mm
03:37 PM 12.2°F-11.0°C 0.9°F-17.3°C 60% 4.0 mph NW6.4 kmh NW 12.0 mph19.3 kmh 30.57 in1035.2 mb 0.00 in0.0 mm 0.00 in0.0 mm 0.00 in0.0 mm
03:38 PM 12.3°F-10.9°C 1.0°F-17.2°C 60% 2.0 mph NE3.2 kmh NE 12.0 mph19.3 kmh 30.58 in1035.6 mb 0.00 in0.0 mm 0.00 in0.0 mm 0.00 in0.0 mm
03:39 PM 12.3°F-10.9°C 1.4°F-17.0°C 61% 3.0 mph NW4.8 kmh NW 12.0 mph19.3 kmh 30.58 in1035.6 mb 0.00 in0.0 mm 0.00 in0.0 mm 0.00 in0.0 mm
03:40 PM 12.3°F-10.9°C 1.4°F-17.0°C 61% 2.0 mph NNW3.2 kmh NNW 12.0 mph19.3 kmh 30.58 in1035.6 mb 0.00 in0.0 mm 0.00 in0.0 mm 0.00 in0.0 mm
03:41 PM 12.3°F-10.9°C 1.4°F-17.0°C 61% 3.0 mph NNW4.8 kmh NNW 12.0 mph19.3 kmh 30.58 in1035.6 mb 0.00 in0.0 mm 0.00 in0.0 mm 0.00 in0.0 mm
03:42 PM 12.3°F-10.9°C 1.4°F-17.0°C 61% 3.0 mph NE4.8 kmh NE 12.0 mph19.3 kmh 30.58 in1035.6 mb 0.00 in0.0 mm 0.00 in0.0 mm 0.00 in0.0 mm
03:43 PM 12.4°F-10.9°C 1.8°F-16.8°C 62% 7.0 mph WNW11.3 kmh WNW 12.0 mph19.3 kmh 30.58 in1035.6 mb 0.00 in0.0 mm 0.00 in0.0 mm 0.00 in0.0 mm
03:44 PM 12.4°F-10.9°C 1.5°F-16.9°C 61% 4.0 mph NW6.4 kmh NW 12.0 mph19.3 kmh 30.58 in1035.6 mb 0.00 in0.0 mm 0.00 in0.0 mm 0.00 in0.0 mm
03:45 PM 12.4°F-10.9°C 1.1°F-17.2°C 60% 2.0 mph NW3.2 kmh NW 12.0 mph19.3 kmh 30.58 in1035.6 mb 0.00 in0.0 mm 0.00 in0.0 mm 0.00 in0.0 mm
03:46 PM 12.4°F-10.9°C 1.5°F-16.9°C 61% 2.0 mph NW3.2 kmh NW 9.0 mph14.5 kmh 30.58 in1035.6 mb 0.00 in0.0 mm 0.00 in0.0 mm 0.00 in0.0 mm
03:47 PM 12.5°F-10.8°C 1.6°F-16.9°C 61% 1.0 mph NW1.6 kmh NW 9.0 mph14.5 kmh 30.58 in1035.6 mb 0.00 in0.0 mm 0.00 in0.0 mm 0.00 in0.0 mm
03:48 PM 12.5°F-10.8°C 1.6°F-16.9°C 61% 3.0 mph NE4.8 kmh NE 9.0 mph14.5 kmh 30.58 in1035.6 mb 0.00 in0.0 mm 0.00 in0.0 mm 0.00 in0.0 mm
03:49 PM 12.5°F-10.8°C 1.6°F-16.9°C 61% 2.0 mph NNW3.2 kmh NNW 9.0 mph14.5 kmh 30.58 in1035.6 mb 0.00 in0.0 mm 0.00 in0.0 mm 0.00 in0.0 mm
03:50 PM 12.5°F-10.8°C 1.6°F-16.9°C 61% 2.0 mph NW3.2 kmh NW 9.0 mph14.5 kmh 30.58 in1035.6 mb 0.00 in0.0 mm 0.00 in0.0 mm 0.00 in0.0 mm
03:51 PM 12.5°F-10.8°C 1.6°F-16.9°C 61% 4.0 mph NNW6.4 kmh NNW 9.0 mph14.5 kmh 30.58 in1035.6 mb 0.00 in0.0 mm 0.00 in0.0 mm 0.00 in0.0 mm
03:52 PM 12.5°F-10.8°C 1.6°F-16.9°C 61% 4.0 mph N6.4 kmh N 9.0 mph14.5 kmh 30.58 in1035.6 mb 0.00 in0.0 mm 0.00 in0.0 mm 0.00 in0.0 mm
03:53 PM 12.6°F-10.8°C 1.7°F-16.8°C 61% 2.0 mph NW3.2 kmh NW 9.0 mph14.5 kmh 30.58 in1035.6 mb 0.00 in0.0 mm 0.00 in0.0 mm 0.00 in0.0 mm
03:54 PM 12.6°F-10.8°C 1.7°F-16.8°C 61% 2.0 mph NW3.2 kmh NW 9.0 mph14.5 kmh 30.58 in1035.6 mb 0.00 in0.0 mm 0.00 in0.0 mm 0.00 in0.0 mm
03:55 PM 12.6°F-10.8°C 1.7°F-16.8°C 61% 3.0 mph NW4.8 kmh NW 9.0 mph14.5 kmh 30.58 in1035.6 mb 0.00 in0.0 mm 0.00 in0.0 mm 0.00 in0.0 mm
03:56 PM 12.6°F-10.8°C 1.7°F-16.8°C 61% 1.0 mph NNW1.6 kmh NNW 9.0 mph14.5 kmh 30.58 in1035.6 mb 0.00 in0.0 mm 0.00 in0.0 mm 0.00 in0.0 mm
03:57 PM 12.6°F-10.8°C 2.0°F-16.7°C 62% 3.0 mph NW4.8 kmh NW 9.0 mph14.5 kmh 30.58 in1035.6 mb 0.00 in0.0 mm 0.00 in0.0 mm 0.00 in0.0 mm
03:58 PM 12.6°F-10.8°C 2.0°F-16.7°C 62% 2.0 mph NW3.2 kmh NW 9.0 mph14.5 kmh 30.58 in1035.6 mb 0.00 in0.0 mm 0.00 in0.0 mm 0.00 in0.0 mm
03:59 PM 12.7°F-10.7°C 2.1°F-16.6°C 62% 1.0 mph NNE1.6 kmh NNE 9.0 mph14.5 kmh 30.58 in1035.6 mb 0.00 in0.0 mm 0.00 in0.0 mm 0.00 in0.0 mm
04:00 PM 12.7°F-10.7°C 2.1°F-16.6°C 62% 2.0 mph NW3.2 kmh NW 9.0 mph14.5 kmh 30.58 in1035.6 mb 0.00 in0.0 mm 0.00 in0.0 mm 0.00 in0.0 mm
04:01 PM 12.8°F-10.7°C 2.2°F-16.6°C 62% 3.0 mph NW4.8 kmh NW 9.0 mph14.5 kmh 30.58 in1035.6 mb 0.00 in0.0 mm 0.00 in0.0 mm 0.00 in0.0 mm
04:02 PM 12.8°F-10.7°C 1.9°F-16.7°C 61% 3.0 mph N4.8 kmh N 7.0 mph11.3 kmh 30.58 in1035.6 mb 0.00 in0.0 mm 0.00 in0.0 mm 0.00 in0.0 mm
04:03 PM 12.8°F-10.7°C 1.9°F-16.7°C 61% 1.0 mph NW1.6 kmh NW 7.0 mph11.3 kmh 30.58 in1035.6 mb 0.00 in0.0 mm 0.00 in0.0 mm 0.00 in0.0 mm
04:04 PM 12.7°F-10.7°C 1.8°F-16.8°C 61% 2.0 mph NW3.2 kmh NW 10.0 mph16.1 kmh 30.59 in1035.9 mb 0.00 in0.0 mm 0.00 in0.0 mm 0.00 in0.0 mm
04:05 PM 12.8°F-10.7°C 1.9°F-16.7°C 61% 3.0 mph N4.8 kmh N 10.0 mph16.1 kmh 30.59 in1035.9 mb 0.00 in0.0 mm 0.00 in0.0 mm 0.00 in0.0 mm
04:06 PM 12.8°F-10.7°C 1.9°F-16.7°C 61% 3.0 mph NW4.8 kmh NW 10.0 mph16.1 kmh 30.58 in1035.6 mb 0.00 in0.0 mm 0.00 in0.0 mm 0.00 in0.0 mm
04:07 PM 12.7°F-10.7°C 1.4°F-17.0°C 60% 7.0 mph NW11.3 kmh NW 10.0 mph16.1 kmh 30.59 in1035.9 mb 0.00 in0.0 mm 0.00 in0.0 mm 0.00 in0.0 mm
04:08 PM 12.7°F-10.7°C 1.8°F-16.8°C 61% 3.0 mph WSW4.8 kmh WSW 10.0 mph16.1 kmh 30.59 in1035.9 mb 0.00 in0.0 mm 0.00 in0.0 mm 0.00 in0.0 mm
04:09 PM 12.7°F-10.7°C 1.8°F-16.8°C 61% 4.0 mph N6.4 kmh N 11.0 mph17.7 kmh 30.59 in1035.9 mb 0.00 in0.0 mm 0.00 in0.0 mm 0.00 in0.0 mm
04:10 PM 12.7°F-10.7°C 1.4°F-17.0°C 60% 5.0 mph NW8.0 kmh NW 11.0 mph17.7 kmh 30.59 in1035.9 mb 0.00 in0.0 mm 0.00 in0.0 mm 0.00 in0.0 mm
04:11 PM 12.6°F-10.8°C 1.7°F-16.8°C 61% 2.0 mph NW3.2 kmh NW 11.0 mph17.7 kmh 30.59 in1035.9 mb 0.00 in0.0 mm 0.00 in0.0 mm 0.00 in0.0 mm
04:12 PM 12.7°F-10.7°C 1.8°F-16.8°C 61% 3.0 mph NNE4.8 kmh NNE 11.0 mph17.7 kmh 30.59 in1035.9 mb 0.00 in0.0 mm 0.00 in0.0 mm 0.00 in0.0 mm
04:13 PM 12.6°F-10.8°C 1.7°F-16.8°C 61% 3.0 mph NW4.8 kmh NW 11.0 mph17.7 kmh 30.59 in1035.9 mb 0.00 in0.0 mm 0.00 in0.0 mm 0.00 in0.0 mm
04:14 PM 12.6°F-10.8°C 1.7°F-16.8°C 61% 3.0 mph NW4.8 kmh NW 11.0 mph17.7 kmh 30.59 in1035.9 mb 0.00 in0.0 mm 0.00 in0.0 mm 0.00 in0.0 mm
04:15 PM 12.6°F-10.8°C 1.7°F-16.8°C 61% 3.0 mph WNW4.8 kmh WNW 11.0 mph17.7 kmh 30.59 in1035.9 mb 0.00 in0.0 mm 0.00 in0.0 mm 0.00 in0.0 mm
04:16 PM 12.6°F-10.8°C 1.7°F-16.8°C 61% 3.0 mph NW4.8 kmh NW 11.0 mph17.7 kmh 30.59 in1035.9 mb 0.00 in0.0 mm 0.00 in0.0 mm 0.00 in0.0 mm
04:17 PM 12.6°F-10.8°C 1.7°F-16.8°C 61% 3.0 mph N4.8 kmh N 11.0 mph17.7 kmh 30.59 in1035.9 mb 0.00 in0.0 mm 0.00 in0.0 mm 0.00 in0.0 mm
04:18 PM 12.6°F-10.8°C 2.0°F-16.7°C 62% 5.0 mph NNW8.0 kmh NNW 11.0 mph17.7 kmh 30.59 in1035.9 mb 0.00 in0.0 mm 0.00 in0.0 mm 0.00 in0.0 mm
04:19 PM 12.6°F-10.8°C 2.0°F-16.7°C 62% 3.0 mph N4.8 kmh N 8.0 mph12.9 kmh 30.59 in1035.9 mb 0.00 in0.0 mm 0.00 in0.0 mm 0.00 in0.0 mm
04:20 PM 12.6°F-10.8°C 2.0°F-16.7°C 62% 4.0 mph N6.4 kmh N 8.0 mph12.9 kmh 30.59 in1035.9 mb 0.00 in0.0 mm 0.00 in0.0 mm 0.00 in0.0 mm
04:21 PM 12.6°F-10.8°C 1.7°F-16.8°C 61% 4.0 mph NW6.4 kmh NW 8.0 mph12.9 kmh 30.59 in1035.9 mb 0.00 in0.0 mm 0.00 in0.0 mm 0.00 in0.0 mm
04:22 PM 12.6°F-10.8°C 1.7°F-16.8°C 61% 5.0 mph N8.0 kmh N 8.0 mph12.9 kmh 30.59 in1035.9 mb 0.00 in0.0 mm 0.00 in0.0 mm 0.00 in0.0 mm
04:23 PM 12.6°F-10.8°C 2.0°F-16.7°C 62% 3.0 mph N4.8 kmh N 8.0 mph12.9 kmh 30.59 in1035.9 mb 0.00 in0.0 mm 0.00 in0.0 mm 0.00 in0.0 mm
04:24 PM 12.6°F-10.8°C 2.0°F-16.7°C 62% 2.0 mph N3.2 kmh N 8.0 mph12.9 kmh 30.60 in1036.2 mb 0.00 in0.0 mm 0.00 in0.0 mm 0.00 in0.0 mm
04:25 PM 12.6°F-10.8°C 2.0°F-16.7°C 62% 3.0 mph N4.8 kmh N 8.0 mph12.9 kmh 30.60 in1036.2 mb 0.00 in0.0 mm 0.00 in0.0 mm 0.00 in0.0 mm
04:26 PM 12.6°F-10.8°C 2.0°F-16.7°C 62% 2.0 mph N3.2 kmh N 8.0 mph12.9 kmh 30.60 in1036.2 mb 0.00 in0.0 mm 0.00 in0.0 mm 0.00 in0.0 mm
04:27 PM 12.6°F-10.8°C 2.0°F-16.7°C 62% 1.0 mph N1.6 kmh N 8.0 mph12.9 kmh 30.60 in1036.2 mb 0.00 in0.0 mm 0.00 in0.0 mm 0.00 in0.0 mm
04:28 PM 12.6°F-10.8°C 2.0°F-16.7°C 62% 3.0 mph N4.8 kmh N 8.0 mph12.9 kmh 30.60 in1036.2 mb 0.00 in0.0 mm 0.00 in0.0 mm 0.00 in0.0 mm
04:29 PM 12.6°F-10.8°C 2.4°F-16.4°C 63% 4.0 mph N6.4 kmh N 8.0 mph12.9 kmh 30.60 in1036.2 mb 0.00 in0.0 mm 0.00 in0.0 mm 0.00 in0.0 mm
04:30 PM 12.7°F-10.7°C 2.5°F-16.4°C 63% 5.0 mph NE8.0 kmh NE 11.0 mph17.7 kmh 30.60 in1036.2 mb 0.00 in0.0 mm 0.00 in0.0 mm 0.00 in0.0 mm
04:31 PM 12.6°F-10.8°C 2.0°F-16.7°C 62% 3.0 mph NNE4.8 kmh NNE 11.0 mph17.7 kmh 30.60 in1036.2 mb 0.00 in0.0 mm 0.00 in0.0 mm 0.00 in0.0 mm
04:32 PM 12.7°F-10.7°C 2.1°F-16.6°C 62% 2.0 mph NE3.2 kmh NE 11.0 mph17.7 kmh 30.60 in1036.2 mb 0.00 in0.0 mm 0.00 in0.0 mm 0.00 in0.0 mm
04:33 PM 12.6°F-10.8°C 2.0°F-16.7°C 62% 5.0 mph NE8.0 kmh NE 11.0 mph17.7 kmh 30.60 in1036.2 mb 0.00 in0.0 mm 0.00 in0.0 mm 0.00 in0.0 mm
04:34 PM 12.7°F-10.7°C 1.8°F-16.8°C 61% 3.0 mph NW4.8 kmh NW 11.0 mph17.7 kmh 30.60 in1036.2 mb 0.00 in0.0 mm 0.00 in0.0 mm 0.00 in0.0 mm
04:35 PM 12.6°F-10.8°C 1.7°F-16.8°C 61% 4.0 mph NE6.4 kmh NE 11.0 mph17.7 kmh 30.60 in1036.2 mb 0.00 in0.0 mm 0.00 in0.0 mm 0.00 in0.0 mm
04:36 PM 12.6°F-10.8°C 1.7°F-16.8°C 61% 4.0 mph N6.4 kmh N 11.0 mph17.7 kmh 30.60 in1036.2 mb 0.00 in0.0 mm 0.00 in0.0 mm 0.00 in0.0 mm
04:37 PM 12.6°F-10.8°C 1.7°F-16.8°C 61% 1.0 mph NE1.6 kmh NE 11.0 mph17.7 kmh 30.60 in1036.2 mb 0.00 in0.0 mm 0.00 in0.0 mm 0.00 in0.0 mm
04:38 PM 12.6°F-10.8°C 1.7°F-16.8°C 61% 1.0 mph N1.6 kmh N 11.0 mph17.7 kmh 30.60 in1036.2 mb 0.00 in0.0 mm 0.00 in0.0 mm 0.00 in0.0 mm
04:39 PM 12.6°F-10.8°C 1.7°F-16.8°C 61% 3.0 mph NW4.8 kmh NW 11.0 mph17.7 kmh 30.60 in1036.2 mb 0.00 in0.0 mm 0.00 in0.0 mm 0.00 in0.0 mm
04:40 PM 12.6°F-10.8°C 2.0°F-16.7°C 62% 6.0 mph NNE9.7 kmh NNE 11.0 mph17.7 kmh 30.60 in1036.2 mb 0.00 in0.0 mm 0.00 in0.0 mm 0.00 in0.0 mm
04:41 PM 12.6°F-10.8°C 1.7°F-16.8°C 61% 5.0 mph NE8.0 kmh NE 11.0 mph17.7 kmh 30.60 in1036.2 mb 0.00 in0.0 mm 0.00 in0.0 mm 0.00 in0.0 mm
04:42 PM 12.6°F-10.8°C 1.7°F-16.8°C 61% 3.0 mph NNE4.8 kmh NNE 11.0 mph17.7 kmh 30.60 in1036.2 mb 0.00 in0.0 mm 0.00 in0.0 mm 0.00 in0.0 mm
04:43 PM 12.5°F-10.8°C 1.6°F-16.9°C 61% 6.0 mph NE9.7 kmh NE 11.0 mph17.7 kmh 30.60 in1036.2 mb 0.00 in0.0 mm 0.00 in0.0 mm 0.00 in0.0 mm
04:44 PM 12.5°F-10.8°C 1.6°F-16.9°C 61% 6.0 mph NNW9.7 kmh NNW 11.0 mph17.7 kmh 30.60 in1036.2 mb 0.00 in0.0 mm 0.00 in0.0 mm 0.00 in0.0 mm
04:45 PM 12.5°F-10.8°C 1.6°F-16.9°C 61% 6.0 mph N9.7 kmh N 11.0 mph17.7 kmh 30.60 in1036.2 mb 0.00 in0.0 mm 0.00 in0.0 mm 0.00 in0.0 mm
04:46 PM 12.5°F-10.8°C 1.6°F-16.9°C 61% 3.0 mph N4.8 kmh N 11.0 mph17.7 kmh 30.60 in1036.2 mb 0.00 in0.0 mm 0.00 in0.0 mm 0.00 in0.0 mm
04:47 PM 12.4°F-10.9°C 1.8°F-16.8°C 62% 2.0 mph NE3.2 kmh NE 11.0 mph17.7 kmh 30.60 in1036.2 mb 0.00 in0.0 mm 0.00 in0.0 mm 0.00 in0.0 mm
04:48 PM 12.4°F-10.9°C 1.8°F-16.8°C 62% 5.0 mph NW8.0 kmh NW 11.0 mph17.7 kmh 30.60 in1036.2 mb 0.00 in0.0 mm 0.00 in0.0 mm 0.00 in0.0 mm
04:49 PM 12.3°F-10.9°C 1.7°F-16.8°C 62% 3.0 mph N4.8 kmh N 11.0 mph17.7 kmh 30.60 in1036.2 mb 0.00 in0.0 mm 0.00 in0.0 mm 0.00 in0.0 mm
04:50 PM 12.3°F-10.9°C 1.4°F-17.0°C 61% 3.0 mph NNW4.8 kmh NNW 11.0 mph17.7 kmh 30.60 in1036.2 mb 0.00 in0.0 mm 0.00 in0.0 mm 0.00 in0.0 mm
04:51 PM 12.3°F-10.9°C 1.4°F-17.0°C 61% 2.0 mph NNE3.2 kmh NNE 11.0 mph17.7 kmh 30.60 in1036.2 mb 0.00 in0.0 mm 0.00 in0.0 mm 0.00 in0.0 mm
04:52 PM 12.3°F-10.9°C 1.4°F-17.0°C 61% 4.0 mph NNW6.4 kmh NNW 11.0 mph17.7 kmh 30.60 in1036.2 mb 0.00 in0.0 mm 0.00 in0.0 mm 0.00 in0.0 mm
04:53 PM 12.2°F-11.0°C 1.3°F-17.1°C 61% 5.0 mph NNE8.0 kmh NNE 11.0 mph17.7 kmh 30.60 in1036.2 mb 0.00 in0.0 mm 0.00 in0.0 mm 0.00 in0.0 mm
04:54 PM 12.2°F-11.0°C 1.7°F-16.8°C 62% 3.0 mph NW4.8 kmh NW 11.0 mph17.7 kmh 30.60 in1036.2 mb 0.00 in0.0 mm 0.00 in0.0 mm 0.00 in0.0 mm
04:55 PM 12.2°F-11.0°C 1.7°F-16.8°C 62% 5.0 mph NNW8.0 kmh NNW 8.0 mph12.9 kmh 30.60 in1036.2 mb 0.00 in0.0 mm 0.00 in0.0 mm 0.00 in0.0 mm
04:56 PM 12.2°F-11.0°C 1.7°F-16.8°C 62% 4.0 mph NNE6.4 kmh NNE 8.0 mph12.9 kmh 30.60 in1036.2 mb 0.00 in0.0 mm 0.00 in0.0 mm 0.00 in0.0 mm
04:57 PM 12.2°F-11.0°C 1.7°F-16.8°C 62% 4.0 mph N6.4 kmh N 8.0 mph12.9 kmh 30.60 in1036.2 mb 0.00 in0.0 mm 0.00 in0.0 mm 0.00 in0.0 mm
04:58 PM 12.1°F-11.1°C 1.6°F-16.9°C 62% 5.0 mph N8.0 kmh N 11.0 mph17.7 kmh 30.60 in1036.2 mb 0.00 in0.0 mm 0.00 in0.0 mm 0.00 in0.0 mm
04:59 PM 12.1°F-11.1°C 1.6°F-16.9°C 62% 5.0 mph NE8.0 kmh NE 11.0 mph17.7 kmh 30.61 in1036.6 mb 0.00 in0.0 mm 0.00 in0.0 mm 0.00 in0.0 mm
05:00 PM 12.1°F-11.1°C 1.6°F-16.9°C 62% 1.0 mph NNE1.6 kmh NNE 11.0 mph17.7 kmh 30.60 in1036.2 mb 0.00 in0.0 mm 0.00 in0.0 mm 0.00 in0.0 mm
05:01 PM 12.1°F-11.1°C 1.6°F-16.9°C 62% 3.0 mph NNE4.8 kmh NNE 11.0 mph17.7 kmh 30.60 in1036.2 mb 0.00 in0.0 mm 0.00 in0.0 mm 0.00 in0.0 mm
05:02 PM 12.1°F-11.1°C 1.6°F-16.9°C 62% 2.0 mph NNE3.2 kmh NNE 11.0 mph17.7 kmh 30.61 in1036.6 mb 0.00 in0.0 mm 0.00 in0.0 mm 0.00 in0.0 mm
05:03 PM 12.1°F-11.1°C 1.9°F-16.7°C 63% 3.0 mph NE4.8 kmh NE 11.0 mph17.7 kmh 30.61 in1036.6 mb 0.00 in0.0 mm 0.00 in0.0 mm 0.00 in0.0 mm
05:04 PM 12.1°F-11.1°C 1.9°F-16.7°C 63% Calm Calm 11.0 mph17.7 kmh 30.61 in1036.6 mb 0.00 in0.0 mm 0.00 in0.0 mm 0.00 in0.0 mm
05:05 PM 12.1°F-11.1°C 1.9°F-16.7°C 63% 2.0 mph NE3.2 kmh NE 11.0 mph17.7 kmh 30.61 in1036.6 mb 0.00 in0.0 mm 0.00 in0.0 mm 0.00 in0.0 mm
05:06 PM 12.1°F-11.1°C 1.9°F-16.7°C 63% 1.0 mph NE1.6 kmh NE 11.0 mph17.7 kmh 30.61 in1036.6 mb 0.00 in0.0 mm 0.00 in0.0 mm 0.00 in0.0 mm
05:07 PM 12.1°F-11.1°C 1.9°F-16.7°C 63% 4.0 mph NNE6.4 kmh NNE 11.0 mph17.7 kmh 30.61 in1036.6 mb 0.00 in0.0 mm 0.00 in0.0 mm 0.00 in0.0 mm
05:08 PM 12.1°F-11.1°C 1.9°F-16.7°C 63% 3.0 mph NNE4.8 kmh NNE 9.0 mph14.5 kmh 30.61 in1036.6 mb 0.00 in0.0 mm 0.00 in0.0 mm 0.00 in0.0 mm
05:09 PM 12.1°F-11.1°C 1.9°F-16.7°C 63% 3.0 mph NW4.8 kmh NW 6.0 mph9.7 kmh 30.61 in1036.6 mb 0.00 in0.0 mm 0.00 in0.0 mm 0.00 in0.0 mm
05:10 PM 12.1°F-11.1°C 1.9°F-16.7°C 63% 4.0 mph NNE6.4 kmh NNE 6.0 mph9.7 kmh 30.61 in1036.6 mb 0.00 in0.0 mm 0.00 in0.0 mm 0.00 in0.0 mm
05:11 PM 12.1°F-11.1°C 1.9°F-16.7°C 63% 2.0 mph NW3.2 kmh NW 6.0 mph9.7 kmh 30.61 in1036.6 mb 0.00 in0.0 mm 0.00 in0.0 mm 0.00 in0.0 mm
05:12 PM 12.1°F-11.1°C 1.9°F-16.7°C 63% 3.0 mph NW4.8 kmh NW 6.0 mph9.7 kmh 30.62 in1036.9 mb 0.00 in0.0 mm 0.00 in0.0 mm 0.00 in0.0 mm
05:13 PM 12.2°F-11.0°C 2.0°F-16.7°C 63% 2.0 mph NW3.2 kmh NW 6.0 mph9.7 kmh 30.62 in1036.9 mb 0.00 in0.0 mm 0.00 in0.0 mm 0.00 in0.0 mm
05:14 PM 12.2°F-11.0°C 2.0°F-16.7°C 63% 3.0 mph NNW4.8 kmh NNW 6.0 mph9.7 kmh 30.62 in1036.9 mb 0.00 in0.0 mm 0.00 in0.0 mm 0.00 in0.0 mm
05:15 PM 12.2°F-11.0°C 2.0°F-16.7°C 63% 3.0 mph NNE4.8 kmh NNE 6.0 mph9.7 kmh 30.62 in1036.9 mb 0.00 in0.0 mm 0.00 in0.0 mm 0.00 in0.0 mm
05:16 PM 12.2°F-11.0°C 2.0°F-16.7°C 63% 4.0 mph NE6.4 kmh NE 6.0 mph9.7 kmh 30.62 in1036.9 mb 0.00 in0.0 mm 0.00 in0.0 mm 0.00 in0.0 mm
05:17 PM 12.2°F-11.0°C 2.0°F-16.7°C 63% 5.0 mph NNE8.0 kmh NNE 8.0 mph12.9 kmh 30.62 in1036.9 mb 0.00 in0.0 mm 0.00 in0.0 mm 0.00 in0.0 mm
05:18 PM 12.2°F-11.0°C 1.7°F-16.8°C 62% 3.0 mph NNE4.8 kmh NNE 8.0 mph12.9 kmh 30.62 in1036.9 mb 0.00 in0.0 mm 0.00 in0.0 mm 0.00 in0.0 mm
05:19 PM 12.2°F-11.0°C 1.7°F-16.8°C 62% 5.0 mph NNW8.0 kmh NNW 8.0 mph12.9 kmh 30.62 in1036.9 mb 0.00 in0.0 mm 0.00 in0.0 mm 0.00 in0.0 mm
05:20 PM 12.2°F-11.0°C 1.7°F-16.8°C 62% 4.0 mph N6.4 kmh N 8.0 mph12.9 kmh 30.62 in1036.9 mb 0.00 in0.0 mm 0.00 in0.0 mm 0.00 in0.0 mm
05:21 PM 12.2°F-11.0°C 1.7°F-16.8°C 62% 3.0 mph NNW4.8 kmh NNW 8.0 mph12.9 kmh 30.62 in1036.9 mb 0.00 in0.0 mm 0.00 in0.0 mm 0.00 in0.0 mm
05:22 PM 12.2°F-11.0°C 1.7°F-16.8°C 62% 1.0 mph NW1.6 kmh NW 8.0 mph12.9 kmh 30.62 in1036.9 mb 0.00 in0.0 mm 0.00 in0.0 mm 0.00 in0.0 mm
05:23 PM 12.2°F-11.0°C 2.0°F-16.7°C 63% 3.0 mph NW4.8 kmh NW 8.0 mph12.9 kmh 30.62 in1036.9 mb 0.00 in0.0 mm 0.00 in0.0 mm 0.00 in0.0 mm
05:24 PM 12.2°F-11.0°C 2.0°F-16.7°C 63% 5.0 mph NNE8.0 kmh NNE 8.0 mph12.9 kmh 30.62 in1036.9 mb 0.00 in0.0 mm 0.00 in0.0 mm 0.00 in0.0 mm
05:25 PM 12.2°F-11.0°C 2.0°F-16.7°C 63% 2.0 mph NNE3.2 kmh NNE 8.0 mph12.9 kmh 30.62 in1036.9 mb 0.00 in0.0 mm 0.00 in0.0 mm 0.00 in0.0 mm
05:26 PM 12.2°F-11.0°C 2.0°F-16.7°C 63% 1.0 mph NNE1.6 kmh NNE 8.0 mph12.9 kmh 30.62 in1036.9 mb 0.00 in0.0 mm 0.00 in0.0 mm 0.00 in0.0 mm
05:27 PM 12.2°F-11.0°C 2.0°F-16.7°C 63% 1.0 mph NNE1.6 kmh NNE 8.0 mph12.9 kmh 30.62 in1036.9 mb 0.00 in0.0 mm 0.00 in0.0 mm 0.00 in0.0 mm
05:28 PM 12.2°F-11.0°C 2.0°F-16.7°C 63% 2.0 mph NNE3.2 kmh NNE 8.0 mph12.9 kmh 30.62 in1036.9 mb 0.00 in0.0 mm 0.00 in0.0 mm 0.00 in0.0 mm
05:29 PM 12.2°F-11.0°C 2.0°F-16.7°C 63% 2.0 mph NNE3.2 kmh NNE 8.0 mph12.9 kmh 30.62 in1036.9 mb 0.00 in0.0 mm 0.00 in0.0 mm 0.00 in0.0 mm
05:30 PM 12.2°F-11.0°C 2.0°F-16.7°C 63% 1.0 mph NNE1.6 kmh NNE 8.0 mph12.9 kmh 30.62 in1036.9 mb 0.00 in0.0 mm 0.00 in0.0 mm 0.00 in0.0 mm
05:31 PM 12.3°F-10.9°C 2.1°F-16.6°C 63% 2.0 mph NNE3.2 kmh NNE 8.0 mph12.9 kmh 30.62 in1036.9 mb 0.00 in0.0 mm 0.00 in0.0 mm 0.00 in0.0 mm
05:32 PM 12.3°F-10.9°C 2.4°F-16.4°C 64% 2.0 mph NNE3.2 kmh NNE 8.0 mph12.9 kmh 30.62 in1036.9 mb 0.00 in0.0 mm 0.00 in0.0 mm 0.00 in0.0 mm
05:33 PM 12.3°F-10.9°C 2.1°F-16.6°C 63% 4.0 mph N6.4 kmh N 8.0 mph12.9 kmh 30.62 in1036.9 mb 0.00 in0.0 mm 0.00 in0.0 mm 0.00 in0.0 mm
05:34 PM 12.3°F-10.9°C 2.1°F-16.6°C 63% 2.0 mph NW3.2 kmh NW 8.0 mph12.9 kmh 30.62 in1036.9 mb 0.00 in0.0 mm 0.00 in0.0 mm 0.00 in0.0 mm
05:35 PM 12.3°F-10.9°C 2.1°F-16.6°C 63% 4.0 mph NNW6.4 kmh NNW 6.0 mph9.7 kmh 30.62 in1036.9 mb 0.00 in0.0 mm 0.00 in0.0 mm 0.00 in0.0 mm
05:36 PM 12.3°F-10.9°C 2.1°F-16.6°C 63% 8.0 mph NW12.9 kmh NW 10.0 mph16.1 kmh 30.62 in1036.9 mb 0.00 in0.0 mm 0.00 in0.0 mm 0.00 in0.0 mm
05:37 PM 12.3°F-10.9°C 2.1°F-16.6°C 63% 2.0 mph NW3.2 kmh NW 10.0 mph16.1 kmh 30.62 in1036.9 mb 0.00 in0.0 mm 0.00 in0.0 mm 0.00 in0.0 mm
05:38 PM 12.3°F-10.9°C 2.1°F-16.6°C 63% 5.0 mph WNW8.0 kmh WNW 10.0 mph16.1 kmh 30.62 in1036.9 mb 0.00 in0.0 mm 0.00 in0.0 mm 0.00 in0.0 mm
05:39 PM 12.3°F-10.9°C 2.1°F-16.6°C 63% 2.0 mph NNE3.2 kmh NNE 10.0 mph16.1 kmh 30.62 in1036.9 mb 0.00 in0.0 mm 0.00 in0.0 mm 0.00 in0.0 mm
05:40 PM 12.3°F-10.9°C 2.1°F-16.6°C 63% 1.0 mph NNE1.6 kmh NNE 10.0 mph16.1 kmh 30.62 in1036.9 mb 0.00 in0.0 mm 0.00 in0.0 mm 0.00 in0.0 mm
05:41 PM 12.3°F-10.9°C 2.1°F-16.6°C 63% 5.0 mph NNW8.0 kmh NNW 10.0 mph16.1 kmh 30.63 in1037.3 mb 0.00 in0.0 mm 0.00 in0.0 mm 0.00 in0.0 mm
05:42 PM 12.3°F-10.9°C 2.1°F-16.6°C 63% 1.0 mph NE1.6 kmh NE 10.0 mph16.1 kmh 30.62 in1036.9 mb 0.00 in0.0 mm 0.00 in0.0 mm 0.00 in0.0 mm
05:43 PM 12.4°F-10.9°C 2.5°F-16.4°C 64% 2.0 mph NNW3.2 kmh NNW 10.0 mph16.1 kmh 30.62 in1036.9 mb 0.00 in0.0 mm 0.00 in0.0 mm 0.00 in0.0 mm
05:44 PM 12.4°F-10.9°C 2.5°F-16.4°C 64% 2.0 mph NW3.2 kmh NW 10.0 mph16.1 kmh 30.62 in1036.9 mb 0.00 in0.0 mm 0.00 in0.0 mm 0.00 in0.0 mm
05:45 PM 12.5°F-10.8°C 2.3°F-16.5°C 63% 1.0 mph NW1.6 kmh NW 10.0 mph16.1 kmh 30.62 in1036.9 mb 0.00 in0.0 mm 0.00 in0.0 mm 0.00 in0.0 mm
05:46 PM 12.5°F-10.8°C 2.3°F-16.5°C 63% 1.0 mph NW1.6 kmh NW 8.0 mph12.9 kmh 30.62 in1036.9 mb 0.00 in0.0 mm 0.00 in0.0 mm 0.00 in0.0 mm
05:47 PM 12.5°F-10.8°C 2.3°F-16.5°C 63% 2.0 mph NW3.2 kmh NW 8.0 mph12.9 kmh 30.62 in1036.9 mb 0.00 in0.0 mm 0.00 in0.0 mm 0.00 in0.0 mm
05:48 PM 12.5°F-10.8°C 2.6°F-16.3°C 64% Calm Calm 8.0 mph12.9 kmh 30.62 in1036.9 mb 0.00 in0.0 mm 0.00 in0.0 mm 0.00 in0.0 mm
05:49 PM 12.5°F-10.8°C 2.6°F-16.3°C 64% Calm Calm 8.0 mph12.9 kmh 30.62 in1036.9 mb 0.00 in0.0 mm 0.00 in0.0 mm 0.00 in0.0 mm
05:50 PM 12.5°F-10.8°C 2.6°F-16.3°C 64% 2.0 mph NW3.2 kmh NW 8.0 mph12.9 kmh 30.62 in1036.9 mb 0.00 in0.0 mm 0.00 in0.0 mm 0.00 in0.0 mm
05:51 PM 12.6°F-10.8°C 2.7°F-16.3°C 64% 4.0 mph NW6.4 kmh NW 8.0 mph12.9 kmh 30.63 in1037.3 mb 0.00 in0.0 mm 0.00 in0.0 mm 0.00 in0.0 mm
05:52 PM 12.6°F-10.8°C 2.4°F-16.4°C 63% 5.0 mph N8.0 kmh N 6.0 mph9.7 kmh 30.62 in1036.9 mb 0.00 in0.0 mm 0.00 in0.0 mm 0.00 in0.0 mm
05:53 PM 12.6°F-10.8°C 2.4°F-16.4°C 63% 4.0 mph NNE6.4 kmh NNE 6.0 mph9.7 kmh 30.63 in1037.3 mb 0.00 in0.0 mm 0.00 in0.0 mm 0.00 in0.0 mm
05:54 PM 12.6°F-10.8°C 2.4°F-16.4°C 63% 2.0 mph NE3.2 kmh NE 6.0 mph9.7 kmh 30.63 in1037.3 mb 0.00 in0.0 mm 0.00 in0.0 mm 0.00 in0.0 mm
05:55 PM 12.6°F-10.8°C 2.4°F-16.4°C 63% 2.0 mph NNE3.2 kmh NNE 6.0 mph9.7 kmh 30.63 in1037.3 mb 0.00 in0.0 mm 0.00 in0.0 mm 0.00 in0.0 mm
05:56 PM 12.6°F-10.8°C 2.4°F-16.4°C 63% 4.0 mph NW6.4 kmh NW 6.0 mph9.7 kmh 30.63 in1037.3 mb 0.00 in0.0 mm 0.00 in0.0 mm 0.00 in0.0 mm
05:57 PM 12.6°F-10.8°C 2.4°F-16.4°C 63% 2.0 mph N3.2 kmh N 6.0 mph9.7 kmh 30.63 in1037.3 mb 0.00 in0.0 mm 0.00 in0.0 mm 0.00 in0.0 mm
05:58 PM 12.6°F-10.8°C 2.4°F-16.4°C 63% 6.0 mph NW9.7 kmh NW 6.0 mph9.7 kmh 30.63 in1037.3 mb 0.00 in0.0 mm 0.00 in0.0 mm 0.00 in0.0 mm
05:59 PM 12.6°F-10.8°C 2.4°F-16.4°C 63% 2.0 mph NNE3.2 kmh NNE 6.0 mph9.7 kmh 30.63 in1037.3 mb 0.00 in0.0 mm 0.00 in0.0 mm 0.00 in0.0 mm
06:00 PM 12.6°F-10.8°C 2.4°F-16.4°C 63% 1.0 mph NNE1.6 kmh NNE 6.0 mph9.7 kmh 30.63 in1037.3 mb 0.00 in0.0 mm 0.00 in0.0 mm 0.00 in0.0 mm
06:01 PM 12.6°F-10.8°C 2.4°F-16.4°C 63% 3.0 mph N4.8 kmh N 6.0 mph9.7 kmh 30.63 in1037.3 mb 0.00 in0.0 mm 0.00 in0.0 mm 0.00 in0.0 mm
06:02 PM 12.6°F-10.8°C 2.7°F-16.3°C 64% 3.0 mph N4.8 kmh N 6.0 mph9.7 kmh 30.63 in1037.3 mb 0.00 in0.0 mm 0.00 in0.0 mm 0.00 in0.0 mm
06:03 PM 12.6°F-10.8°C 2.7°F-16.3°C 64% 3.0 mph NW4.8 kmh NW 6.0 mph9.7 kmh 30.63 in1037.3 mb 0.00 in0.0 mm 0.00 in0.0 mm 0.00 in0.0 mm
06:04 PM 12.7°F-10.7°C 2.8°F-16.2°C 64% Calm Calm 6.0 mph9.7 kmh 30.63 in1037.3 mb 0.00 in0.0 mm 0.00 in0.0 mm 0.00 in0.0 mm
06:05 PM 12.6°F-10.8°C 2.7°F-16.3°C 64% 5.0 mph NE8.0 kmh NE 6.0 mph9.7 kmh 30.63 in1037.3 mb 0.00 in0.0 mm 0.00 in0.0 mm 0.00 in0.0 mm
06:06 PM 12.7°F-10.7°C 2.8°F-16.2°C 64% 2.0 mph NNW3.2 kmh NNW 6.0 mph9.7 kmh 30.63 in1037.3 mb 0.00 in0.0 mm 0.00 in0.0 mm 0.00 in0.0 mm
06:07 PM 12.7°F-10.7°C 2.8°F-16.2°C 64% 2.0 mph NNE3.2 kmh NNE 6.0 mph9.7 kmh 30.63 in1037.3 mb 0.00 in0.0 mm 0.00 in0.0 mm 0.00 in0.0 mm
06:08 PM 12.7°F-10.7°C 2.8°F-16.2°C 64% 5.0 mph NNE8.0 kmh NNE 6.0 mph9.7 kmh 30.63 in1037.3 mb 0.00 in0.0 mm 0.00 in0.0 mm 0.00 in0.0 mm
06:09 PM 12.7°F-10.7°C 2.8°F-16.2°C 64% 5.0 mph NE8.0 kmh NE 7.0 mph11.3 kmh 30.63 in1037.3 mb 0.00 in0.0 mm 0.00 in0.0 mm 0.00 in0.0 mm
06:10 PM 12.7°F-10.7°C 2.5°F-16.4°C 63% 2.0 mph N3.2 kmh N 7.0 mph11.3 kmh 30.63 in1037.3 mb 0.00 in0.0 mm 0.00 in0.0 mm 0.00 in0.0 mm
06:11 PM 12.7°F-10.7°C 2.5°F-16.4°C 63% 4.0 mph NNE6.4 kmh NNE 7.0 mph11.3 kmh 30.63 in1037.3 mb 0.00 in0.0 mm 0.00 in0.0 mm 0.00 in0.0 mm
06:12 PM 12.7°F-10.7°C 2.8°F-16.2°C 64% 5.0 mph N8.0 kmh N 7.0 mph11.3 kmh 30.64 in1037.6 mb 0.00 in0.0 mm 0.00 in0.0 mm 0.00 in0.0 mm
06:13 PM 12.7°F-10.7°C 2.8°F-16.2°C 64% 4.0 mph NE6.4 kmh NE 7.0 mph11.3 kmh 30.64 in1037.6 mb 0.00 in0.0 mm 0.00 in0.0 mm 0.00 in0.0 mm
06:14 PM 12.7°F-10.7°C 2.8°F-16.2°C 64% 3.0 mph N4.8 kmh N 7.0 mph11.3 kmh 30.64 in1037.6 mb 0.00 in0.0 mm 0.00 in0.0 mm 0.00 in0.0 mm
06:15 PM 12.7°F-10.7°C 2.8°F-16.2°C 64% 3.0 mph NW4.8 kmh NW 7.0 mph11.3 kmh 30.64 in1037.6 mb 0.00 in0.0 mm 0.00 in0.0 mm 0.00 in0.0 mm
06:16 PM 12.7°F-10.7°C 2.8°F-16.2°C 64% 4.0 mph N6.4 kmh N 7.0 mph11.3 kmh 30.64 in1037.6 mb 0.00 in0.0 mm 0.00 in0.0 mm 0.00 in0.0 mm
06:17 PM 12.7°F-10.7°C 2.8°F-16.2°C 64% 4.0 mph NNE6.4 kmh NNE 8.0 mph12.9 kmh 30.64 in1037.6 mb 0.00 in0.0 mm 0.00 in0.0 mm 0.00 in0.0 mm
06:18 PM 12.7°F-10.7°C 2.8°F-16.2°C 64% 4.0 mph NNW6.4 kmh NNW 8.0 mph12.9 kmh 30.64 in1037.6 mb 0.00 in0.0 mm 0.00 in0.0 mm 0.00 in0.0 mm
06:19 PM 12.7°F-10.7°C 2.8°F-16.2°C 64% 3.0 mph N4.8 kmh N 8.0 mph12.9 kmh 30.64 in1037.6 mb 0.00 in0.0 mm 0.00 in0.0 mm 0.00 in0.0 mm
06:20 PM 12.8°F-10.7°C 2.9°F-16.2°C 64% 2.0 mph N3.2 kmh N 8.0 mph12.9 kmh 30.64 in1037.6 mb 0.00 in0.0 mm 0.00 in0.0 mm 0.00 in0.0 mm
06:21 PM 12.8°F-10.7°C 2.9°F-16.2°C 64% 2.0 mph N3.2 kmh N 8.0 mph12.9 kmh 30.64 in1037.6 mb 0.00 in0.0 mm 0.00 in0.0 mm 0.00 in0.0 mm
06:22 PM 12.8°F-10.7°C 3.2°F-16.0°C 65% 3.0 mph NNW4.8 kmh NNW 8.0 mph12.9 kmh 30.64 in1037.6 mb 0.00 in0.0 mm 0.00 in0.0 mm 0.00 in0.0 mm
06:23 PM 12.8°F-10.7°C 2.9°F-16.2°C 64% 3.0 mph NW4.8 kmh NW 8.0 mph12.9 kmh 30.64 in1037.6 mb 0.00 in0.0 mm 0.00 in0.0 mm 0.00 in0.0 mm
06:24 PM 12.8°F-10.7°C 2.9°F-16.2°C 64% 3.0 mph W4.8 kmh W 8.0 mph12.9 kmh 30.64 in1037.6 mb 0.00 in0.0 mm 0.00 in0.0 mm 0.00 in0.0 mm
06:25 PM 12.8°F-10.7°C 2.9°F-16.2°C 64% 3.0 mph W4.8 kmh W 8.0 mph12.9 kmh 30.64 in1037.6 mb 0.00 in0.0 mm 0.00 in0.0 mm 0.00 in0.0 mm
06:26 PM 12.8°F-10.7°C 2.9°F-16.2°C 64% 5.0 mph N8.0 kmh N 8.0 mph12.9 kmh 30.64 in1037.6 mb 0.00 in0.0 mm 0.00 in0.0 mm 0.00 in0.0 mm
06:27 PM 12.8°F-10.7°C 2.9°F-16.2°C 64% 4.0 mph NNW6.4 kmh NNW 7.0 mph11.3 kmh 30.64 in1037.6 mb 0.00 in0.0 mm 0.00 in0.0 mm 0.00 in0.0 mm
06:28 PM 12.8°F-10.7°C 2.9°F-16.2°C 64% 2.0 mph NW3.2 kmh NW 8.0 mph12.9 kmh 30.65 in1037.9 mb 0.00 in0.0 mm 0.00 in0.0 mm 0.00 in0.0 mm
06:29 PM 12.8°F-10.7°C 2.9°F-16.2°C 64% 2.0 mph NW3.2 kmh NW 8.0 mph12.9 kmh 30.65 in1037.9 mb 0.00 in0.0 mm 0.00 in0.0 mm 0.00 in0.0 mm
06:30 PM 12.8°F-10.7°C 2.9°F-16.2°C 64% 4.0 mph NNW6.4 kmh NNW 8.0 mph12.9 kmh 30.65 in1037.9 mb 0.00 in0.0 mm 0.00 in0.0 mm 0.00 in0.0 mm
06:31 PM 12.8°F-10.7°C 2.9°F-16.2°C 64% 4.0 mph NNW6.4 kmh NNW 8.0 mph12.9 kmh 30.65 in1037.9 mb 0.00 in0.0 mm 0.00 in0.0 mm 0.00 in0.0 mm
06:32 PM 12.8°F-10.7°C 2.9°F-16.2°C 64% 5.0 mph NW8.0 kmh NW 10.0 mph16.1 kmh 30.65 in1037.9 mb 0.00 in0.0 mm 0.00 in0.0 mm 0.00 in0.0 mm
06:33 PM 12.8°F-10.7°C 2.9°F-16.2°C 64% 3.0 mph NNE4.8 kmh NNE 10.0 mph16.1 kmh 30.65 in1037.9 mb 0.00 in0.0 mm 0.00 in0.0 mm 0.00 in0.0 mm
06:34 PM 12.8°F-10.7°C 2.9°F-16.2°C 64% 1.0 mph N1.6 kmh N 10.0 mph16.1 kmh 30.65 in1037.9 mb 0.00 in0.0 mm 0.00 in0.0 mm 0.00 in0.0 mm
06:35 PM 12.8°F-10.7°C 2.9°F-16.2°C 64% 2.0 mph NW3.2 kmh NW 10.0 mph16.1 kmh 30.65 in1037.9 mb 0.00 in0.0 mm 0.00 in0.0 mm 0.00 in0.0 mm
06:36 PM 12.8°F-10.7°C 2.9°F-16.2°C 64% 2.0 mph N3.2 kmh N 10.0 mph16.1 kmh 30.65 in1037.9 mb 0.00 in0.0 mm 0.00 in0.0 mm 0.00 in0.0 mm
06:37 PM 12.7°F-10.7°C 2.8°F-16.2°C 64% 2.0 mph NE3.2 kmh NE 10.0 mph16.1 kmh 30.65 in1037.9 mb 0.00 in0.0 mm 0.00 in0.0 mm 0.00 in0.0 mm
06:38 PM 12.8°F-10.7°C 2.9°F-16.2°C 64% 3.0 mph NW4.8 kmh NW 10.0 mph16.1 kmh 30.65 in1037.9 mb 0.00 in0.0 mm 0.00 in0.0 mm 0.00 in0.0 mm
06:39 PM 12.8°F-10.7°C 2.9°F-16.2°C 64% 3.0 mph N4.8 kmh N 10.0 mph16.1 kmh 30.65 in1037.9 mb 0.00 in0.0 mm 0.00 in0.0 mm 0.00 in0.0 mm
06:40 PM 12.8°F-10.7°C 2.9°F-16.2°C 64% 3.0 mph NNE4.8 kmh NNE 10.0 mph16.1 kmh 30.65 in1037.9 mb 0.00 in0.0 mm 0.00 in0.0 mm 0.00 in0.0 mm
06:41 PM 12.8°F-10.7°C 2.9°F-16.2°C 64% 5.0 mph NW8.0 kmh NW 10.0 mph16.1 kmh 30.65 in1037.9 mb 0.00 in0.0 mm 0.00 in0.0 mm 0.00 in0.0 mm
06:42 PM 12.8°F-10.7°C 3.2°F-16.0°C 65% 3.0 mph N4.8 kmh N 8.0 mph12.9 kmh 30.65 in1037.9 mb 0.00 in0.0 mm 0.00 in0.0 mm 0.00 in0.0 mm
06:43 PM 12.8°F-10.7°C 3.2°F-16.0°C 65% 2.0 mph NNE3.2 kmh NNE 8.0 mph12.9 kmh 30.65 in1037.9 mb 0.00 in0.0 mm 0.00 in0.0 mm 0.00 in0.0 mm
06:44 PM 12.8°F-10.7°C 3.2°F-16.0°C 65% 4.0 mph NW6.4 kmh NW 8.0 mph12.9 kmh 30.65 in1037.9 mb 0.00 in0.0 mm 0.00 in0.0 mm 0.00 in0.0 mm
06:45 PM 12.9°F-10.6°C 3.3°F-15.9°C 65% 3.0 mph N4.8 kmh N 7.0 mph11.3 kmh 30.65 in1037.9 mb 0.00 in0.0 mm 0.00 in0.0 mm 0.00 in0.0 mm
06:46 PM 12.9°F-10.6°C 3.0°F-16.1°C 64% 3.0 mph NW4.8 kmh NW 7.0 mph11.3 kmh 30.65 in1037.9 mb 0.00 in0.0 mm 0.00 in0.0 mm 0.00 in0.0 mm
06:47 PM 12.9°F-10.6°C 3.0°F-16.1°C 64% 6.0 mph NW9.7 kmh NW 7.0 mph11.3 kmh 30.65 in1037.9 mb 0.00 in0.0 mm 0.00 in0.0 mm 0.00 in0.0 mm
06:48 PM 12.8°F-10.7°C 2.9°F-16.2°C 64% 2.0 mph N3.2 kmh N 7.0 mph11.3 kmh 30.66 in1038.3 mb 0.00 in0.0 mm 0.00 in0.0 mm 0.00 in0.0 mm
06:49 PM 12.8°F-10.7°C 2.9°F-16.2°C 64% 3.0 mph NW4.8 kmh NW 7.0 mph11.3 kmh 30.66 in1038.3 mb 0.00 in0.0 mm 0.00 in0.0 mm 0.00 in0.0 mm
06:50 PM 12.8°F-10.7°C 2.9°F-16.2°C 64% 2.0 mph NW3.2 kmh NW 8.0 mph12.9 kmh 30.66 in1038.3 mb 0.00 in0.0 mm 0.00 in0.0 mm 0.00 in0.0 mm
06:51 PM 12.8°F-10.7°C 2.9°F-16.2°C 64% 3.0 mph NW4.8 kmh NW 8.0 mph12.9 kmh 30.66 in1038.3 mb 0.00 in0.0 mm 0.00 in0.0 mm 0.00 in0.0 mm
06:52 PM 12.8°F-10.7°C 2.9°F-16.2°C 64% 4.0 mph NE6.4 kmh NE 8.0 mph12.9 kmh 30.66 in1038.3 mb 0.00 in0.0 mm 0.00 in0.0 mm 0.00 in0.0 mm
06:53 PM 12.8°F-10.7°C 2.9°F-16.2°C 64% 2.0 mph N3.2 kmh N 9.0 mph14.5 kmh 30.66 in1038.3 mb 0.00 in0.0 mm 0.00 in0.0 mm 0.00 in0.0 mm
06:54 PM 12.8°F-10.7°C 2.9°F-16.2°C 64% 3.0 mph NNW4.8 kmh NNW 9.0 mph14.5 kmh 30.66 in1038.3 mb 0.00 in0.0 mm 0.00 in0.0 mm 0.00 in0.0 mm
06:55 PM 12.8°F-10.7°C 2.9°F-16.2°C 64% 4.0 mph NW6.4 kmh NW 9.0 mph14.5 kmh 30.66 in1038.3 mb 0.00 in0.0 mm 0.00 in0.0 mm 0.00 in0.0 mm
06:56 PM 12.8°F-10.7°C 2.9°F-16.2°C 64% 3.0 mph NW4.8 kmh NW 9.0 mph14.5 kmh 30.66 in1038.3 mb 0.00 in0.0 mm 0.00 in0.0 mm 0.00 in0.0 mm
06:57 PM 12.8°F-10.7°C 3.2°F-16.0°C 65% 5.0 mph NNW8.0 kmh NNW 10.0 mph16.1 kmh 30.66 in1038.3 mb 0.00 in0.0 mm 0.00 in0.0 mm 0.00 in0.0 mm
06:58 PM 12.8°F-10.7°C 2.9°F-16.2°C 64% 3.0 mph NNW4.8 kmh NNW 10.0 mph16.1 kmh 30.66 in1038.3 mb 0.00 in0.0 mm 0.00 in0.0 mm 0.00 in0.0 mm
06:59 PM 12.8°F-10.7°C 2.9°F-16.2°C 64% 3.0 mph NW4.8 kmh NW 10.0 mph16.1 kmh 30.66 in1038.3 mb 0.00 in0.0 mm 0.00 in0.0 mm 0.00 in0.0 mm
07:00 PM 12.7°F-10.7°C 2.8°F-16.2°C 64% 3.0 mph NW4.8 kmh NW 10.0 mph16.1 kmh 30.66 in1038.3 mb 0.00 in0.0 mm 0.00 in0.0 mm 0.00 in0.0 mm
07:01 PM 12.7°F-10.7°C 2.8°F-16.2°C 64% 4.0 mph NW6.4 kmh NW 10.0 mph16.1 kmh 30.66 in1038.3 mb 0.00 in0.0 mm 0.00 in0.0 mm 0.00 in0.0 mm
07:02 PM 12.7°F-10.7°C 2.8°F-16.2°C 64% 1.0 mph NW1.6 kmh NW 10.0 mph16.1 kmh 30.66 in1038.3 mb 0.00 in0.0 mm 0.00 in0.0 mm 0.00 in0.0 mm
07:03 PM 12.7°F-10.7°C 2.8°F-16.2°C 64% 4.0 mph NNW6.4 kmh NNW 10.0 mph16.1 kmh 30.66 in1038.3 mb 0.00 in0.0 mm 0.00 in0.0 mm 0.00 in0.0 mm
07:04 PM 12.7°F-10.7°C 3.1°F-16.1°C 65% 2.0 mph N3.2 kmh N 10.0 mph16.1 kmh 30.66 in1038.3 mb 0.00 in0.0 mm 0.00 in0.0 mm 0.00 in0.0 mm
07:05 PM 12.7°F-10.7°C 3.1°F-16.1°C 65% 1.0 mph NNE1.6 kmh NNE 10.0 mph16.1 kmh 30.66 in1038.3 mb 0.00 in0.0 mm 0.00 in0.0 mm 0.00 in0.0 mm
07:06 PM 12.7°F-10.7°C 3.1°F-16.1°C 65% 3.0 mph NW4.8 kmh NW 10.0 mph16.1 kmh 30.66 in1038.3 mb 0.00 in0.0 mm 0.00 in0.0 mm 0.00 in0.0 mm
07:07 PM 12.6°F-10.8°C 2.7°F-16.3°C 64% 3.0 mph NW4.8 kmh NW 8.0 mph12.9 kmh 30.66 in1038.3 mb 0.00 in0.0 mm 0.00 in0.0 mm 0.00 in0.0 mm
07:08 PM 12.6°F-10.8°C 2.7°F-16.3°C 64% 2.0 mph NW3.2 kmh NW 7.0 mph11.3 kmh 30.66 in1038.3 mb 0.00 in0.0 mm 0.00 in0.0 mm 0.00 in0.0 mm
07:09 PM 12.6°F-10.8°C 2.7°F-16.3°C 64% 5.0 mph NW8.0 kmh NW 6.0 mph9.7 kmh 30.66 in1038.3 mb 0.00 in0.0 mm 0.00 in0.0 mm 0.00 in0.0 mm
07:10 PM 12.6°F-10.8°C 3.1°F-16.1°C 65% 9.0 mph NW14.5 kmh NW 9.0 mph14.5 kmh 30.66 in1038.3 mb 0.00 in0.0 mm 0.00 in0.0 mm 0.00 in0.0 mm
07:11 PM 12.6°F-10.8°C 2.7°F-16.3°C 64% 3.0 mph NW4.8 kmh NW 10.0 mph16.1 kmh 30.66 in1038.3 mb 0.00 in0.0 mm 0.00 in0.0 mm 0.00 in0.0 mm
07:12 PM 12.5°F-10.8°C 2.6°F-16.3°C 64% 4.0 mph NNW6.4 kmh NNW 10.0 mph16.1 kmh 30.66 in1038.3 mb 0.00 in0.0 mm 0.00 in0.0 mm 0.00 in0.0 mm
07:13 PM 12.5°F-10.8°C 3.0°F-16.1°C 65% 2.0 mph NNW3.2 kmh NNW 10.0 mph16.1 kmh 30.66 in1038.3 mb 0.00 in0.0 mm 0.00 in0.0 mm 0.00 in0.0 mm
07:14 PM 12.5°F-10.8°C 2.6°F-16.3°C 64% 4.0 mph NNW6.4 kmh NNW 10.0 mph16.1 kmh 30.66 in1038.3 mb 0.00 in0.0 mm 0.00 in0.0 mm 0.00 in0.0 mm
07:15 PM 12.5°F-10.8°C 2.6°F-16.3°C 64% 3.0 mph N4.8 kmh N 10.0 mph16.1 kmh 30.66 in1038.3 mb 0.00 in0.0 mm 0.00 in0.0 mm 0.00 in0.0 mm
07:16 PM 12.4°F-10.9°C 2.5°F-16.4°C 64% 2.0 mph NNW3.2 kmh NNW 10.0 mph16.1 kmh 30.66 in1038.3 mb 0.00 in0.0 mm 0.00 in0.0 mm 0.00 in0.0 mm
07:17 PM 12.4°F-10.9°C 2.5°F-16.4°C 64% 2.0 mph NNW3.2 kmh NNW 10.0 mph16.1 kmh 30.66 in1038.3 mb 0.00 in0.0 mm 0.00 in0.0 mm 0.00 in0.0 mm
07:18 PM 12.4°F-10.9°C 2.9°F-16.2°C 65% 3.0 mph NNE4.8 kmh NNE 10.0 mph16.1 kmh 30.66 in1038.3 mb 0.00 in0.0 mm 0.00 in0.0 mm 0.00 in0.0 mm
07:19 PM 12.4°F-10.9°C 2.9°F-16.2°C 65% 2.0 mph NE3.2 kmh NE 10.0 mph16.1 kmh 30.66 in1038.3 mb 0.00 in0.0 mm 0.00 in0.0 mm 0.00 in0.0 mm
07:20 PM 12.3°F-10.9°C 2.8°F-16.2°C 65% 2.0 mph NE3.2 kmh NE 10.0 mph16.1 kmh 30.66 in1038.3 mb 0.00 in0.0 mm 0.00 in0.0 mm 0.00 in0.0 mm
07:21 PM 12.3°F-10.9°C 2.8°F-16.2°C 65% 5.0 mph N8.0 kmh N 9.0 mph14.5 kmh 30.66 in1038.3 mb 0.00 in0.0 mm 0.00 in0.0 mm 0.00 in0.0 mm
07:22 PM 12.3°F-10.9°C 2.8°F-16.2°C 65% 2.0 mph NW3.2 kmh NW 9.0 mph14.5 kmh 30.67 in1038.6 mb 0.00 in0.0 mm 0.00 in0.0 mm 0.00 in0.0 mm
07:23 PM 12.3°F-10.9°C 2.8°F-16.2°C 65% 2.0 mph NNW3.2 kmh NNW 9.0 mph14.5 kmh 30.67 in1038.6 mb 0.00 in0.0 mm 0.00 in0.0 mm 0.00 in0.0 mm
07:24 PM 12.3°F-10.9°C 2.8°F-16.2°C 65% 2.0 mph NNW3.2 kmh NNW 8.0 mph12.9 kmh 30.67 in1038.6 mb 0.00 in0.0 mm 0.00 in0.0 mm 0.00 in0.0 mm
07:25 PM 12.2°F-11.0°C 2.7°F-16.3°C 65% 1.0 mph NNW1.6 kmh NNW 8.0 mph12.9 kmh 30.67 in1038.6 mb 0.00 in0.0 mm 0.00 in0.0 mm 0.00 in0.0 mm
07:26 PM 12.2°F-11.0°C 2.7°F-16.3°C 65% 4.0 mph NNW6.4 kmh NNW 9.0 mph14.5 kmh 30.67 in1038.6 mb 0.00 in0.0 mm 0.00 in0.0 mm 0.00 in0.0 mm
07:27 PM 12.2°F-11.0°C 2.7°F-16.3°C 65% 5.0 mph N8.0 kmh N 9.0 mph14.5 kmh 30.67 in1038.6 mb 0.00 in0.0 mm 0.00 in0.0 mm 0.00 in0.0 mm
07:28 PM 12.1°F-11.1°C 2.6°F-16.3°C 65% 8.0 mph N12.9 kmh N 10.0 mph16.1 kmh 30.67 in1038.6 mb 0.00 in0.0 mm 0.00 in0.0 mm 0.00 in0.0 mm
07:29 PM 12.1°F-11.1°C 2.6°F-16.3°C 65% 4.0 mph N6.4 kmh N 10.0 mph16.1 kmh 30.67 in1038.6 mb 0.00 in0.0 mm 0.00 in0.0 mm 0.00 in0.0 mm
07:30 PM 12.0°F-11.1°C 2.1°F-16.6°C 64% 5.0 mph NNE8.0 kmh NNE 10.0 mph16.1 kmh 30.67 in1038.6 mb 0.00 in0.0 mm 0.00 in0.0 mm 0.00 in0.0 mm
07:31 PM 12.0°F-11.1°C 2.1°F-16.6°C 64% 3.0 mph N4.8 kmh N 10.0 mph16.1 kmh<